Provisional Data: Loyalsock Creek near Ringdale, PA


Please select a monitoring station.
Please select start date.
Please select start date.

Toggle Unit: C/F Toggle Unit: C/F
Sample Time Temperature (C) Temperature (F) Specific Conductivity (mS/cm) pH   Turbidity (NTU+) DO (mg/L)
8/11/2023 12:00:00 AM 16.91 62.438 0.022 6.2 3.84 8.78
8/11/2023 12:15:00 AM 16.89 62.402 0.022 6.29 3.58 8.8
8/11/2023 12:30:00 AM 16.86 62.348 0.021 6.27 3.83 8.8
8/11/2023 12:45:00 AM 16.84 62.312 0.021 6.09 3.65 8.8
8/11/2023 1:00:00 AM 16.81 62.258 0.021 6.23 3.84 8.81
8/11/2023 1:15:00 AM 16.78 62.204 0.022 6.15 3.76 8.82
8/11/2023 1:30:00 AM 16.74 62.132 0.022 6.25 3.79 8.83
8/11/2023 1:45:00 AM 16.71 62.078 0.022 6.16 3.9 8.84
8/11/2023 2:00:00 AM 16.67 62.006 0.021 6.29 3.84 8.84
8/11/2023 2:15:00 AM 16.65 61.97 0.022 6.26 3.75 8.85
8/11/2023 2:30:00 AM 16.61 61.898 0.022 6.26 3.71 8.85
8/11/2023 2:45:00 AM 16.57 61.826 0.022 6.11 3.82 8.87
8/11/2023 3:00:00 AM 16.54 61.772 0.022 6.27 3.93 8.87
8/11/2023 3:15:00 AM 16.5 61.7 0.022 6.24 3.72 8.88
8/11/2023 3:30:00 AM 16.45 61.61 0.022 6.15 4.21 8.88
8/11/2023 3:45:00 AM 16.39 61.502 0.022 6.28 3.61 8.89
8/11/2023 4:00:00 AM 16.33 61.394 0.021 6.08 3.7 8.91
8/11/2023 4:15:00 AM 16.27 61.286 0.022 6.23 3.67 8.91
8/11/2023 4:30:00 AM 16.22 61.196 0.022 6.12 3.53 8.92
8/11/2023 4:45:00 AM 16.18 61.124 0.022 6.27 3.4 8.93
8/11/2023 5:00:00 AM 16.14 61.052 0.021 6.15 3.55 8.95
8/11/2023 5:15:00 AM 16.09 60.962 0.022 6.2 3.81 8.96
8/11/2023 5:30:00 AM 16.02 60.836 0.022 6.25 3.65 8.97
8/11/2023 5:45:00 AM 15.96 60.728 0.021 6.08 3.37 9
8/11/2023 6:00:00 AM 15.89 60.602 0.022 6.26 3.86 9.01
8/11/2023 6:15:00 AM 15.83 60.494 0.022 6.1 3.55 9.01
8/11/2023 6:30:00 AM 15.78 60.404 0.022 6.18 3.47 9.03
8/11/2023 6:45:00 AM 15.73 60.314 0.022 6.15 3.49 9.05
8/11/2023 7:00:00 AM 15.68 60.224 0.022 6.17 3.49 9.07
8/11/2023 7:15:00 AM 15.63 60.134 0.022 6.25 3.7 9.11
8/11/2023 7:30:00 AM 15.6 60.08 0.02 6.08 6.11 9.16
8/11/2023 7:45:00 AM -99999.99 -179968 -99999.99 -99999.99 -99999.99 -99999.99
8/11/2023 8:00:00 AM 15.58 60.044 0.022 6.24 3.56 9.21
8/11/2023 8:15:00 AM 15.59 60.062 0.022 6.19 3.52 9.23
8/11/2023 8:30:00 AM 15.61 60.098 0.02 6.17 3.65 9.25
8/11/2023 8:45:00 AM 15.64 60.152 0.022 6.27 3.5 9.27
8/11/2023 9:00:00 AM 15.68 60.224 0.021 6.14 3.41 9.28
8/11/2023 9:15:00 AM 15.74 60.332 0.022 6.26 3.54 9.3
8/11/2023 9:30:00 AM -99999.99 -179968 -99999.99 -99999.99 -99999.99 -99999.99
8/11/2023 9:45:00 AM 0 32 0 0 0 0
8/11/2023 10:00:00 AM 16.02 60.836 0.021 6.1 5.47 9.3
8/11/2023 10:15:00 AM -99999.99 -179968 -99999.99 -99999.99 -99999.99 -99999.99
8/11/2023 10:30:00 AM 16.31 61.358 0.021 6.19 3.49 9.3
8/11/2023 10:45:00 AM 16.46 61.628 0.022 6.22 3.31 9.29
8/11/2023 11:00:00 AM 16.64 61.952 0.022 6.25 3.31 9.27
8/11/2023 11:15:00 AM 16.8 62.24 0.022 6.3 3.2 9.24
8/11/2023 11:30:00 AM 16.99 62.582 0.021 6.29 3.5 9.24
8/11/2023 11:45:00 AM 17.13 62.834 0.022 6.3 3.23 9.2
8/11/2023 12:00:00 PM 17.22 62.996 0.021 6.35 3.33 9.19
8/11/2023 12:15:00 PM 17.3 63.14 0.022 6.37 3.21 9.16
8/11/2023 12:30:00 PM -99999.99 -179968 -99999.99 -99999.99 -99999.99 -99999.99
8/11/2023 12:45:00 PM 17.6 63.68 0.021 6.21 3.2 9.12
8/11/2023 1:00:00 PM 17.75 63.95 0.021 6.3 3.33 9.11
8/11/2023 1:15:00 PM 17.93 64.274 0.021 6.32 3.29 9.08
8/11/2023 1:30:00 PM 18.05 64.49 0.021 6.38 3.15 9.06
8/11/2023 1:45:00 PM 18.12 64.616 0.021 6.27 3.26 9.02
8/11/2023 2:00:00 PM 18.13 64.634 0.022 6.38 3.21 9
8/11/2023 2:15:00 PM 18.25 64.85 0.021 6.38 3.37 9
8/11/2023 2:30:00 PM 18.41 65.138 0.021 6.36 3.15 8.98
8/11/2023 2:45:00 PM 18.6 65.48 0.021 6.43 3.14 8.95
8/11/2023 3:00:00 PM 18.8 65.84 0.022 6.45 3.28 8.92
8/11/2023 3:15:00 PM 18.99 66.182 0.021 6.43 3.28 8.91
8/11/2023 3:30:00 PM 19.11 66.398 0.022 6.46 3.22 8.88
8/11/2023 3:45:00 PM 19.24 66.632 0.021 6.4 3.18 8.85
8/11/2023 4:00:00 PM 19.37 66.866 0.021 6.42 3.35 8.81
8/11/2023 4:15:00 PM 19.41 66.938 0.021 6.27 3.19 8.8
8/11/2023 4:30:00 PM 19.43 66.974 0.021 6.43 3.09 8.76
8/11/2023 4:45:00 PM 19.42 66.956 0.021 6.42 3.18 8.75
8/11/2023 5:00:00 PM 19.38 66.884 0.021 6.44 3.2 8.73
8/11/2023 5:15:00 PM 19.41 66.938 0.021 6.42 3.12 8.74
8/11/2023 5:30:00 PM 19.38 66.884 0.021 6.41 3.28 8.72
8/11/2023 5:45:00 PM 19.33 66.794 0.022 6.42 3.05 8.72
8/11/2023 6:00:00 PM 19.25 66.65 0.022 6.23 3.03 8.71
8/11/2023 6:15:00 PM 19.2 66.56 0.021 6.31 3.26 8.72
8/11/2023 6:30:00 PM 19.08 66.344 0.022 6.33 3.04 8.69
8/11/2023 6:45:00 PM 18.99 66.182 0.021 6.3 3.22 8.67
8/11/2023 7:00:00 PM 18.91 66.038 0.021 6.41 3.23 8.66
8/11/2023 7:15:00 PM 18.82 65.876 0.022 6.27 3.09 8.63
8/11/2023 7:30:00 PM 18.73 65.714 0.022 6.25 3.14 8.61
8/11/2023 7:45:00 PM 18.66 65.588 0.022 6.31 3.07 8.61
8/11/2023 8:00:00 PM 18.59 65.462 0.022 6.36 3.17 8.6
8/11/2023 8:15:00 PM 18.5 65.3 0.023 6.32 3.27 8.57
8/11/2023 8:30:00 PM 18.42 65.156 0.023 6.24 3.12 8.57
8/11/2023 8:45:00 PM 18.33 64.994 0.024 6.3 3.19 8.55
8/11/2023 9:00:00 PM 18.25 64.85 0.023 6.17 3.12 8.55
8/11/2023 9:15:00 PM 18.17 64.706 0.023 6.3 3.25 8.56
8/11/2023 9:30:00 PM 18.11 64.598 0.023 6.29 3.18 8.57
8/11/2023 9:45:00 PM 18.04 64.472 0.023 6.26 3.17 8.58
8/11/2023 10:00:00 PM 17.97 64.346 0.022 6.15 3.2 8.6
8/11/2023 10:15:00 PM 17.89 64.202 0.023 6.29 3.25 8.58
8/11/2023 10:30:00 PM 17.84 64.112 0.022 6.23 3.21 8.61
8/11/2023 10:45:00 PM 17.77 63.986 0.023 6.31 3.14 8.62
8/11/2023 11:00:00 PM 17.72 63.896 0.022 6.16 3.35 8.64
8/11/2023 11:15:00 PM 17.67 63.806 0.022 6.29 3.13 8.64
8/11/2023 11:30:00 PM 17.61 63.698 0.022 6.14 3.11 8.64
8/11/2023 11:45:00 PM 17.54 63.572 0.023 6.25 2.99 8.65
8/12/2023 12:00:00 AM 17.49 63.482 0.023 6.15 3.04 8.66
8/12/2023 12:15:00 AM 17.43 63.374 0.023 6.24 3.24 8.68
8/12/2023 12:30:00 AM 17.36 63.248 0.023 6.15 3.37 8.69
8/12/2023 12:45:00 AM 17.31 63.158 0.023 6.23 3.38 8.7
8/12/2023 1:00:00 AM 17.25 63.05 0.023 6.27 3.29 8.72
8/12/2023 1:15:00 AM 17.2 62.96 0.022 6.23 3.14 8.73
8/12/2023 1:30:00 AM 17.13 62.834 0.023 6.14 3.24 8.73
8/12/2023 1:45:00 AM 17.07 62.726 0.023 6.26 3.12 8.74
8/12/2023 2:00:00 AM 17.01 62.618 0.023 6.25 3.16 8.75
8/12/2023 2:15:00 AM 16.95 62.51 0.023 6.25 3.27 8.76
8/12/2023 2:30:00 AM 16.9 62.42 0.023 6.11 3.35 8.77
8/12/2023 2:45:00 AM 16.84 62.312 0.023 6.27 3.24 8.78
8/12/2023 3:00:00 AM 16.78 62.204 0.023 6.22 3.28 8.8
8/12/2023 3:15:00 AM 16.72 62.096 0.023 6.18 3.13 8.8
8/12/2023 3:30:00 AM 16.67 62.006 0.023 6.27 3.16 8.83
8/12/2023 3:45:00 AM 16.61 61.898 0.023 6.2 3.33 8.83
8/12/2023 4:00:00 AM 16.56 61.808 0.023 6.28 3.28 8.84
8/12/2023 4:15:00 AM 16.51 61.718 0.023 6.06 3.26 8.86
8/12/2023 4:30:00 AM 16.47 61.646 0.023 6.17 3.16 8.87
8/12/2023 4:45:00 AM 16.42 61.556 0.022 6.18 3.21 8.88
8/12/2023 5:00:00 AM 16.37 61.466 0.023 6.17 3.35 8.88
8/12/2023 5:15:00 AM 16.33 61.394 0.022 6.21 3.15 8.9
8/12/2023 5:30:00 AM 16.28 61.304 0.023 6.26 3.26 8.9
8/12/2023 5:45:00 AM 16.24 61.232 0.023 6.07 3.29 8.9
8/12/2023 6:00:00 AM 16.19 61.142 0.023 6.15 3.25 8.91
8/12/2023 6:15:00 AM 16.16 61.088 0.023 6.15 3.68 8.94
8/12/2023 6:30:00 AM 16.11 60.998 0.024 6.26 3.66 8.92
8/12/2023 6:45:00 AM 16.08 60.944 0.023 6.21 3.37 8.96
8/12/2023 7:00:00 AM 16.06 60.908 0.023 6.26 3.13 8.98
8/12/2023 7:15:00 AM 16.04 60.872 0.023 6.18 3.42 8.99
8/12/2023 7:30:00 AM 16.02 60.836 0.024 6.1 3.33 9
8/12/2023 7:45:00 AM 16.03 60.854 0.023 6.28 3.09 9.05
8/12/2023 8:00:00 AM 16.04 60.872 0.023 6.17 3.17 9.07
8/12/2023 8:15:00 AM 16.05 60.89 0.024 6.16 3.19 9.1
8/12/2023 8:30:00 AM 16.09 60.962 0.024 6.27 3.31 9.13
8/12/2023 8:45:00 AM 16.17 61.106 0.027 6.15 3.26 9.18
8/12/2023 9:00:00 AM -99999.99 -179968 -99999.99 -99999.99 -99999.99 -99999.99
8/12/2023 9:15:00 AM 16.4 61.52 0.024 6.22 3.34 9.21
8/12/2023 9:30:00 AM 16.53 61.754 0.024 6.23 3.24 9.23
8/12/2023 9:45:00 AM 16.6 61.88 0.024 6.33 3.15 9.21
8/12/2023 10:00:00 AM -99999.99 -179968 -99999.99 -99999.99 -99999.99 -99999.99
8/12/2023 10:15:00 AM 16.78 62.204 0.023 6.23 3.2 9.23
8/12/2023 10:30:00 AM 16.92 62.456 0.023 6.28 3.25 9.22
8/12/2023 10:45:00 AM 17.12 62.816 0.023 6.27 3.25 9.21
8/12/2023 11:00:00 AM 17.34 63.212 0.024 6.3 3.07 9.2
8/12/2023 11:15:00 AM 17.59 63.662 0.024 6.31 3.21 9.17
8/12/2023 11:30:00 AM 17.82 64.076 0.023 6.31 3.13 9.16
8/12/2023 11:45:00 AM 18.02 64.436 0.023 6.39 3.29 9.11
8/12/2023 12:00:00 PM 18.24 64.832 0.023 6.28 2.99 9.09
8/12/2023 12:15:00 PM 18.39 65.102 0.024 6.41 3.25 9.09
8/12/2023 12:30:00 PM 18.58 65.444 0.023 6.26 3 9.07
8/12/2023 12:45:00 PM 18.75 65.75 0.023 6.37 3.19 9.04
8/12/2023 1:00:00 PM 18.96 66.128 0.023 6.42 3.24 9
8/12/2023 1:15:00 PM 19.11 66.398 0.024 6.41 3.13 8.95
8/12/2023 1:30:00 PM 19.32 66.776 0.023 6.39 3.27 8.94
8/12/2023 1:45:00 PM 19.45 67.01 0.023 6.31 3.05 8.87
8/12/2023 2:00:00 PM 19.7 67.46 0.024 6.35 3.15 8.87
8/12/2023 2:15:00 PM 19.85 67.73 0.023 6.35 2.98 8.81
8/12/2023 2:30:00 PM 20.04 68.07201 0.023 6.35 3 8.78
8/12/2023 2:45:00 PM 20.22 68.396 0.023 6.45 3.02 8.74
8/12/2023 3:00:00 PM 20.34 68.612 0.023 6.31 3.11 8.72
8/12/2023 3:15:00 PM 20.44 68.792 0.023 6.49 3.16 8.68
8/12/2023 3:30:00 PM 20.54 68.972 0.024 6.35 2.97 8.63
8/12/2023 3:45:00 PM 20.69 69.242 0.023 6.43 3.05 8.62
8/12/2023 4:00:00 PM 20.88 69.584 0.023 6.45 3.1 8.6
8/12/2023 4:15:00 PM 21.01 69.818 0.023 6.36 3.06 8.58
8/12/2023 4:30:00 PM 21.1 69.98 0.023 6.39 2.83 8.53
8/12/2023 4:45:00 PM 21.14 70.052 0.024 6.46 3.03 8.51
8/12/2023 5:00:00 PM 21.11 69.998 0.024 6.38 2.91 8.47
8/12/2023 5:15:00 PM 21.04 69.872 0.024 6.38 3.12 8.49
8/12/2023 5:30:00 PM 20.91 69.638 0.024 6.36 3.04 8.47
8/12/2023 5:45:00 PM 20.76 69.368 0.024 6.4 3.12 8.44
8/12/2023 6:00:00 PM 20.61 69.098 0.025 6.45 3.03 8.43
8/12/2023 6:15:00 PM 20.49 68.882 0.024 6.26 2.84 8.43
8/12/2023 6:30:00 PM 20.36 68.648 0.025 6.37 2.94 8.39
8/12/2023 6:45:00 PM 20.25 68.45 0.023 6.32 2.9 8.36
8/12/2023 7:00:00 PM 20.14 68.252 0.024 6.32 3.14 8.34
8/12/2023 7:15:00 PM 20.03 68.054 0.025 6.32 3.21 8.3
8/12/2023 7:30:00 PM 19.92 67.856 0.024 6.38 3.02 8.32
8/12/2023 7:45:00 PM 19.82 67.676 0.025 6.2 3.06 8.3
8/12/2023 8:00:00 PM 19.72 67.496 0.024 6.3 2.93 8.29
8/12/2023 8:15:00 PM 19.64 67.352 0.024 6.25 3.24 8.29
8/12/2023 8:30:00 PM 19.54 67.172 0.026 6.38 3.2 8.28
8/12/2023 8:45:00 PM 19.47 67.046 0.025 6.35 2.85 8.27
8/12/2023 9:00:00 PM 19.4 66.92 0.024 6.19 2.99 8.3
8/12/2023 9:15:00 PM 19.34 66.812 0.024 6.39 3.22 8.31
8/12/2023 9:30:00 PM 19.26 66.668 0.026 6.3 3.23 8.28
8/12/2023 9:45:00 PM 19.2 66.56 0.024 6.3 3.06 8.3
8/12/2023 10:00:00 PM 19.14 66.452 0.025 6.17 3.05 8.29
8/12/2023 10:15:00 PM 19.08 66.344 0.025 6.33 2.98 8.31
8/12/2023 10:30:00 PM 19.02 66.236 0.025 6.15 3.05 8.32
8/12/2023 10:45:00 PM 18.95 66.11 0.025 6.25 3.08 8.35
8/12/2023 11:00:00 PM 18.88 65.984 0.026 6.29 3.16 8.36
8/12/2023 11:15:00 PM 18.82 65.876 0.025 6.21 3.23 8.34
8/12/2023 11:30:00 PM 18.76 65.768 0.025 6.25 3.28 8.38
8/12/2023 11:45:00 PM 18.7 65.66 0.025 6.26 3.34 8.39
8/13/2023 12:00:00 AM 18.64 65.552 0.025 6.23 3.1 8.39
8/13/2023 12:15:00 AM 18.58 65.444 0.026 6.32 3.17 8.4
8/13/2023 12:30:00 AM 18.54 65.372 0.025 6.27 3.21 8.4
8/13/2023 12:45:00 AM 18.5 65.3 0.025 6.32 3.13 8.44
8/13/2023 1:00:00 AM 18.44 65.192 0.025 6.19 3.28 8.43
8/13/2023 1:15:00 AM 18.4 65.12 0.024 6.28 3.07 8.46
8/13/2023 1:30:00 AM 18.34 65.012 0.025 6.25 3.16 8.46
8/13/2023 1:45:00 AM 18.29 64.922 0.025 6.21 3.04 8.45
8/13/2023 2:00:00 AM 18.24 64.832 0.025 6.29 3.06 8.45
8/13/2023 2:15:00 AM 18.19 64.742 0.025 6.19 3.08 8.46
8/13/2023 2:30:00 AM 18.15 64.67 0.025 6.3 3.08 8.47
8/13/2023 2:45:00 AM 18.1 64.58 0.024 6.19 3.08 8.5
8/13/2023 3:00:00 AM 18.06 64.508 0.025 6.3 3.05 8.48
8/13/2023 3:15:00 AM 18.02 64.436 0.025 6.29 2.89 8.49
8/13/2023 3:30:00 AM 17.97 64.346 0.025 6.26 3.16 8.51
8/13/2023 3:45:00 AM 17.94 64.292 0.025 6.18 3.14 8.53
8/13/2023 4:00:00 AM 17.89 64.202 0.025 6.23 3.18 8.53
8/13/2023 4:15:00 AM 17.85 64.13 0.025 6.22 3 8.54
8/13/2023 4:30:00 AM 17.81 64.058 0.025 6.22 3.26 8.54
8/13/2023 4:45:00 AM 17.77 63.986 0.025 6.23 3.18 8.56
8/13/2023 5:00:00 AM 17.74 63.932 0.025 6.27 3.07 8.57
8/13/2023 5:15:00 AM 17.72 63.896 0.025 6.26 3.16 8.58
8/13/2023 5:30:00 AM 17.69 63.842 0.025 6.29 3.11 8.58
8/13/2023 5:45:00 AM 17.67 63.806 0.025 6.18 2.97 8.59
8/13/2023 6:00:00 AM 17.64 63.752 0.026 6.3 3.23 8.54
8/13/2023 6:15:00 AM 17.62 63.716 0.026 6.14 3.3 8.58
8/13/2023 6:30:00 AM 17.59 63.662 0.026 6.31 3.21 8.61
8/13/2023 6:45:00 AM 17.55 63.59 0.026 6.31 2.97 8.61
8/13/2023 7:00:00 AM 17.53 63.554 0.025 6.28 3.01 8.62
8/13/2023 7:15:00 AM 17.5 63.5 0.025 6.14 3.21 8.65
8/13/2023 7:30:00 AM 17.49 63.482 0.026 6.31 2.87 8.68
8/13/2023 7:45:00 AM 17.49 63.482 0.025 6.27 3.14 8.72
8/13/2023 8:00:00 AM 17.51 63.518 0.025 6.17 3.35 8.75
8/13/2023 8:15:00 AM 17.53 63.554 0.025 6.27 3.17 8.8
8/13/2023 8:30:00 AM 17.57 63.626 0.025 6.34 3.08 8.83
8/13/2023 8:45:00 AM 17.64 63.752 0.025 6.33 3.43 8.87
8/13/2023 9:00:00 AM 17.69 63.842 0.026 6.2 3.31 8.88
8/13/2023 9:15:00 AM 17.8 64.04 0.025 6.35 3.24 8.92
8/13/2023 9:30:00 AM 17.89 64.202 0.025 6.29 3.12 8.94
8/13/2023 9:45:00 AM 18.01 64.418 0.025 6.4 3.2 8.96
8/13/2023 10:00:00 AM 18.13 64.634 0.025 6.21 3.22 8.96
8/13/2023 10:15:00 AM 0 32 0 0 0 0
8/13/2023 10:30:00 AM 18.37 65.066 0.025 6.4 3.06 8.92
8/13/2023 10:45:00 AM 18.58 65.444 0.025 6.41 3.15 8.93
8/13/2023 11:00:00 AM 18.77 65.786 0.025 6.38 3.12 8.93
8/13/2023 11:15:00 AM 18.99 66.182 0.025 6.44 3.19 8.92
8/13/2023 11:30:00 AM 19.12 66.416 0.025 6.45 3.25 8.88
8/13/2023 11:45:00 AM 19.18 66.524 0.026 6.3 3.27 8.83
8/13/2023 12:00:00 PM 19.25 66.65 0.025 6.44 3.12 8.82
8/13/2023 12:15:00 PM 19.28 66.704 0.026 6.32 3.41 8.82
8/13/2023 12:30:00 PM 19.36 66.848 0.025 6.46 3.35 8.81
8/13/2023 12:45:00 PM 19.39 66.902 0.025 6.3 3.16 8.81
8/13/2023 1:00:00 PM 19.5 67.1 0.025 6.39 3.19 8.8
8/13/2023 1:15:00 PM 19.54 67.172 0.025 6.39 3.23 8.8
8/13/2023 1:30:00 PM 19.68 67.424 0.024 6.41 3.12 8.79
8/13/2023 1:45:00 PM 19.79 67.622 0.025 6.37 3.08 8.75
8/13/2023 2:00:00 PM 19.98 67.964 0.025 6.46 3.12 8.74
8/13/2023 2:15:00 PM 20.15 68.27 0.025 6.48 3.16 8.73
8/13/2023 2:30:00 PM 20.34 68.612 0.026 6.32 3.09 8.7
8/13/2023 2:45:00 PM 20.44 68.792 0.025 6.39 3.23 8.67
8/13/2023 3:00:00 PM 20.52 68.936 0.024 6.48 3.07 8.65
8/13/2023 3:15:00 PM 20.54 68.972 0.025 6.38 3.08 8.63
8/13/2023 3:30:00 PM 20.61 69.098 0.024 6.47 3.44 8.63
8/13/2023 3:45:00 PM 20.67 69.206 0.025 6.49 3.16 8.59
8/13/2023 4:00:00 PM 20.83 69.494 0.025 6.32 3.19 8.58
8/13/2023 4:15:00 PM 21.06 69.908 0.025 6.46 3.12 8.59
8/13/2023 4:30:00 PM 21.11 69.998 0.025 6.5 3.16 8.56
8/13/2023 4:45:00 PM 21.09 69.962 0.025 6.35 3.47 8.53
8/13/2023 5:00:00 PM 21.03 69.854 0.025 6.5 3.17 8.5
8/13/2023 5:15:00 PM 20.99 69.782 0.025 6.54 3.23 8.5
8/13/2023 5:30:00 PM 20.88 69.584 0.025 6.49 2.92 8.48
8/13/2023 5:45:00 PM 20.81 69.458 0.026 6.37 3.21 8.48
8/13/2023 6:00:00 PM 20.7 69.26 0.025 6.48 3.1 8.45
8/13/2023 6:15:00 PM 20.59 69.062 0.024 6.53 3.25 8.48
8/13/2023 6:30:00 PM 20.43 68.774 0.024 6.4 3.73 8.49
8/13/2023 6:45:00 PM 20.06 68.108 0.023 6.55 4.65 8.5
8/13/2023 7:00:00 PM 19.82 67.676 0.023 6.48 4.91 8.55
8/13/2023 7:15:00 PM 19.69 67.442 0.024 6.51 4.8 8.54
8/13/2023 7:30:00 PM 19.57 67.226 0.024 6.26 3.98 8.52
8/13/2023 7:45:00 PM 19.48 67.064 0.024 6.37 4.14 8.48
8/13/2023 8:00:00 PM 19.41 66.938 0.025 6.4 4.06 8.46
8/13/2023 8:15:00 PM 19.35 66.83 0.025 6.29 4.03 8.43
8/13/2023 8:30:00 PM 19.31 66.758 0.025 6.32 4.36 8.38
8/13/2023 8:45:00 PM 19.28 66.704 0.025 6.32 4.27 8.37
8/13/2023 9:00:00 PM 19.24 66.632 0.025 6.33 4.02 8.37
8/13/2023 9:15:00 PM 19.2 66.56 0.025 6.38 4.25 8.37
8/13/2023 9:30:00 PM 19.15 66.47 0.026 6.26 4.1 8.36
8/13/2023 9:45:00 PM 19.1 66.38 0.026 6.33 3.97 8.37
8/13/2023 10:00:00 PM 19.06 66.308 0.025 6.33 3.74 8.36
8/13/2023 10:15:00 PM 19.01 66.218 0.025 6.15 3.78 8.37
8/13/2023 10:30:00 PM 18.94 66.092 0.026 6.32 3.8 8.37
8/13/2023 10:45:00 PM 18.87 65.966 0.025 6.17 3.73 8.35
8/13/2023 11:00:00 PM 18.8 65.84 0.026 6.31 3.6 8.38
8/13/2023 11:15:00 PM 18.73 65.714 0.025 6.19 3.71 8.41
8/13/2023 11:30:00 PM 18.67 65.606 0.026 6.33 4.34 8.39
8/13/2023 11:45:00 PM 18.6 65.48 0.026 6.3 3.35 8.41
8/14/2023 12:00:00 AM 18.53 65.354 0.027 6.14 3.54 8.45
8/14/2023 12:15:00 AM 18.45 65.21 0.028 6.23 3.53 8.44
8/14/2023 12:30:00 AM 18.38 65.084 0.028 6.31 3.22 8.41
8/14/2023 12:45:00 AM 18.31 64.958 0.026 6.12 3.69 8.47
8/14/2023 1:00:00 AM 18.24 64.832 0.026 6.27 3.58 8.45
8/14/2023 1:15:00 AM 18.18 64.724 0.027 6.29 3.7 8.46
8/14/2023 1:30:00 AM 18.12 64.616 0.029 6.16 3.37 8.48
8/14/2023 1:45:00 AM 18.08 64.544 0.027 6.2 3.34 8.5
8/14/2023 2:00:00 AM 18.04 64.472 0.027 6.24 3.49 8.51
8/14/2023 2:15:00 AM 17.99 64.382 0.028 6.31 3.41 8.51
8/14/2023 2:30:00 AM 17.95 64.31 0.027 6.15 3.59 8.51
8/14/2023 2:45:00 AM 17.92 64.256 0.026 6.24 3.28 8.55
8/14/2023 3:00:00 AM 17.88 64.184 0.026 6.33 3.39 8.55
8/14/2023 3:15:00 AM 17.83 64.094 0.027 6.14 3.29 8.52
8/14/2023 3:30:00 AM 17.78 64.004 0.027 6.33 3.4 8.56
8/14/2023 3:45:00 AM 17.74 63.932 0.027 6.25 3.48 8.58
8/14/2023 4:00:00 AM 17.68 63.824 0.027 6.3 3.37 8.54
8/14/2023 4:15:00 AM 17.63 63.734 0.028 6.26 3.34 8.54
8/14/2023 4:30:00 AM 17.58 63.644 0.027 6.17 3.37 8.58
8/14/2023 4:45:00 AM 17.53 63.554 0.027 6.26 3.16 8.58
8/14/2023 5:00:00 AM 17.49 63.482 0.027 6.2 3.29 8.6
8/14/2023 5:15:00 AM 17.43 63.374 0.028 6.28 3.27 8.57
8/14/2023 5:30:00 AM 17.4 63.32 0.028 6.14 3.4 8.61
8/14/2023 5:45:00 AM 17.36 63.248 0.027 6.2 3.33 8.64
8/14/2023 6:00:00 AM 17.32 63.176 0.027 6.21 3.47 8.59
8/14/2023 6:15:00 AM 17.3 63.14 0.027 6.26 3.26 8.66
8/14/2023 6:30:00 AM 17.26 63.068 0.027 6.31 3.4 8.65
8/14/2023 6:45:00 AM 17.22 62.996 0.028 6.27 3.34 8.64
8/14/2023 7:00:00 AM 17.19 62.942 0.028 6.15 3.22 8.65
8/14/2023 7:15:00 AM 17.18 62.924 0.027 6.22 3.36 8.7
8/14/2023 7:30:00 AM 17.16 62.888 0.028 6.21 3.33 8.72
8/14/2023 7:45:00 AM 17.16 62.888 0.027 6.24 3.35 8.78
8/14/2023 8:00:00 AM 17.15 62.87 0.028 6.31 3.39 8.76
8/14/2023 8:15:00 AM 17.17 62.906 0.028 6.31 3.39 8.83
8/14/2023 8:30:00 AM 17.17 62.906 0.028 6.31 3.26 8.84
8/14/2023 8:45:00 AM 17.22 62.996 0.027 6.2 3.5 8.91
8/14/2023 9:00:00 AM 17.27 63.086 0.027 6.33 3.29 8.95
8/14/2023 9:15:00 AM 17.32 63.176 0.027 6.26 3.17 8.98
8/14/2023 9:30:00 AM 17.38 63.284 0.027 6.31 3.43 9
8/14/2023 9:45:00 AM 17.45 63.41 0.027 6.29 3.31 9.03
8/14/2023 10:00:00 AM 17.55 63.59 0.026 6.43 3.18 9.07
8/14/2023 10:15:00 AM 17.59 63.662 0.027 6.39 3.54 9.06
8/14/2023 10:30:00 AM 17.68 63.824 0.027 6.34 3.22 9.07
8/14/2023 10:45:00 AM 17.76 63.968 0.026 6.31 3.3 9.07
8/14/2023 11:00:00 AM 17.89 64.202 0.027 6.39 3.16 9.09
8/14/2023 11:15:00 AM 18.07 64.526 0.026 6.45 3.31 9.1
8/14/2023 11:30:00 AM 18.25 64.85 0.026 6.32 3.4 9.11
8/14/2023 11:45:00 AM 18.47 65.246 0.026 6.47 3.3 9.1
8/14/2023 12:00:00 PM 18.72 65.696 0.026 6.46 3.11 9.09
8/14/2023 12:15:00 PM 18.98 66.164 0.026 6.49 3.08 9.06
8/14/2023 12:30:00 PM 19.22 66.596 0.026 6.37 3.18 9.05
8/14/2023 12:45:00 PM 19.47 67.046 0.026 6.48 3.11 9.01
8/14/2023 1:00:00 PM 19.67 67.406 0.026 6.46 3.29 8.96
8/14/2023 1:15:00 PM 19.87 67.766 0.026 6.52 3.21 8.94
8/14/2023 1:30:00 PM 20.02 68.036 0.026 6.49 3.31 8.9
8/14/2023 1:45:00 PM 20.16 68.288 0.027 6.49 3.59 8.86
8/14/2023 2:00:00 PM 20.4 68.72 0.025 6.51 3.15 8.86
8/14/2023 2:15:00 PM 20.51 68.918 0.026 6.43 3.2 8.81
8/14/2023 2:30:00 PM 20.71 69.278 0.026 6.5 3.26 8.81
8/14/2023 2:45:00 PM 20.8 69.44 0.025 6.51 3.32 8.75
8/14/2023 3:00:00 PM 20.93 69.674 0.026 6.58 3.28 8.74
8/14/2023 3:15:00 PM 21 69.8 0.026 6.4 3.24 8.7
8/14/2023 3:30:00 PM 21.04 69.872 0.026 6.58 3.15 8.67
8/14/2023 3:45:00 PM 21.04 69.872 0.026 6.56 3.4 8.63
8/14/2023 4:00:00 PM 21.05 69.89 0.026 6.4 3.03 8.63
8/14/2023 4:15:00 PM 21.09 69.962 0.026 6.58 3.09 8.61
8/14/2023 4:30:00 PM 21.07 69.926 0.026 6.55 3.1 8.58
8/14/2023 4:45:00 PM 21.05 69.89 0.026 6.42 3.45 8.54
8/14/2023 5:00:00 PM 21 69.8 0.026 6.46 3.07 8.51
8/14/2023 5:15:00 PM 20.95 69.71 0.026 6.47 3.06 8.46
8/14/2023 5:30:00 PM 20.85 69.53 0.027 6.42 3.12 8.39
8/14/2023 5:45:00 PM 20.81 69.458 0.026 6.42 3.21 8.38
8/14/2023 6:00:00 PM 20.73 69.314 0.026 6.44 3.18 8.37
8/14/2023 6:15:00 PM 20.65 69.17 0.026 6.44 3.14 8.35
8/14/2023 6:30:00 PM 20.58 69.044 0.026 6.43 3.17 8.34
8/14/2023 6:45:00 PM 20.5 68.9 0.027 6.37 2.97 8.31
8/14/2023 7:00:00 PM 20.44 68.792 0.027 6.48 3.01 8.29
8/14/2023 7:15:00 PM 20.34 68.612 0.027 6.31 2.98 8.25
8/14/2023 7:30:00 PM 20.26 68.468 0.027 6.43 3.25 8.22
8/14/2023 7:45:00 PM 20.18 68.324 0.027 6.4 3.3 8.19
8/14/2023 8:00:00 PM 20.12 68.216 0.027 6.28 3.21 8.2
8/14/2023 8:15:00 PM 20.03 68.054 0.027 6.34 3.3 8.18
8/14/2023 8:30:00 PM 19.95 67.91 0.027 6.38 3.33 8.18
8/14/2023 8:45:00 PM 19.87 67.766 0.027 6.31 3.16 8.17
8/14/2023 9:00:00 PM 19.78 67.604 0.028 6.4 3.39 8.18
8/14/2023 9:15:00 PM -99999.99 -179968 -99999.99 -99999.99 -99999.99 -99999.99
8/14/2023 9:30:00 PM 19.65 67.37 0.027 6.35 3.28 8.19
8/14/2023 9:45:00 PM 19.58 67.244 0.028 6.38 3.32 8.2
8/14/2023 10:00:00 PM 19.52 67.136 0.027 6.36 3.51 8.23
8/14/2023 10:15:00 PM 19.45 67.01 0.029 6.21 3.75 8.22
8/14/2023 10:30:00 PM 19.39 66.902 0.029 6.35 3.54 8.2
8/14/2023 10:45:00 PM 19.34 66.812 0.028 6.38 3.62 8.26
8/14/2023 11:00:00 PM 19.28 66.704 0.029 6.23 3.66 8.23
8/14/2023 11:15:00 PM 19.23 66.614 0.029 6.37 3.3 8.24
8/14/2023 11:30:00 PM 19.17 66.506 0.029 6.36 3.65 8.27
8/14/2023 11:45:00 PM 19.12 66.416 0.029 6.3 3.63 8.25
8/15/2023 12:00:00 AM 19.05 66.29 0.031 6.42 4.91 8.29
8/15/2023 12:15:00 AM 19 66.2 0.03 6.31 4.77 8.33
8/15/2023 12:30:00 AM 18.95 66.11 0.032 6.41 9.19 8.35
8/15/2023 12:45:00 AM 18.87 65.966 0.034 6.51 11.95 8.35
8/15/2023 1:00:00 AM 18.8 65.84 0.032 6.41 9.83 8.36
8/15/2023 1:15:00 AM 18.72 65.696 0.03 6.49 7.45 8.38
8/15/2023 1:30:00 AM 18.68 65.624 0.028 6.29 7.41 8.39
8/15/2023 1:45:00 AM 18.67 65.606 0.029 6.37 8.76 8.4
8/15/2023 2:00:00 AM 18.66 65.588 0.031 6.46 13.36 8.41
8/15/2023 2:15:00 AM 18.62 65.516 0.03 6.36 15.81 8.43
8/15/2023 2:30:00 AM 18.56 65.408 0.028 6.39 16.58 8.46
8/15/2023 2:45:00 AM 18.5 65.3 0.027 6.37 16.13 8.5
8/15/2023 3:00:00 AM 18.45 65.21 0.026 6.3 15.96 8.52
8/15/2023 3:15:00 AM 18.41 65.138 0.025 6.28 16.12 8.53
8/15/2023 3:30:00 AM 18.37 65.066 0.025 6.35 19.07 8.56
8/15/2023 3:45:00 AM 18.34 65.012 0.025 6.2 22.82 8.57
8/15/2023 4:00:00 AM 18.35 65.03 0.024 6.34 28.55 8.59
8/15/2023 4:15:00 AM 18.33 64.994 0.024 6.11 30.88 8.59
8/15/2023 4:30:00 AM 18.3 64.94 0.023 6.17 31.71 8.61
8/15/2023 4:45:00 AM 18.24 64.832 0.022 6.13 27.28 8.62
8/15/2023 5:00:00 AM 18.15 64.67 0.022 6.21 25.06 8.63
8/15/2023 5:15:00 AM 18.06 64.508 0.022 6.02 23.45 8.66
8/15/2023 5:30:00 AM 17.97 64.346 0.022 6.2 24.26 8.68
8/15/2023 5:45:00 AM 17.9 64.22 0.022 6.08 24.23 8.7
8/15/2023 6:00:00 AM 17.86 64.148 0.022 6.2 23.45 8.7
8/15/2023 6:15:00 AM 17.85 64.13 0.021 5.94 21.65 8.7
8/15/2023 6:30:00 AM 17.84 64.112 0.021 6.03 20.46 8.7
8/15/2023 6:45:00 AM 17.83 64.094 0.02 6.03 19.23 8.7
8/15/2023 7:00:00 AM 17.84 64.112 0.02 5.98 18.72 8.71
8/15/2023 7:15:00 AM 17.86 64.148 0.02 6.01 17.53 8.71
8/15/2023 7:30:00 AM 17.88 64.184 0.02 6.01 16.59 8.71
8/15/2023 7:45:00 AM 17.91 64.238 0.02 6.03 15.87 8.7
8/15/2023 8:00:00 AM 17.95 64.31 0.02 6.07 14.53 8.7
8/15/2023 8:15:00 AM 17.99 64.382 0.02 5.97 13.37 8.7
8/15/2023 8:30:00 AM 18.03 64.454 0.02 6 13.07 8.69
8/15/2023 8:45:00 AM 18.08 64.544 0.02 6.07 11.88 8.69
8/15/2023 9:00:00 AM 18.12 64.616 0.019 5.99 11.3 8.68
8/15/2023 9:15:00 AM 18.15 64.67 0.019 5.98 10.89 8.68
8/15/2023 9:30:00 AM 18.19 64.742 0.019 6.03 10.13 8.67
8/15/2023 9:45:00 AM 18.23 64.814 0.019 6.07 9.8 8.67
8/15/2023 10:00:00 AM 18.28 64.904 0.019 5.94 9.1 8.67
8/15/2023 10:15:00 AM 18.32 64.976 0.019 5.99 9.02 8.68
8/15/2023 10:30:00 AM 18.35 65.03 0.019 6.05 8.93 8.68
8/15/2023 10:45:00 AM 18.39 65.102 0.019 6.1 8.42 8.68
8/15/2023 11:00:00 AM 18.43 65.174 0.019 6.08 8.42 8.68
8/15/2023 11:15:00 AM 18.47 65.246 0.019 6.08 8.04 8.68
8/15/2023 11:30:00 AM 18.5 65.3 0.019 5.95 7.84 8.67
8/15/2023 11:45:00 AM 18.52 65.336 0.019 6.02 7.66 8.66
8/15/2023 12:00:00 PM 18.59 65.462 0.019 6.08 7.46 8.67
8/15/2023 12:15:00 PM 18.61 65.498 0.019 6.11 7.47 8.67
8/15/2023 12:30:00 PM 18.62 65.516 0.019 5.93 7.39 8.66
8/15/2023 12:45:00 PM 18.62 65.516 0.019 6 6.99 8.64
8/15/2023 1:00:00 PM 18.64 65.552 0.019 6.1 6.75 8.64
8/15/2023 1:15:00 PM 18.67 65.606 0.018 5.95 6.57 8.64
8/15/2023 1:30:00 PM 18.69 65.642 0.018 6.07 6.55 8.64
8/15/2023 1:45:00 PM 18.69 65.642 0.018 6 6.5 8.63
8/15/2023 2:00:00 PM 18.69 65.642 0.018 6 6.39 8.62
8/15/2023 2:15:00 PM 18.71 65.67799 0.019 6.11 6 8.62
8/15/2023 2:30:00 PM 18.74 65.732 0.018 6.08 6.05 8.62
8/15/2023 2:45:00 PM 18.76 65.768 0.018 5.93 6.04 8.62
8/15/2023 3:00:00 PM 18.78 65.804 0.018 6.04 5.93 8.62
8/15/2023 3:15:00 PM 18.78 65.804 0.018 6.04 5.93 8.62
8/15/2023 3:30:00 PM 18.87 65.966 0.018 6.16 5.67 8.64
8/15/2023 3:45:00 PM 18.91 66.038 0.018 6.07 5.78 8.64
8/15/2023 4:00:00 PM 18.94 66.092 0.018 6.09 5.41 8.63
8/15/2023 4:15:00 PM 18.98 66.164 0.018 6.12 5.55 8.63
8/15/2023 4:30:00 PM 19.06 66.308 0.018 6.13 5.13 8.64
8/15/2023 4:45:00 PM 19.13 66.434 0.018 5.94 5.59 8.63
8/15/2023 5:00:00 PM 19.12 66.416 0.018 6.13 5.24 8.62
8/15/2023 5:15:00 PM 19.13 66.434 0.018 5.94 5.21 8.6
8/15/2023 5:30:00 PM 19.13 66.434 0.018 6.14 5.12 8.6
8/15/2023 5:45:00 PM 19.14 66.452 0.018 6.04 5.1 8.58
8/15/2023 6:00:00 PM 19.15 66.47 0.018 6.13 4.83 8.58
8/15/2023 6:15:00 PM 19.13 66.434 0.018 6.02 5.1 8.55
8/15/2023 6:30:00 PM 19.11 66.398 0.018 6 5.07 8.53
8/15/2023 6:45:00 PM 19.1 66.38 0.018 6.08 4.98 8.52
8/15/2023 7:00:00 PM 19.1 66.38 0.018 6.11 4.68 8.52
8/15/2023 7:15:00 PM 19.09 66.362 0.018 6.08 4.86 8.51
8/15/2023 7:30:00 PM 19.09 66.362 0.018 5.94 4.8 8.5
8/15/2023 7:45:00 PM 19.08 66.344 0.018 5.98 4.73 8.49
8/15/2023 8:00:00 PM 19.07 66.326 0.018 6.11 4.87 8.48
8/15/2023 8:15:00 PM 19.05 66.29 0.018 6.03 4.92 8.48
8/15/2023 8:30:00 PM 19.03 66.254 0.018 5.97 4.91 8.48
8/15/2023 8:45:00 PM 19.02 66.236 0.018 5.99 5.04 8.49
8/15/2023 9:00:00 PM 19 66.2 0.018 6.11 4.87 8.48
8/15/2023 9:15:00 PM 18.97 66.146 0.018 6.11 4.74 8.49
8/15/2023 9:30:00 PM 18.95 66.11 0.018 5.92 4.88 8.49
8/15/2023 9:45:00 PM 18.91 66.038 0.018 6.12 4.73 8.49
8/15/2023 10:00:00 PM 18.86 65.948 0.018 6.07 4.74 8.5
8/15/2023 10:15:00 PM 18.81 65.858 0.018 5.93 4.56 8.51
8/15/2023 10:30:00 PM 18.77 65.786 0.018 6 4.49 8.52
8/15/2023 10:45:00 PM 18.72 65.696 0.018 5.94 4.62 8.53
8/15/2023 11:00:00 PM 18.68 65.624 0.018 6.03 4.55 8.54
8/15/2023 11:15:00 PM 18.63 65.534 0.018 6.05 4.51 8.55
8/15/2023 11:30:00 PM 18.58 65.444 0.018 6.05 4.72 8.56
8/15/2023 11:45:00 PM 18.53 65.354 0.018 6.02 4.36 8.57
8/16/2023 12:00:00 AM 18.47 65.246 0.018 6.09 4.3 8.58
8/16/2023 12:15:00 AM 18.42 65.156 0.018 5.82 4.53 8.59
8/16/2023 12:30:00 AM 18.36 65.048 0.018 6.04 4.86 8.6
8/16/2023 12:45:00 AM 18.31 64.958 0.018 5.92 4.52 8.61
8/16/2023 1:00:00 AM 18.25 64.85 0.018 6.03 4.41 8.62
8/16/2023 1:15:00 AM 18.19 64.742 0.018 6.05 4.37 8.63
8/16/2023 1:30:00 AM 18.14 64.652 0.018 5.91 4.33 8.64
8/16/2023 1:45:00 AM 18.09 64.562 0.018 5.99 4.24 8.66
8/16/2023 2:00:00 AM 18.05 64.49 0.018 5.95 4.26 8.66
8/16/2023 2:15:00 AM 18 64.4 0.018 5.91 4.56 8.67
8/16/2023 2:30:00 AM 17.96 64.328 0.018 6.02 4.37 8.69
8/16/2023 2:45:00 AM 17.91 64.238 0.018 5.96 4.31 8.7
8/16/2023 3:00:00 AM 17.87 64.166 0.018 5.98 4.34 8.71
8/16/2023 3:15:00 AM 17.83 64.094 0.018 5.98 4.35 8.71
8/16/2023 3:30:00 AM 17.8 64.04 0.018 5.94 4.32 8.73
8/16/2023 3:45:00 AM 17.76 63.968 0.018 6.06 4.21 8.72
8/16/2023 4:00:00 AM 17.73 63.914 0.018 5.92 4.26 8.74
8/16/2023 4:15:00 AM 17.69 63.842 0.018 5.99 4.23 8.74
8/16/2023 4:30:00 AM 17.66 63.788 0.018 5.89 4.14 8.74
8/16/2023 4:45:00 AM 17.63 63.734 0.018 6.06 4.08 8.75
8/16/2023 5:00:00 AM 17.6 63.68 0.018 5.83 4.15 8.76
8/16/2023 5:15:00 AM 17.57 63.626 0.018 6.03 4.16 8.77
8/16/2023 5:30:00 AM 17.54 63.572 0.018 5.87 4.02 8.77
8/16/2023 5:45:00 AM 17.52 63.536 0.018 6.06 4.01 8.78
8/16/2023 6:00:00 AM 17.49 63.482 0.018 5.84 3.98 8.78
8/16/2023 6:15:00 AM 17.46 63.428 0.018 5.97 4.35 8.79
8/16/2023 6:30:00 AM 17.44 63.392 0.018 6.06 4.05 8.8
8/16/2023 6:45:00 AM 17.42 63.356 0.018 6.03 4.01 8.81
8/16/2023 7:00:00 AM 17.4 63.32 0.018 6.05 4.09 8.83
8/16/2023 7:15:00 AM 17.39 63.302 0.018 6.01 4.14 8.84
8/16/2023 7:30:00 AM 17.38 63.284 0.018 6.05 4.07 8.86
8/16/2023 7:45:00 AM 17.38 63.284 0.018 6.08 4.03 8.88
8/16/2023 8:00:00 AM 17.39 63.302 0.018 5.86 3.96 8.89
8/16/2023 8:15:00 AM 17.39 63.302 0.018 6.09 3.81 8.92
8/16/2023 8:30:00 AM 17.4 63.32 0.018 6.09 3.92 8.92
8/16/2023 8:45:00 AM 17.43 63.374 0.018 6.08 3.86 8.94
8/16/2023 9:00:00 AM 17.49 63.482 0.018 6.09 3.84 8.95
8/16/2023 9:15:00 AM 17.55 63.59 0.018 5.93 3.86 8.95
8/16/2023 9:30:00 AM 17.6 63.68 0.018 6.14 3.9 8.96
8/16/2023 9:45:00 AM 17.64 63.752 0.018 5.98 3.91 8.96
8/16/2023 10:00:00 AM 17.71 63.878 0.018 6.09 3.82 8.96
8/16/2023 10:15:00 AM -99999.99 -179968 -99999.99 -99999.99 -99999.99 -99999.99
8/16/2023 10:30:00 AM 17.94 64.292 0.018 6.12 3.8 8.95
8/16/2023 10:45:00 AM 18.01 64.418 0.018 6.15 3.74 8.95
8/16/2023 11:00:00 AM 18.05 64.49 0.018 5.94 3.72 8.94
8/16/2023 11:15:00 AM 18.1 64.58 0.018 6.15 3.79 8.93
8/16/2023 11:30:00 AM 18.26 64.868 0.018 6.16 3.81 8.92
8/16/2023 11:45:00 AM 18.45 65.21 0.018 5.95 3.66 8.92
8/16/2023 12:00:00 PM 18.53 65.354 0.018 6.15 3.78 8.9
8/16/2023 12:15:00 PM 18.56 65.408 0.018 6.08 3.68 8.88
8/16/2023 12:30:00 PM 18.67 65.606 0.018 6.04 3.65 8.87
8/16/2023 12:45:00 PM 18.8 65.84 0.019 6.08 3.61 8.86
8/16/2023 1:00:00 PM 18.84 65.912 0.018 6.07 3.55 8.84
8/16/2023 1:15:00 PM 18.82 65.876 0.019 6.18 3.71 8.82
8/16/2023 1:30:00 PM 18.92 66.056 0.018 6.06 3.62 8.81
8/16/2023 1:45:00 PM 18.98 66.164 0.018 6.09 3.72 8.8
8/16/2023 2:00:00 PM 18.92 66.056 0.018 6.19 3.58 8.79
8/16/2023 2:15:00 PM 18.94 66.092 0.018 6.2 3.68 8.78
8/16/2023 2:30:00 PM 19.18 66.524 0.019 6.14 3.63 8.78
8/16/2023 2:45:00 PM 19.35 66.83 0.019 6.04 3.58 8.76
8/16/2023 3:00:00 PM 19.48 67.064 0.019 6.22 3.61 8.74
8/16/2023 3:15:00 PM 19.51 67.118 0.019 6.17 3.44 8.72
8/16/2023 3:30:00 PM 19.49 67.082 0.018 6.07 3.69 8.7
8/16/2023 3:45:00 PM 19.63 67.334 0.019 6.24 3.72 8.7
8/16/2023 4:00:00 PM 19.78 67.604 0.019 6.16 3.39 8.7
8/16/2023 4:15:00 PM 19.86 67.748 0.019 6.22 3.46 8.69
8/16/2023 4:30:00 PM 19.92 67.856 0.019 6.1 3.46 8.67
8/16/2023 4:45:00 PM 19.96 67.92799 0.019 6.18 3.49 8.66
8/16/2023 5:00:00 PM 19.89 67.802 0.019 6.18 3.47 8.63
8/16/2023 5:15:00 PM 19.8 67.64 0.019 6.08 3.47 8.61
8/16/2023 5:30:00 PM 19.74 67.532 0.019 6.22 3.57 8.58
8/16/2023 5:45:00 PM 19.7 67.46 0.019 6.06 3.64 8.57
8/16/2023 6:00:00 PM 19.68 67.424 0.019 6.16 3.49 8.58
8/16/2023 6:15:00 PM 19.68 67.424 0.019 6.08 3.44 8.58
8/16/2023 6:30:00 PM 19.68 67.424 0.019 6.23 3.52 8.58
8/16/2023 6:45:00 PM 19.65 67.37 0.019 6.15 3.34 8.57
8/16/2023 7:00:00 PM 19.61 67.298 0.019 6.21 3.39 8.55
8/16/2023 7:15:00 PM 19.56 67.208 0.019 6.18 3.37 8.53
8/16/2023 7:30:00 PM 19.51 67.118 0.019 6.1 3.4 8.51
8/16/2023 7:45:00 PM 19.46 67.028 0.019 6.03 3.5 8.49
8/16/2023 8:00:00 PM 19.4 66.92 0.019 6.18 3.47 8.48
8/16/2023 8:15:00 PM 19.33 66.794 0.019 6.16 3.46 8.47
8/16/2023 8:30:00 PM 19.28 66.704 0.019 6.15 3.47 8.47
8/16/2023 8:45:00 PM 19.23 66.614 0.019 6.15 3.45 8.48
8/16/2023 9:00:00 PM 19.19 66.542 0.019 6.1 3.32 8.48
8/16/2023 9:15:00 PM 19.15 66.47 0.019 6.15 3.32 8.48
8/16/2023 9:30:00 PM 19.11 66.398 0.019 6.15 4.51 8.49
8/16/2023 9:45:00 PM 19.07 66.326 0.019 5.92 3.56 8.49
8/16/2023 10:00:00 PM -99999.99 -179968 -99999.99 -99999.99 -99999.99 -99999.99
8/16/2023 10:15:00 PM 19 66.2 0.019 6.02 3.42 8.5
8/16/2023 10:30:00 PM 18.95 66.11 0.019 6.02 3.39 8.51
8/16/2023 10:45:00 PM 18.9 66.02 0.019 6.09 3.29 8.52
8/16/2023 11:00:00 PM 18.85 65.93 0.019 6.15 3.43 8.52
8/16/2023 11:15:00 PM 18.8 65.84 0.019 5.92 3.47 8.53
8/16/2023 11:30:00 PM 18.75 65.75 0.019 6.05 3.41 8.54
8/16/2023 11:45:00 PM 18.7 65.66 0.019 6.14 3.5 8.55
8/17/2023 12:00:00 AM 18.65 65.57 0.019 6.14 3.35 8.56
8/17/2023 12:15:00 AM 18.6 65.48 0.019 6.07 3.41 8.57
8/17/2023 12:30:00 AM 18.55 65.39 0.02 5.94 3.3 8.58
8/17/2023 12:45:00 AM 18.5 65.3 0.02 6.14 3.31 8.59
8/17/2023 1:00:00 AM 18.45 65.21 0.02 6.08 3.39 8.59
8/17/2023 1:15:00 AM 18.41 65.138 0.02 6.13 3.42 8.6
8/17/2023 1:30:00 AM 18.37 65.066 0.02 6.09 3.53 8.61
8/17/2023 1:45:00 AM 18.32 64.976 0.02 6.05 3.48 8.62
8/17/2023 2:00:00 AM 18.26 64.868 0.02 6.01 3.54 8.62
8/17/2023 2:15:00 AM 18.22 64.796 0.02 6.01 3.41 8.63
8/17/2023 2:30:00 AM 18.17 64.706 0.02 6.14 3.4 8.64
8/17/2023 2:45:00 AM 18.12 64.616 0.02 6.1 3.47 8.65
8/17/2023 3:00:00 AM 18.07 64.526 0.02 5.95 3.14 8.66
8/17/2023 3:15:00 AM 18.02 64.436 0.02 6.08 3.36 8.67
8/17/2023 3:30:00 AM 17.97 64.346 0.02 6.06 3.17 8.67
8/17/2023 3:45:00 AM 17.91 64.238 0.02 6.08 3.24 8.69
8/17/2023 4:00:00 AM 17.86 64.148 0.02 6.04 3.19 8.69
8/17/2023 4:15:00 AM 17.81 64.058 0.02 6.07 3.11 8.7
8/17/2023 4:30:00 AM 17.76 63.968 0.02 5.98 3.16 8.71
8/17/2023 4:45:00 AM 17.7 63.86 0.02 6.12 3.29 8.73
8/17/2023 5:00:00 AM 17.65 63.77 0.02 5.9 3.21 8.73
8/17/2023 5:15:00 AM 17.59 63.662 0.02 6.11 3.26 8.74
8/17/2023 5:30:00 AM 17.54 63.572 0.02 5.93 3.2 8.75
8/17/2023 5:45:00 AM 17.48 63.464 0.02 6.11 3.33 8.76
8/17/2023 6:00:00 AM 17.43 63.374 0.02 6 3.19 8.77
8/17/2023 6:15:00 AM 17.37 63.266 0.02 6.05 3.45 8.78
8/17/2023 6:30:00 AM 17.31 63.158 0.02 5.95 3.41 8.81
8/17/2023 6:45:00 AM 17.27 63.086 0.02 6.11 3.34 8.83
8/17/2023 7:00:00 AM 17.23 63.014 0.02 5.9 3.28 8.84
8/17/2023 7:15:00 AM 17.22 62.996 0.02 6.03 3.22 8.87
8/17/2023 7:30:00 AM 17.2 62.96 0.02 6.12 3.19 8.89
8/17/2023 7:45:00 AM 17.18 62.924 0.02 6.11 3.06 8.91
8/17/2023 8:00:00 AM 17.18 62.924 0.02 5.92 3.32 8.93
8/17/2023 8:15:00 AM 17.19 62.942 0.02 6.13 3.1 8.95
8/17/2023 8:30:00 AM 17.22 62.996 0.02 6.07 3.2 8.95
8/17/2023 8:45:00 AM 17.27 63.086 0.02 6.09 3.34 8.97
8/17/2023 9:00:00 AM 17.32 63.176 0.02 6.15 3.29 8.98
8/17/2023 9:15:00 AM 17.38 63.284 0.021 5.86 3.39 8.98
8/17/2023 9:30:00 AM 17.47 63.446 0.02 6.06 3.33 8.98
8/17/2023 9:45:00 AM 17.57 63.626 0.02 6.11 3.31 8.99
8/17/2023 10:00:00 AM 17.7 63.86 0.02 6.08 3.32 8.99
8/17/2023 10:15:00 AM 17.81 64.058 0.02 6.11 3.48 9
8/17/2023 10:30:00 AM 17.87 64.166 0.02 6.21 3.14 9.01
8/17/2023 10:45:00 AM 17.89 64.202 0.02 6.07 3.19 9.03
8/17/2023 11:00:00 AM 17.94 64.292 0.02 6.15 3.22 9.02
8/17/2023 11:15:00 AM 18.02 64.436 0.02 6.2 3.3 9.02
8/17/2023 11:30:00 AM 18.09 64.562 0.02 6.16 3.22 9.01
8/17/2023 11:45:00 AM 18.17 64.706 0.021 6.15 3.4 9
8/17/2023 12:00:00 PM 18.24 64.832 0.02 6.17 3.26 8.99
8/17/2023 12:15:00 PM 18.29 64.922 0.02 6.16 3.15 8.98
8/17/2023 12:30:00 PM 18.29 64.922 0.021 6.18 3.14 8.95
8/17/2023 12:45:00 PM 18.27 64.886 0.021 6.21 3.06 8.92
8/17/2023 1:00:00 PM 18.27 64.886 0.02 6.23 3.27 8.92
8/17/2023 1:15:00 PM 18.38 65.084 0.02 6.18 3.19 8.93
8/17/2023 1:30:00 PM 18.59 65.462 0.02 6.28 3.25 8.93
8/17/2023 1:45:00 PM 18.8 65.84 0.02 6.06 3.37 8.91
8/17/2023 2:00:00 PM 19.03 66.254 0.02 6.18 3.09 8.88
8/17/2023 2:15:00 PM 19.25 66.65 0.02 6.18 2.97 8.86
8/17/2023 2:30:00 PM 19.45 67.01 0.02 6.29 2.94 8.82
8/17/2023 2:45:00 PM 19.6 67.28 0.02 6.26 3.05 8.79
8/17/2023 3:00:00 PM 19.67 67.406 0.021 6.26 3.32 8.77
8/17/2023 3:15:00 PM 19.63 67.334 0.021 6.21 2.99 8.74
8/17/2023 3:30:00 PM 19.64 67.352 0.021 6.2 3.05 8.72
8/17/2023 3:45:00 PM 19.76 67.568 0.02 6.18 3.07 8.71
8/17/2023 4:00:00 PM 19.83 67.694 0.021 6.28 2.99 8.69
8/17/2023 4:15:00 PM 19.88 67.784 0.02 6.2 3.04 8.67
8/17/2023 4:30:00 PM 19.81 67.658 0.021 6.29 3.03 8.65
8/17/2023 4:45:00 PM 19.74 67.532 0.021 6.22 3.17 8.63
8/17/2023 5:00:00 PM 19.69 67.442 0.021 6.27 2.93 8.62
8/17/2023 5:15:00 PM 19.66 67.388 0.021 6.31 2.95 8.61
8/17/2023 5:30:00 PM 19.62 67.316 0.021 6.19 2.87 8.59
8/17/2023 5:45:00 PM 19.61 67.298 0.021 6.27 3.09 8.59
8/17/2023 6:00:00 PM 19.6 67.28 0.021 6.23 3.09 8.59
8/17/2023 6:15:00 PM 19.54 67.172 0.021 6.27 3.1 8.56
8/17/2023 6:30:00 PM 19.51 67.118 0.021 6.12 3.02 8.55
8/17/2023 6:45:00 PM 19.47 67.046 0.021 6.16 2.99 8.52
8/17/2023 7:00:00 PM 19.42 66.956 0.023 6.27 3.01 8.5
8/17/2023 7:15:00 PM 19.39 66.902 0.022 6.15 2.99 8.5
8/17/2023 7:30:00 PM 19.35 66.83 0.022 6.26 3.11 8.49
8/17/2023 7:45:00 PM 19.31 66.758 0.022 6.25 3.1 8.48
8/17/2023 8:00:00 PM 19.25 66.65 0.022 6.23 3.11 8.45
8/17/2023 8:15:00 PM 19.2 66.56 0.021 6.16 3.06 8.45
8/17/2023 8:30:00 PM 19.15 66.47 0.022 6.08 3.08 8.43
8/17/2023 8:45:00 PM 19.12 66.416 0.022 6.22 3.19 8.42
8/17/2023 9:00:00 PM 19.11 66.398 0.021 6.11 3.14 8.42
8/17/2023 9:15:00 PM 19.09 66.362 0.022 6.1 3.19 8.41
8/17/2023 9:30:00 PM 19.06 66.308 0.021 6.21 3.25 8.41
8/17/2023 9:45:00 PM 19.03 66.254 0.022 6.2 3.36 8.42
8/17/2023 10:00:00 PM 19.02 66.236 0.021 6.03 3.12 8.41
8/17/2023 10:15:00 PM 19 66.2 0.021 6.23 3.25 8.42
8/17/2023 10:30:00 PM 19 66.2 0.021 6.08 2.97 8.42
8/17/2023 10:45:00 PM 18.99 66.182 0.022 6.23 2.97 8.41
8/17/2023 11:00:00 PM 19 66.2 0.021 6.23 3.01 8.42
8/17/2023 11:15:00 PM 18.99 66.182 0.022 6.22 2.98 8.42
8/17/2023 11:30:00 PM 18.99 66.182 0.021 6.22 2.89 8.41
8/17/2023 11:45:00 PM 18.98 66.164 0.022 6.15 2.95 8.42
8/18/2023 12:00:00 AM 18.98 66.164 0.022 6.23 3.14 8.41
8/18/2023 12:15:00 AM 18.99 66.182 0.023 6.07 22.76 8.45
8/18/2023 12:30:00 AM 18.91 66.038 0.025 6.36 22.2 8.44
8/18/2023 12:45:00 AM 18.87 65.966 0.026 6.3 26.89 8.44
8/18/2023 1:00:00 AM 18.75 65.75 0.026 6.28 27.21 8.44
8/18/2023 1:15:00 AM 18.59 65.462 0.027 6.17 46.91 8.48
8/18/2023 1:30:00 AM 18.57 65.426 0.026 6.23 63.69 8.5
8/18/2023 1:45:00 AM 18.32 64.976 0.022 5.97 100.91 8.57
8/18/2023 2:00:00 AM 18.13 64.634 0.019 5.82 79.01 8.59
8/18/2023 2:15:00 AM 18.07 64.526 0.018 5.71 93.34 8.59
8/18/2023 2:30:00 AM 17.96 64.328 0.017 5.61 98.11 8.62
8/18/2023 2:45:00 AM 17.92 64.256 0.019 5.61 116.83 8.65
8/18/2023 3:00:00 AM 17.85 64.13 0.019 5.62 138.19 8.67
8/18/2023 3:15:00 AM 17.73 63.914 0.017 5.58 117.03 8.7
8/18/2023 3:30:00 AM 17.65 63.77 0.017 5.44 112.57 8.71
8/18/2023 3:45:00 AM 17.61 63.698 0.016 5.45 112.08 8.71
8/18/2023 4:00:00 AM 17.58 63.644 0.021 5.35 115.7 8.69
8/18/2023 4:15:00 AM 17.54 63.572 0.016 5.3 117.89 8.66
8/18/2023 4:30:00 AM 17.51 63.518 0.015 5.28 111.26 8.65
8/18/2023 4:45:00 AM 17.49 63.482 0.015 5.25 113.03 8.64
8/18/2023 5:00:00 AM 17.48 63.464 0.015 5.2 104.51 8.63
8/18/2023 5:15:00 AM 17.5 63.5 0.018 5.1 100.92 8.61
8/18/2023 5:30:00 AM 17.52 63.536 0.015 5.17 95.57 8.58
8/18/2023 5:45:00 AM 17.53 63.554 0.017 5.01 87.85 8.56
8/18/2023 6:00:00 AM -99999.99 -179968 -99999.99 -99999.99 -99999.99 -99999.99
8/18/2023 6:15:00 AM 17.5 63.5 0.015 5.09 71.5 8.54
8/18/2023 6:30:00 AM 17.47 63.446 0.014 5.04 72.7 8.53
8/18/2023 6:45:00 AM 17.43 63.374 0.014 5.05 63.98 8.53
8/18/2023 7:00:00 AM 17.4 63.32 0.014 5.07 62.61 8.52
8/18/2023 7:15:00 AM 17.35 63.23 0.014 5.04 57.34 8.53
8/18/2023 7:30:00 AM 17.31 63.158 0.014 5.09 52.71 8.54
8/18/2023 7:45:00 AM 17.26 63.068 0.014 5.08 50.83 8.54
8/18/2023 8:00:00 AM 17.22 62.996 0.014 5.05 48.71 8.56
8/18/2023 8:15:00 AM 17.17 62.906 0.014 5.06 45.52 8.57
8/18/2023 8:30:00 AM 17.13 62.834 0.014 5.13 42.63 8.58
8/18/2023 8:45:00 AM 17.09 62.762 0.014 5.06 40.92 8.59
8/18/2023 9:00:00 AM 17.06 62.708 0.014 4.95 39.77 8.6
8/18/2023 9:15:00 AM 17.03 62.654 0.015 5.07 37.22 8.61
8/18/2023 9:30:00 AM 17.01 62.618 0.014 5.04 36.65 8.63
8/18/2023 9:45:00 AM 17 62.6 0.014 5.01 36.53 8.64
8/18/2023 10:00:00 AM 17 62.6 0.014 5.05 36.1 8.65
8/18/2023 10:15:00 AM 17 62.6 0.014 5.02 34.09 8.66
8/18/2023 10:30:00 AM 17.02 62.636 0.014 5.01 31.9 8.68
8/18/2023 10:45:00 AM 17.03 62.654 0.014 5.05 28.44 8.68
8/18/2023 11:00:00 AM -99999.99 -179968 -99999.99 -99999.99 -99999.99 -99999.99
8/18/2023 11:15:00 AM 17.09 62.762 0.014 5.03 30.03 8.69
8/18/2023 11:30:00 AM 17.13 62.834 0.014 5.04 27.94 8.7
8/18/2023 11:45:00 AM 17.19 62.942 0.013 4.9 27.65 8.7
8/18/2023 12:00:00 PM -99999.99 -179968 -99999.99 -99999.99 -99999.99 -99999.99
8/18/2023 12:15:00 PM 17.34 63.212 0.014 5.06 29.15 8.69
8/18/2023 12:30:00 PM 17.43 63.374 0.014 4.94 25.36 8.69
8/18/2023 12:45:00 PM 17.49 63.482 0.014 5.04 24.79 8.69
8/18/2023 1:00:00 PM 17.52 63.536 0.014 5.01 24.44 8.68
8/18/2023 1:15:00 PM 17.6 63.68 0.014 5.12 23.74 8.68
8/18/2023 1:30:00 PM 17.66 63.788 0.014 4.96 22.75 8.68
8/18/2023 1:45:00 PM 17.71 63.878 0.014 5.08 22.86 8.67
8/18/2023 2:00:00 PM 17.75 63.95 0.014 5.08 22.23 8.66
8/18/2023 2:15:00 PM 17.81 64.058 0.014 5.1 21.07 8.67
8/18/2023 2:30:00 PM 17.82 64.076 0.014 5.11 21.05 8.66
8/18/2023 2:45:00 PM 17.86 64.148 0.014 5.09 20.43 8.66
8/18/2023 3:00:00 PM 17.88 64.184 0.014 5.18 20.7 8.65
8/18/2023 3:15:00 PM 17.93 64.274 0.014 5.16 19.01 8.65
8/18/2023 3:30:00 PM 17.98 64.364 0.014 5.08 18.72 8.66
8/18/2023 3:45:00 PM 18.01 64.418 0.014 5.17 18.25 8.65
8/18/2023 4:00:00 PM 17.99 64.382 0.014 5.18 17.89 8.64
8/18/2023 4:15:00 PM 18.01 64.418 0.014 5.18 18.18 8.64
8/18/2023 4:30:00 PM 18.03 64.454 0.014 5.2 17.03 8.63
8/18/2023 4:45:00 PM 18.02 64.436 0.014 5.11 16.35 8.64
8/18/2023 5:00:00 PM 18.03 64.454 0.014 5.22 16.37 8.64
8/18/2023 5:15:00 PM 18.03 64.454 0.014 5.22 16 8.64
8/18/2023 5:30:00 PM 18.02 64.436 0.014 5.1 16.42 8.63
8/18/2023 5:45:00 PM 18.02 64.436 0.014 5.2 15.76 8.64
8/18/2023 6:00:00 PM 18.01 64.418 0.014 5.19 15.21 8.65
8/18/2023 6:15:00 PM 17.98 64.364 0.014 5.24 14.38 8.65
8/18/2023 6:30:00 PM 17.95 64.31 0.014 5.12 13.87 8.66
8/18/2023 6:45:00 PM 17.91 64.238 0.014 5.23 14.33 8.67
8/18/2023 7:00:00 PM 17.86 64.148 0.014 5.26 13.51 8.67
8/18/2023 7:15:00 PM 17.81 64.058 0.014 5.13 13.35 8.69
8/18/2023 7:30:00 PM 17.77 63.986 0.014 5.2 13.55 8.69
8/18/2023 7:45:00 PM 17.74 63.932 0.014 5.18 12.99 8.7
8/18/2023 8:00:00 PM 17.69 63.842 0.014 5.24 13.43 8.7
8/18/2023 8:15:00 PM 17.65 63.77 0.014 5.28 13.18 8.71
8/18/2023 8:30:00 PM 17.61 63.698 0.014 5.12 12.39 8.72
8/18/2023 8:45:00 PM 17.56 63.608 0.014 5.21 12.05 8.73
8/18/2023 9:00:00 PM 17.5 63.5 0.014 5.2 12.28 8.73
8/18/2023 9:15:00 PM 17.46 63.428 0.014 5.18 11.34 8.75
8/18/2023 9:30:00 PM 17.41 63.338 0.014 5.21 11.05 8.76
8/18/2023 9:45:00 PM 17.35 63.23 0.014 5.23 10.85 8.78
8/18/2023 10:00:00 PM 17.3 63.14 0.014 5.23 10.75 8.79
8/18/2023 10:15:00 PM 17.25 63.05 0.014 5.23 10.76 8.8
8/18/2023 10:30:00 PM 17.2 62.96 0.014 5.26 10.89 8.82
8/18/2023 10:45:00 PM 17.15 62.87 0.014 5.21 10.45 8.82
8/18/2023 11:00:00 PM 17.11 62.798 0.014 5.24 10.43 8.84
8/18/2023 11:15:00 PM 17.07 62.726 0.014 5.27 9.9 8.85
8/18/2023 11:30:00 PM 17.02 62.636 0.014 5.2 10.28 8.85
8/18/2023 11:45:00 PM 16.97 62.546 0.014 5.26 9.64 8.87
8/19/2023 12:00:00 AM 16.92 62.456 0.014 5.26 10.18 8.87
8/19/2023 12:15:00 AM 16.87 62.366 0.015 5.24 9.64 8.88
8/19/2023 12:30:00 AM 16.84 62.312 0.015 5.29 9.78 8.9
8/19/2023 12:45:00 AM 16.79 62.222 0.015 5.27 9.62 8.91
8/19/2023 1:00:00 AM 16.74 62.132 0.015 5.27 9.4 8.92
8/19/2023 1:15:00 AM 16.68 62.024 0.015 5.26 9.6 8.94
8/19/2023 1:30:00 AM 16.64 61.952 0.015 5.28 9.37 8.95
8/19/2023 1:45:00 AM 16.61 61.898 0.015 5.3 9.1 8.96
8/19/2023 2:00:00 AM 16.57 61.826 0.015 5.29 8.86 8.97
8/19/2023 2:15:00 AM 16.54 61.772 0.015 5.28 8.8 8.98
8/19/2023 2:30:00 AM 16.5 61.7 0.015 5.3 8.66 8.99
8/19/2023 2:45:00 AM 16.46 61.628 0.015 5.36 8.51 9
8/19/2023 3:00:00 AM 16.42 61.556 0.015 5.29 8.58 9
8/19/2023 3:15:00 AM 16.38 61.484 0.015 5.34 7.79 9.01
8/19/2023 3:30:00 AM 16.34 61.412 0.015 5.33 8.01 9.02
8/19/2023 3:45:00 AM 16.3 61.34 0.015 5.32 8.36 9.02
8/19/2023 4:00:00 AM 16.26 61.268 0.015 5.33 8.19 9.04
8/19/2023 4:15:00 AM 16.22 61.196 0.015 5.32 7.8 9.04
8/19/2023 4:30:00 AM 16.18 61.124 0.015 5.36 7.83 9.05
8/19/2023 4:45:00 AM 16.15 61.07 0.015 5.29 7.74 9.07
8/19/2023 5:00:00 AM 16.1 60.98 0.015 5.35 7.85 9.08
8/19/2023 5:15:00 AM 16.05 60.89 0.015 5.36 7.72 9.09
8/19/2023 5:30:00 AM 16.01 60.818 0.015 5.46 7.34 9.1
8/19/2023 5:45:00 AM 15.96 60.728 0.015 5.34 7.43 9.11
8/19/2023 6:00:00 AM 15.91 60.638 0.015 5.37 7.21 9.12
8/19/2023 6:15:00 AM 15.86 60.548 0.015 5.44 7.36 9.13
8/19/2023 6:30:00 AM 15.81 60.458 0.015 5.34 7.38 9.14
8/19/2023 6:45:00 AM 15.77 60.386 0.015 5.4 7.15 9.15
8/19/2023 7:00:00 AM 15.73 60.314 0.015 5.38 7.03 9.16
8/19/2023 7:15:00 AM 15.7 60.26 0.015 5.4 6.96 9.17
8/19/2023 7:30:00 AM 15.67 60.206 0.015 5.39 7.04 9.19
8/19/2023 7:45:00 AM 15.64 60.152 0.015 5.39 6.99 9.2
8/19/2023 8:00:00 AM 15.62 60.116 0.015 5.41 7.01 9.21
8/19/2023 8:15:00 AM 15.61 60.098 0.015 5.41 7.06 9.22
8/19/2023 8:30:00 AM 15.6 60.08 0.015 5.47 6.68 9.23
8/19/2023 8:45:00 AM 15.61 60.098 0.015 5.42 6.47 9.24
8/19/2023 9:00:00 AM 15.62 60.116 0.015 5.45 6.79 9.25
8/19/2023 9:15:00 AM 15.64 60.152 0.015 5.45 6.68 9.25
8/19/2023 9:30:00 AM 15.67 60.206 0.015 5.48 6.81 9.26
8/19/2023 9:45:00 AM 15.7 60.26 0.015 5.46 6.48 9.26
8/19/2023 10:00:00 AM 15.75 60.35 0.015 5.5 6.29 9.26
8/19/2023 10:15:00 AM 15.82 60.476 0.015 5.47 6.35 9.26
8/19/2023 10:30:00 AM 15.88 60.584 0.015 5.57 6.02 9.25
8/19/2023 10:45:00 AM 15.95 60.71 0.016 5.53 6.09 9.25
8/19/2023 11:00:00 AM 16.03 60.854 0.016 5.55 5.84 9.24
8/19/2023 11:15:00 AM 0 32 0 0 0 0
8/19/2023 11:30:00 AM 16.2 61.16 0.016 5.56 5.92 9.22
8/19/2023 11:45:00 AM 16.29 61.322 0.016 5.47 5.72 9.21
8/19/2023 12:00:00 PM 16.4 61.52 0.016 5.54 5.83 9.2
8/19/2023 12:15:00 PM 16.51 61.718 0.016 5.55 5.58 9.19
8/19/2023 12:30:00 PM 16.61 61.898 0.016 5.52 5.65 9.18
8/19/2023 12:45:00 PM 16.7 62.06 0.016 5.57 5.61 9.17
8/19/2023 1:00:00 PM 16.76 62.168 0.016 5.57 5.45 9.15
8/19/2023 1:15:00 PM 16.89 62.402 0.016 5.68 5.43 9.13
8/19/2023 1:30:00 PM 17.03 62.654 0.016 5.53 5.48 9.11
8/19/2023 1:45:00 PM 17.14 62.852 0.016 5.59 5.57 9.09
8/19/2023 2:00:00 PM 17.18 62.924 0.016 5.62 5.41 9.08
8/19/2023 2:15:00 PM 17.27 63.086 0.016 5.61 5.39 9.06
8/19/2023 2:30:00 PM 17.37 63.266 0.016 5.7 5.42 9.04
8/19/2023 2:45:00 PM 17.45 63.41 0.016 5.61 5.26 9.02
8/19/2023 3:00:00 PM 17.52 63.536 0.016 5.65 5.35 9
8/19/2023 3:15:00 PM 17.6 63.68 0.016 5.65 5.31 8.99
8/19/2023 3:30:00 PM 17.67 63.806 0.016 5.67 5.36 8.97
8/19/2023 3:45:00 PM 17.73 63.914 0.016 5.66 5.36 8.96
8/19/2023 4:00:00 PM 17.77 63.986 0.016 5.66 5.47 8.94
8/19/2023 4:15:00 PM 17.8 64.04 0.016 5.67 5.21 8.94
8/19/2023 4:30:00 PM 17.8 64.04 0.016 5.71 5.2 8.93
8/19/2023 4:45:00 PM 17.8 64.04 0.016 5.7 5.13 8.92
8/19/2023 5:00:00 PM 17.79 64.022 0.016 5.72 5.34 8.91
8/19/2023 5:15:00 PM 17.78 64.004 0.016 5.68 5.29 8.9
8/19/2023 5:30:00 PM 17.76 63.968 0.016 5.68 5.2 8.9
8/19/2023 5:45:00 PM 17.74 63.932 0.016 5.67 4.98 8.89
8/19/2023 6:00:00 PM 17.72 63.896 0.016 5.7 4.92 8.88
8/19/2023 6:15:00 PM 17.71 63.878 0.016 5.7 4.84 8.88
8/19/2023 6:30:00 PM 17.68 63.824 0.016 5.71 5.04 8.87
8/19/2023 6:45:00 PM 17.66 63.788 0.016 5.68 5.01 8.87
8/19/2023 7:00:00 PM 17.63 63.734 0.016 5.7 4.92 8.86
8/19/2023 7:15:00 PM 17.6 63.68 0.016 5.69 4.85 8.85
8/19/2023 7:30:00 PM 17.57 63.626 0.016 5.7 4.89 8.84
8/19/2023 7:45:00 PM 17.54 63.572 0.016 5.68 4.84 8.84
8/19/2023 8:00:00 PM 17.51 63.518 0.016 5.73 4.98 8.84
8/19/2023 8:15:00 PM 17.47 63.446 0.016 5.68 4.79 8.84
8/19/2023 8:30:00 PM 17.43 63.374 0.016 5.71 4.8 8.85
8/19/2023 8:45:00 PM 17.39 63.302 0.017 5.67 4.71 8.86
8/19/2023 9:00:00 PM 17.35 63.23 0.016 5.79 4.66 8.86
8/19/2023 9:15:00 PM 17.3 63.14 0.017 5.62 4.73 8.87
8/19/2023 9:30:00 PM 17.25 63.05 0.017 5.69 4.5 8.88
8/19/2023 9:45:00 PM 17.2 62.96 0.017 5.69 4.92 8.89
8/19/2023 10:00:00 PM 17.14 62.852 0.017 5.81 4.95 8.9
8/19/2023 10:15:00 PM 17.08 62.744 0.017 5.66 4.84 8.91
8/19/2023 10:30:00 PM 17.03 62.654 0.017 5.69 4.68 8.92
8/19/2023 10:45:00 PM 16.97 62.546 0.017 5.72 4.66 8.93
8/19/2023 11:00:00 PM 16.92 62.456 0.017 5.69 4.66 8.94
8/19/2023 11:15:00 PM 16.86 62.348 0.017 5.7 4.68 8.95
8/19/2023 11:30:00 PM 16.8 62.24 0.017 5.7 4.74 8.96
8/19/2023 11:45:00 PM 16.74 62.132 0.017 5.78 4.58 8.98
8/20/2023 12:00:00 AM 16.68 62.024 0.017 5.66 4.6 8.99
8/20/2023 12:15:00 AM 16.62 61.916 0.017 5.74 4.6 9
8/20/2023 12:30:00 AM 16.56 61.808 0.017 5.77 4.47 9.01
8/20/2023 12:45:00 AM 16.5 61.7 0.017 5.72 4.57 9.02
8/20/2023 1:00:00 AM 16.44 61.592 0.017 5.78 4.47 9.04
8/20/2023 1:15:00 AM 16.39 61.502 0.017 5.72 4.48 9.05
8/20/2023 1:30:00 AM 16.33 61.394 0.017 5.72 4.26 9.06
8/20/2023 1:45:00 AM 16.27 61.286 0.017 5.78 4.41 9.07
8/20/2023 2:00:00 AM 16.22 61.196 0.017 5.75 4.51 9.07
8/20/2023 2:15:00 AM 16.16 61.088 0.017 5.72 4.4 9.09
8/20/2023 2:30:00 AM 16.11 60.998 0.017 5.72 4.44 9.11
8/20/2023 2:45:00 AM 16.05 60.89 0.017 5.71 4.49 9.12
8/20/2023 3:00:00 AM 16 60.8 0.017 5.71 4.19 9.13
8/20/2023 3:15:00 AM 15.95 60.71 0.017 5.74 4.32 9.14
8/20/2023 3:30:00 AM 15.89 60.602 0.017 5.72 4.24 9.15
8/20/2023 3:45:00 AM 15.84 60.512 0.017 5.76 4.42 9.16
8/20/2023 4:00:00 AM 15.78 60.404 0.017 5.8 4.24 9.17
8/20/2023 4:15:00 AM 15.73 60.314 0.017 5.64 4.35 9.18
8/20/2023 4:30:00 AM 15.67 60.206 0.017 5.81 4.38 9.19
8/20/2023 4:45:00 AM 15.61 60.098 0.017 5.71 4.15 9.2
8/20/2023 5:00:00 AM 15.56 60.008 0.018 5.81 4.13 9.21
8/20/2023 5:15:00 AM 15.5 59.9 0.018 5.71 4.22 9.23
8/20/2023 5:30:00 AM 15.44 59.792 0.017 5.72 4.42 9.25
8/20/2023 5:45:00 AM 15.38 59.684 0.018 5.72 4.32 9.26
8/20/2023 6:00:00 AM 15.32 59.576 0.018 5.82 4.38 9.27
8/20/2023 6:15:00 AM 15.27 59.486 0.017 5.64 4.37 9.28
8/20/2023 6:30:00 AM 15.22 59.396 0.018 5.78 4.38 9.29
8/20/2023 6:45:00 AM 15.17 59.306 0.018 5.82 4.34 9.31
8/20/2023 7:00:00 AM 15.12 59.216 0.018 5.63 4.54 9.33
8/20/2023 7:15:00 AM 15.08 59.144 0.018 5.8 4.43 9.34
8/20/2023 7:30:00 AM 15.05 59.09 0.018 5.67 4.36 9.36
8/20/2023 7:45:00 AM 15.03 59.054 0.018 5.76 4.61 9.38
8/20/2023 8:00:00 AM 15.02 59.036 0.018 5.75 4.45 9.4
8/20/2023 8:15:00 AM 15.04 59.072 0.018 5.76 4.22 9.41
8/20/2023 8:30:00 AM 15.1 59.18 0.018 5.74 4.38 9.42
8/20/2023 8:45:00 AM 15.15 59.27 0.018 5.76 4.2 9.44
8/20/2023 9:00:00 AM 15.21 59.378 0.018 5.77 4.22 9.44
8/20/2023 9:15:00 AM 15.3 59.54 0.018 5.81 4.35 9.44
8/20/2023 9:30:00 AM 15.42 59.756 0.018 5.83 4.48 9.44
8/20/2023 9:45:00 AM 15.53 59.954 0.018 5.77 4.34 9.42
8/20/2023 10:00:00 AM 15.61 60.098 0.018 5.9 4.25 9.41
8/20/2023 10:15:00 AM 15.68 60.224 0.018 5.79 4.16 9.39
8/20/2023 10:30:00 AM 15.79 60.422 0.018 5.8 4.09 9.38
8/20/2023 10:45:00 AM 15.89 60.602 0.018 5.81 4.04 9.36
8/20/2023 11:00:00 AM 16.01 60.818 0.018 5.84 4.2 9.35
8/20/2023 11:15:00 AM 16.17 61.106 0.018 5.83 4.05 9.33
8/20/2023 11:30:00 AM 16.34 61.412 0.018 5.85 4.28 9.31
8/20/2023 11:45:00 AM 16.48 61.664 0.018 5.84 4.06 9.29
8/20/2023 12:00:00 PM 16.63 61.934 0.018 5.9 4 9.27
8/20/2023 12:15:00 PM 16.76 62.168 0.018 5.84 3.94 9.24
8/20/2023 12:30:00 PM 16.92 62.456 0.018 5.9 3.94 9.22
8/20/2023 12:45:00 PM 17.08 62.744 0.018 5.92 3.95 9.19
8/20/2023 1:00:00 PM 17.25 63.05 0.018 5.84 4.05 9.16
8/20/2023 1:15:00 PM 17.38 63.284 0.018 5.88 4.1 9.14
8/20/2023 1:30:00 PM 17.52 63.536 0.018 5.91 3.84 9.1
8/20/2023 1:45:00 PM 17.66 63.788 0.018 5.89 4 9.08
8/20/2023 2:00:00 PM 17.79 64.022 0.018 5.9 4.1 9.05
8/20/2023 2:15:00 PM 17.92 64.256 0.018 5.97 3.95 9.04
8/20/2023 2:30:00 PM 18.04 64.472 0.018 5.93 3.99 9.01
8/20/2023 2:45:00 PM 18.13 64.634 0.018 5.91 3.93 8.98
8/20/2023 3:00:00 PM 18.11 64.598 0.018 5.99 3.93 8.96
8/20/2023 3:15:00 PM 18.06 64.508 0.018 5.93 4.16 8.95
8/20/2023 3:30:00 PM 18.12 64.616 0.018 5.93 4.1 8.94
8/20/2023 3:45:00 PM 18.24 64.832 0.018 5.98 3.99 8.92
8/20/2023 4:00:00 PM 18.34 65.012 0.018 5.93 3.98 8.91
8/20/2023 4:15:00 PM 18.38 65.084 0.018 5.92 4.01 8.9
8/20/2023 4:30:00 PM 18.42 65.156 0.018 5.93 4.03 8.88
8/20/2023 4:45:00 PM 18.46 65.228 0.018 5.93 4.04 8.87
8/20/2023 5:00:00 PM 18.47 65.246 0.018 5.94 3.78 8.85
8/20/2023 5:15:00 PM 18.46 65.228 0.018 5.97 3.75 8.84
8/20/2023 5:30:00 PM 18.43 65.174 0.019 5.91 3.83 8.83
8/20/2023 5:45:00 PM 18.41 65.138 0.018 5.94 3.93 8.83
8/20/2023 6:00:00 PM 18.38 65.084 0.019 5.92 3.88 8.82
8/20/2023 6:15:00 PM 18.36 65.048 0.019 5.95 3.88 8.81
8/20/2023 6:30:00 PM 18.33 64.994 0.02 5.91 3.86 8.8
8/20/2023 6:45:00 PM 18.3 64.94 0.019 5.92 3.96 8.79
8/20/2023 7:00:00 PM 18.26 64.868 0.019 5.9 4 8.77
8/20/2023 7:15:00 PM 18.23 64.814 0.019 5.91 4.07 8.76
8/20/2023 7:30:00 PM 18.18 64.724 0.019 5.9 3.92 8.75
8/20/2023 7:45:00 PM 18.14 64.652 0.019 5.92 3.78 8.74
8/20/2023 8:00:00 PM 18.11 64.598 0.019 5.87 3.76 8.74
8/20/2023 8:15:00 PM 18.07 64.526 0.019 5.92 3.99 8.73
8/20/2023 8:30:00 PM 18.04 64.472 0.019 5.86 4.18 8.73
8/20/2023 8:45:00 PM 18.01 64.418 0.019 5.92 4.04 8.74
8/20/2023 9:00:00 PM 17.98 64.364 0.019 5.91 4.03 8.74
8/20/2023 9:15:00 PM 17.96 64.328 0.019 5.98 4.06 8.74
8/20/2023 9:30:00 PM 17.94 64.292 0.019 5.86 3.77 8.74
8/20/2023 9:45:00 PM 17.92 64.256 0.019 5.93 3.86 8.76
8/20/2023 10:00:00 PM 17.88 64.184 0.019 5.85 3.9 8.76
8/20/2023 10:15:00 PM 17.85 64.13 0.019 5.89 3.86 8.76
8/20/2023 10:30:00 PM 17.81 64.058 0.019 5.84 3.96 8.76
8/20/2023 10:45:00 PM 17.77 63.986 0.019 5.98 4.03 8.77
8/20/2023 11:00:00 PM 17.74 63.932 0.019 5.86 3.78 8.78
8/20/2023 11:15:00 PM 17.71 63.878 0.019 5.99 3.68 8.78
8/20/2023 11:30:00 PM 17.68 63.824 0.019 5.83 3.74 8.79
8/20/2023 11:45:00 PM 17.64 63.752 0.02 5.87 3.77 8.8
8/21/2023 12:00:00 AM 17.6 63.68 0.02 5.92 3.98 8.8
8/21/2023 12:15:00 AM 17.55 63.59 0.019 5.98 3.58 8.81
8/21/2023 12:30:00 AM 17.5 63.5 0.019 5.86 3.63 8.82
8/21/2023 12:45:00 AM 17.46 63.428 0.019 5.97 3.74 8.82
8/21/2023 1:00:00 AM 17.42 63.356 0.019 5.88 3.7 8.83
8/21/2023 1:15:00 AM 17.39 63.302 0.019 5.94 3.95 8.84
8/21/2023 1:30:00 AM 17.36 63.248 0.019 5.97 3.81 8.85
8/21/2023 1:45:00 AM 17.33 63.194 0.019 5.86 3.58 8.86
8/21/2023 2:00:00 AM 17.3 63.14 0.02 5.92 3.85 8.87
8/21/2023 2:15:00 AM 17.26 63.068 0.019 5.84 3.71 8.87
8/21/2023 2:30:00 AM 17.23 63.014 0.02 5.86 3.59 8.88
8/21/2023 2:45:00 AM 17.2 62.96 0.02 5.92 3.85 8.89
8/21/2023 3:00:00 AM 17.16 62.888 0.02 5.83 3.75 8.89
8/21/2023 3:15:00 AM 17.13 62.834 0.019 5.87 3.63 8.89
8/21/2023 3:30:00 AM 17.09 62.762 0.02 5.92 3.73 8.91
8/21/2023 3:45:00 AM 17.06 62.708 0.02 5.85 3.58 8.91
8/21/2023 4:00:00 AM 17.02 62.636 0.02 5.86 3.52 8.9
8/21/2023 4:15:00 AM 16.99 62.582 0.02 5.87 3.6 8.92
8/21/2023 4:30:00 AM 16.96 62.528 0.02 5.89 3.81 8.92
8/21/2023 4:45:00 AM 16.93 62.474 0.02 5.85 3.71 8.92
8/21/2023 5:00:00 AM 16.9 62.42 0.02 5.86 3.85 8.93
8/21/2023 5:15:00 AM 16.88 62.384 0.02 5.85 3.5 8.93
8/21/2023 5:30:00 AM 16.86 62.348 0.02 5.88 3.96 8.94
8/21/2023 5:45:00 AM 16.83 62.294 0.02 5.83 3.54 8.94
8/21/2023 6:00:00 AM 16.81 62.258 0.02 5.88 3.69 8.94
8/21/2023 6:15:00 AM 16.79 62.222 0.02 5.84 3.82 8.95
8/21/2023 6:30:00 AM 16.78 62.204 0.02 5.98 3.69 8.96
8/21/2023 6:45:00 AM 16.77 62.186 0.02 5.75 3.57 8.97
8/21/2023 7:00:00 AM 16.77 62.186 0.02 5.99 4.37 8.97
8/21/2023 7:15:00 AM 16.77 62.186 0.02 5.82 3.43 8.98
8/21/2023 7:30:00 AM 16.77 62.186 0.02 5.88 3.51 8.99
8/21/2023 7:45:00 AM 16.77 62.186 0.02 5.86 3.35 9
8/21/2023 8:00:00 AM 16.78 62.204 0.02 5.98 3.64 9
8/21/2023 8:15:00 AM 16.8 62.24 0.02 5.91 3.7 9.01
8/21/2023 8:30:00 AM 16.83 62.294 0.02 5.86 3.58 9.02
8/21/2023 8:45:00 AM 16.87 62.366 0.02 5.99 3.71 9.04
8/21/2023 9:00:00 AM 16.92 62.456 0.02 5.89 3.65 9.05
8/21/2023 9:15:00 AM 16.97 62.546 0.02 5.91 3.59 9.05
8/21/2023 9:30:00 AM 17.01 62.618 0.02 5.94 3.58 9.06
8/21/2023 9:45:00 AM 17.06 62.708 0.02 6.02 3.56 9.06
8/21/2023 10:00:00 AM 17.11 62.798 0.02 5.84 3.57 9.06
8/21/2023 10:15:00 AM 17.22 62.996 0.02 5.95 3.48 9.07
8/21/2023 10:30:00 AM 17.32 63.176 0.02 6.03 3.61 9.07
8/21/2023 10:45:00 AM 17.46 63.428 0.02 6.01 3.63 9.06
8/21/2023 11:00:00 AM 17.61 63.698 0.02 6.02 3.57 9.05
8/21/2023 11:15:00 AM 17.77 63.986 0.02 6.07 3.45 9.04
8/21/2023 11:30:00 AM 17.91 64.238 0.02 5.85 3.65 9.03
8/21/2023 11:45:00 AM 18 64.4 0.02 6.09 3.57 9
8/21/2023 12:00:00 PM 18.12 64.616 0.02 5.94 3.71 9
8/21/2023 12:15:00 PM 18.21 64.778 0.02 6.09 3.53 8.97
8/21/2023 12:30:00 PM 18.38 65.084 0.02 5.97 3.42 8.95
8/21/2023 12:45:00 PM 18.58 65.444 0.02 6.05 3.45 8.93
8/21/2023 1:00:00 PM 18.73 65.714 0.02 6.11 3.41 8.89
8/21/2023 1:15:00 PM 18.84 65.912 0.021 6.14 3.43 8.88
8/21/2023 1:30:00 PM 18.93 66.074 0.02 5.9 3.49 8.86
8/21/2023 1:45:00 PM 19.01 66.218 0.02 6.11 3.33 8.84
8/21/2023 2:00:00 PM 19.06 66.308 0.02 6.12 3.38 8.83
8/21/2023 2:15:00 PM 19.15 66.47 0.02 6.05 3.5 8.8
8/21/2023 2:30:00 PM 19.31 66.758 0.02 6.01 3.32 8.78
8/21/2023 2:45:00 PM 19.46 67.028 0.02 6.11 3.63 8.75
8/21/2023 3:00:00 PM 19.56 67.208 0.02 6.06 3.59 8.73
8/21/2023 3:15:00 PM 19.58 67.244 0.02 6.02 3.59 8.7
8/21/2023 3:30:00 PM 19.68 67.424 0.02 6.08 3.46 8.7
8/21/2023 3:45:00 PM 19.79 67.622 0.02 6.04 3.49 8.67
8/21/2023 4:00:00 PM 19.88 67.784 0.02 6.05 3.49 8.65
8/21/2023 4:15:00 PM 19.96 67.92799 0.02 6.14 3.44 8.64
8/21/2023 4:30:00 PM 20.01 68.018 0.02 6.17 3.47 8.62
8/21/2023 4:45:00 PM 19.94 67.892 0.02 6.13 3.55 8.62
8/21/2023 5:00:00 PM 19.88 67.784 0.02 6.17 3.34 8.61
8/21/2023 5:15:00 PM 19.86 67.748 0.02 6.16 3.57 8.6
8/21/2023 5:30:00 PM 19.83 67.694 0.02 5.95 3.46 8.6
8/21/2023 5:45:00 PM 19.78 67.604 0.02 6.17 3.4 8.59
8/21/2023 6:00:00 PM 19.73 67.514 0.02 6.1 3.59 8.59
8/21/2023 6:15:00 PM 19.7 67.46 0.02 6.12 3.37 8.59
8/21/2023 6:30:00 PM 19.64 67.352 0.02 5.99 3.42 8.58
8/21/2023 6:45:00 PM 19.57 67.226 0.021 6.04 3.46 8.57
8/21/2023 7:00:00 PM 19.52 67.136 0.02 6.01 3.36 8.56
8/21/2023 7:15:00 PM 19.47 67.046 0.02 6.02 3.54 8.54
8/21/2023 7:30:00 PM 19.42 66.956 0.02 6.15 3.39 8.53
8/21/2023 7:45:00 PM 19.37 66.866 0.021 6.03 3.45 8.52
8/21/2023 8:00:00 PM 19.31 66.758 0.021 6.02 3.29 8.51
8/21/2023 8:15:00 PM 19.27 66.686 0.021 6.09 3.35 8.51
8/21/2023 8:30:00 PM 19.22 66.596 0.02 5.95 3.56 8.5
8/21/2023 8:45:00 PM 19.18 66.524 0.021 6.02 3.67 8.49
8/21/2023 9:00:00 PM 19.15 66.47 0.021 5.99 3.61 8.5
8/21/2023 9:15:00 PM 19.12 66.416 0.02 6.11 3.38 8.51
8/21/2023 9:30:00 PM 19.08 66.344 0.021 6.03 3.58 8.51
8/21/2023 9:45:00 PM 19.04 66.272 0.021 5.99 3.56 8.52
8/21/2023 10:00:00 PM 18.99 66.182 0.021 6.06 3.74 8.52
8/21/2023 10:15:00 PM 18.93 66.074 0.021 6.12 3.61 8.52
8/21/2023 10:30:00 PM 18.88 65.984 0.021 5.89 3.68 8.53
8/21/2023 10:45:00 PM 18.83 65.894 0.021 6.12 3.59 8.53
8/21/2023 11:00:00 PM 18.77 65.786 0.021 6.03 3.34 8.55
8/21/2023 11:15:00 PM 18.73 65.714 0.021 6.12 3.41 8.56
8/21/2023 11:30:00 PM 18.67 65.606 0.021 6.08 3.43 8.57
8/21/2023 11:45:00 PM 18.6 65.48 0.021 5.98 3.38 8.59
8/22/2023 12:00:00 AM 18.52 65.336 0.021 6.09 3.54 8.6
8/22/2023 12:15:00 AM 18.45 65.21 0.021 6.08 3.73 8.61
8/22/2023 12:30:00 AM 18.37 65.066 0.021 6.07 3.64 8.61
8/22/2023 12:45:00 AM 18.29 64.922 0.021 6.06 3.59 8.62
8/22/2023 1:00:00 AM 18.23 64.814 0.021 6.04 3.58 8.64
8/22/2023 1:15:00 AM 18.16 64.688 0.021 6.08 3.58 8.65
8/22/2023 1:30:00 AM 18.11 64.598 0.021 6 3.59 8.66
8/22/2023 1:45:00 AM 18.06 64.508 0.021 5.98 3.72 8.67
8/22/2023 2:00:00 AM 18 64.4 0.021 6.05 3.6 8.7
8/22/2023 2:15:00 AM 17.94 64.292 0.021 5.93 3.32 8.7
8/22/2023 2:30:00 AM 17.88 64.184 0.021 6.08 3.47 8.71
8/22/2023 2:45:00 AM 17.83 64.094 0.021 5.96 3.52 8.74
8/22/2023 3:00:00 AM 17.77 63.986 0.021 5.96 3.5 8.74
8/22/2023 3:15:00 AM 17.72 63.896 0.021 5.98 3.55 8.74
8/22/2023 3:30:00 AM 17.68 63.824 0.021 6.09 3.37 8.76
8/22/2023 3:45:00 AM 17.62 63.716 0.021 5.93 3.61 8.76
8/22/2023 4:00:00 AM 17.57 63.626 0.021 6.05 3.45 8.77
8/22/2023 4:15:00 AM 17.52 63.536 0.021 5.97 3.55 8.78
8/22/2023 4:30:00 AM 17.47 63.446 0.021 6.1 3.38 8.79
8/22/2023 4:45:00 AM 17.42 63.356 0.021 6.08 3.55 8.8
8/22/2023 5:00:00 AM 17.37 63.266 0.021 5.87 5.57 8.81
8/22/2023 5:15:00 AM 17.32 63.176 0.021 6.02 3.39 8.83
8/22/2023 5:30:00 AM 17.26 63.068 0.021 6.1 3.33 8.84
8/22/2023 5:45:00 AM 17.2 62.96 0.021 6 3.29 8.84
8/22/2023 6:00:00 AM 17.13 62.834 0.021 6.1 3.85 8.86
8/22/2023 6:15:00 AM 17.05 62.69 0.022 6.03 3.54 8.87
8/22/2023 6:30:00 AM 16.98 62.564 0.021 6.09 3.68 8.88
8/22/2023 6:45:00 AM 16.92 62.456 0.021 6.08 3.46 8.9
8/22/2023 7:00:00 AM 16.85 62.33 0.021 6.06 3.53 8.92
8/22/2023 7:15:00 AM 16.8 62.24 0.021 5.98 3.78 8.94
8/22/2023 7:30:00 AM 16.74 62.132 0.021 5.96 3.53 8.96
8/22/2023 7:45:00 AM 16.7 62.06 0.022 6.09 3.48 8.99
8/22/2023 8:00:00 AM 16.66 61.988 0.021 6.02 3.61 9.02
8/22/2023 8:15:00 AM 16.64 61.952 0.021 6.02 3.3 9.05
8/22/2023 8:30:00 AM 16.65 61.97 0.021 6.01 3.42 9.08
8/22/2023 8:45:00 AM 16.66 61.988 0.022 6.08 3.64 9.1
8/22/2023 9:00:00 AM 16.69 62.042 0.021 6 3.52 9.12
8/22/2023 9:15:00 AM 16.72 62.096 0.021 6.04 3.65 9.13
8/22/2023 9:30:00 AM 16.8 62.24 0.021 6.11 3.69 9.12
8/22/2023 9:45:00 AM 16.85 62.33 0.021 6.11 3.68 9.14
8/22/2023 10:00:00 AM 16.92 62.456 0.021 6.07 3.74 9.13
8/22/2023 10:15:00 AM -99999.99 -179968 -99999.99 -99999.99 -99999.99 -99999.99
8/22/2023 10:30:00 AM 17.08 62.744 0.021 6.06 3.44 9.12
8/22/2023 10:45:00 AM 17.19 62.942 0.022 6.09 3.43 9.11
8/22/2023 11:00:00 AM 17.33 63.194 0.022 6.13 3.53 9.11
8/22/2023 11:15:00 AM 17.48 63.464 0.021 6.04 3.76 9.08
8/22/2023 11:30:00 AM 17.64 63.752 0.022 6.1 3.6 9.07
8/22/2023 11:45:00 AM 17.79 64.022 0.022 6.11 3.61 9.06
8/22/2023 12:00:00 PM 17.92 64.256 0.022 6.04 3.58 9.04
8/22/2023 12:15:00 PM 18.05 64.49 0.022 6.12 3.64 9
8/22/2023 12:30:00 PM 18.2 64.76 0.022 6.12 3.42 8.98
8/22/2023 12:45:00 PM 18.36 65.048 0.022 6.17 3.93 8.97
8/22/2023 1:00:00 PM 18.53 65.354 0.021 6.07 3.41 8.95
8/22/2023 1:15:00 PM 18.68 65.624 0.022 6.08 3.43 8.92
8/22/2023 1:30:00 PM 18.82 65.876 0.022 6.12 3.45 8.88
8/22/2023 1:45:00 PM 18.97 66.146 0.022 6.1 3.56 8.87
8/22/2023 2:00:00 PM 19.1 66.38 0.022 6.2 3.46 8.85
8/22/2023 2:15:00 PM 19.21 66.578 0.022 6.1 3.49 8.83
8/22/2023 2:30:00 PM 19.32 66.776 0.021 6.13 3.45 8.8
8/22/2023 2:45:00 PM 19.41 66.938 0.022 6.11 3.47 8.78
8/22/2023 3:00:00 PM 19.5 67.1 0.021 6.14 3.23 8.75
8/22/2023 3:15:00 PM 19.55 67.19 0.022 6.12 3.29 8.75
8/22/2023 3:30:00 PM 19.6 67.28 0.022 6.22 3.47 8.72
8/22/2023 3:45:00 PM 19.64 67.352 0.021 6.2 3.42 8.72
8/22/2023 4:00:00 PM 19.63 67.334 0.023 6.17 3.46 8.7
8/22/2023 4:15:00 PM 19.64 67.352 0.022 6.21 3.5 8.71
8/22/2023 4:30:00 PM 19.6 67.28 0.022 6.07 3.39 8.69
8/22/2023 4:45:00 PM 19.58 67.244 0.022 6.12 3.4 8.7
8/22/2023 5:00:00 PM 19.51 67.118 0.022 6.17 3.54 8.68
8/22/2023 5:15:00 PM 19.45 67.01 0.022 6.23 3.37 8.7
8/22/2023 5:30:00 PM 19.35 66.83 0.022 6.03 3.44 8.7
8/22/2023 5:45:00 PM 19.25 66.65 0.022 6.21 3.32 8.7
8/22/2023 6:00:00 PM 19.13 66.434 0.022 6.21 3.35 8.71
8/22/2023 6:15:00 PM 18.99 66.182 0.022 6.21 3.15 8.72
8/22/2023 6:30:00 PM 18.85 65.93 0.022 6.03 3.4 8.7
8/22/2023 6:45:00 PM 18.73 65.714 0.022 6.11 3.26 8.72
8/22/2023 7:00:00 PM 18.6 65.48 0.022 6.2 3.27 8.71
8/22/2023 7:15:00 PM 18.46 65.228 0.022 6.18 3.29 8.72
8/22/2023 7:30:00 PM 18.33 64.994 0.022 6.05 3.23 8.71
8/22/2023 7:45:00 PM 18.2 64.76 0.023 6.13 3.37 8.69
8/22/2023 8:00:00 PM 18.1 64.58 0.023 6.08 3.51 8.7
8/22/2023 8:15:00 PM 18 64.4 0.022 6.07 3.45 8.71
8/22/2023 8:30:00 PM 17.9 64.22 0.022 6.12 3.28 8.72
8/22/2023 8:45:00 PM 17.8 64.04 0.022 6.15 3.46 8.73
8/22/2023 9:00:00 PM 17.7 63.86 0.022 5.97 3.25 8.73
8/22/2023 9:15:00 PM 17.62 63.716 0.022 6.16 3.29 8.76
8/22/2023 9:30:00 PM 17.53 63.554 0.023 6.14 3.45 8.77
8/22/2023 9:45:00 PM 17.44 63.392 0.023 6.08 3.41 8.77
8/22/2023 10:00:00 PM 17.35 63.23 0.023 6 3.31 8.8
8/22/2023 10:15:00 PM 17.27 63.086 0.022 6.15 3.55 8.82
8/22/2023 10:30:00 PM 17.2 62.96 0.022 6.13 3.38 8.83
8/22/2023 10:45:00 PM 17.12 62.816 0.022 6.12 3.37 8.84
8/22/2023 11:00:00 PM 17.03 62.654 0.023 6.12 3.4 8.84
8/22/2023 11:15:00 PM 16.96 62.528 0.022 5.91 3.18 8.87
8/22/2023 11:30:00 PM 16.89 62.402 0.022 6.03 3.5 8.89
8/22/2023 11:45:00 PM 16.81 62.258 0.022 6.02 3.37 8.89
8/23/2023 12:00:00 AM 16.73 62.114 0.023 6.12 3.49 8.91
8/23/2023 12:15:00 AM 16.67 62.006 0.022 5.96 3.41 8.93
8/23/2023 12:30:00 AM 16.61 61.898 0.022 6.13 3.33 8.95
8/23/2023 12:45:00 AM 16.53 61.754 0.023 6 3.3 8.95
8/23/2023 1:00:00 AM 16.46 61.628 0.023 6.1 3.62 8.95
8/23/2023 1:15:00 AM 16.4 61.52 0.023 6.08 3.57 8.98
8/23/2023 1:30:00 AM 16.34 61.412 0.023 6.1 3.54 8.98
8/23/2023 1:45:00 AM 16.28 61.304 0.023 5.96 3.82 9
8/23/2023 2:00:00 AM 16.22 61.196 0.022 6.05 3.59 9
8/23/2023 2:15:00 AM 16.15 61.07 0.023 5.98 3.39 9.02
8/23/2023 2:30:00 AM 16.11 60.998 0.023 6.1 3.69 9.03
8/23/2023 2:45:00 AM 16.06 60.908 0.023 6 3.41 9.04
8/23/2023 3:00:00 AM 16 60.8 0.023 6.05 3.44 9.05
8/23/2023 3:15:00 AM 15.95 60.71 0.024 6.08 3.59 9.07
8/23/2023 3:30:00 AM 15.9 60.62 0.023 6.06 3.66 9.09
8/23/2023 3:45:00 AM 15.84 60.512 0.023 5.95 3.37 9.08
8/23/2023 4:00:00 AM 15.8 60.44 0.023 6 3.23 9.11
8/23/2023 4:15:00 AM 15.75 60.35 0.023 6 3.38 9.11
8/23/2023 4:30:00 AM 15.71 60.278 0.023 6.08 3.29 9.13
8/23/2023 4:45:00 AM 15.66 60.188 0.023 6.11 3.46 9.13
8/23/2023 5:00:00 AM 15.62 60.116 0.023 5.98 3.56 9.14
8/23/2023 5:15:00 AM 15.59 60.062 0.023 6.09 3.24 9.15
8/23/2023 5:30:00 AM 15.56 60.008 0.022 6.02 2.9 9.16
8/23/2023 5:45:00 AM 15.53 59.954 0.023 6.07 3.2 9.17
8/23/2023 6:00:00 AM 15.5 59.9 0.023 6.11 3.2 9.18
8/23/2023 6:15:00 AM 15.47 59.846 0.023 5.94 3.34 9.18
8/23/2023 6:30:00 AM 15.44 59.792 0.023 6.05 3.04 9.19
8/23/2023 6:45:00 AM 15.41 59.738 0.023 6.01 3.1 9.21
8/23/2023 7:00:00 AM 15.39 59.702 0.023 6.05 3.27 9.22
8/23/2023 7:15:00 AM 15.36 59.648 0.024 6.08 3.15 9.22
8/23/2023 7:30:00 AM 15.35 59.63 0.024 6.08 3.73 9.23
8/23/2023 7:45:00 AM 15.35 59.63 0.023 6.11 3.74 9.26
8/23/2023 8:00:00 AM 15.34 59.612 0.023 6.09 3.53 9.29
8/23/2023 8:15:00 AM 15.36 59.648 0.023 6.03 3.54 9.31
8/23/2023 8:30:00 AM 15.37 59.666 0.023 6 3.27 9.33
8/23/2023 8:45:00 AM 15.4 59.72 0.023 6.14 3.15 9.35
8/23/2023 9:00:00 AM 15.44 59.792 0.023 6 3.48 9.36
8/23/2023 9:15:00 AM 15.49 59.882 0.023 6.04 3.51 9.38
8/23/2023 9:30:00 AM 15.56 60.008 0.023 6.05 3.22 9.39
8/23/2023 9:45:00 AM 15.65 60.17 0.023 6.16 3.26 9.39
8/23/2023 10:00:00 AM 15.76 60.368 0.023 6.13 3.56 9.39
8/23/2023 10:15:00 AM -99999.99 -179968 -99999.99 -99999.99 -99999.99 -99999.99
8/23/2023 10:30:00 AM 16.07 60.926 0.023 6.17 3.9 9.4
8/23/2023 10:45:00 AM 16.22 61.196 0.022 6.06 5.66 9.38
8/23/2023 11:00:00 AM 16.45 61.61 0.022 6.17 5.51 9.37
8/23/2023 11:15:00 AM 16.65 61.97 0.021 6.16 5.08 9.34
8/23/2023 11:30:00 AM 16.84 62.312 0.022 6.15 5.62 9.31
8/23/2023 11:45:00 AM 17.04 62.672 0.021 6.17 5.36 9.3
8/23/2023 12:00:00 PM 17.21 62.978 0.021 6.19 5.55 9.27
8/23/2023 12:15:00 PM 17.35 63.23 0.021 6.19 5.53 9.25
8/23/2023 12:30:00 PM 17.46 63.428 0.021 6.22 5.24 9.24
8/23/2023 12:45:00 PM 17.49 63.482 0.021 6.16 5.85 9.19
8/23/2023 1:00:00 PM 17.57 63.626 0.021 6.21 5.65 9.19
8/23/2023 1:15:00 PM 17.61 63.698 0.021 6.18 5.26 9.18
8/23/2023 1:30:00 PM 17.74 63.932 0.022 6.2 5.49 9.15
8/23/2023 1:45:00 PM 17.9 64.22 0.021 6.16 5.53 9.12
8/23/2023 2:00:00 PM 18.03 64.454 0.021 6.13 5.32 9.09
8/23/2023 2:15:00 PM 18.06 64.508 0.021 6.11 5.25 9.06
8/23/2023 2:30:00 PM 18.03 64.454 0.022 6.2 5.67 9.04
8/23/2023 2:45:00 PM 17.99 64.382 0.021 6.14 5.88 9.03
8/23/2023 3:00:00 PM 17.96 64.328 0.022 6.21 5.39 9.03
8/23/2023 3:15:00 PM 17.96 64.328 0.022 6.17 5.45 9.03
8/23/2023 3:30:00 PM 17.96 64.328 0.022 6.12 5.38 9.02
8/23/2023 3:45:00 PM 18.01 64.418 0.022 6.22 5.25 9.02
8/23/2023 4:00:00 PM 18.04 64.472 0.022 6.12 5.43 9
8/23/2023 4:15:00 PM 18.11 64.598 0.022 6.21 5.05 8.99
8/23/2023 4:30:00 PM 18.17 64.706 0.021 6.18 5.23 8.99
8/23/2023 4:45:00 PM 18.2 64.76 0.022 6.23 5.1 8.98
8/23/2023 5:00:00 PM 18.19 64.742 0.021 6.24 5.42 8.98
8/23/2023 5:15:00 PM 18.14 64.652 0.022 6.25 5.24 8.96
8/23/2023 5:30:00 PM 18.09 64.562 0.022 6.23 5.17 8.95
8/23/2023 5:45:00 PM 18.03 64.454 0.021 6.21 5.15 8.95
8/23/2023 6:00:00 PM 17.97 64.346 0.021 6.16 5.36 8.94
8/23/2023 6:15:00 PM 17.9 64.22 0.022 6.19 5.14 8.94
8/23/2023 6:30:00 PM 17.84 64.112 0.021 6.22 5.03 8.92
8/23/2023 6:45:00 PM 17.76 63.968 0.022 6.21 5.23 8.9
8/23/2023 7:00:00 PM 17.67 63.806 0.021 6.12 5.27 8.91
8/23/2023 7:15:00 PM 17.58 63.644 0.021 6.08 5 8.89
8/23/2023 7:30:00 PM 17.49 63.482 0.022 6.2 5.28 8.88
8/23/2023 7:45:00 PM 17.42 63.356 0.021 6.16 5.77 8.86
8/23/2023 8:00:00 PM 17.35 63.23 0.022 6.18 5.15 8.87
8/23/2023 8:15:00 PM 17.28 63.104 0.022 6.14 4.94 8.86
8/23/2023 8:30:00 PM 17.22 62.996 0.022 6.18 5.37 8.87
8/23/2023 8:45:00 PM 17.16 62.888 0.022 6.12 5.02 8.87
8/23/2023 9:00:00 PM 17.1 62.78 0.022 6.13 5.22 8.86
8/23/2023 9:15:00 PM 17.05 62.69 0.022 6.17 4.96 8.87
8/23/2023 9:30:00 PM 17 62.6 0.023 6.14 5.18 8.87
8/23/2023 9:45:00 PM 16.95 62.51 0.023 6.08 5.16 8.88
8/23/2023 10:00:00 PM 16.91 62.438 0.023 6.15 4.99 8.87
8/23/2023 10:15:00 PM 16.86 62.348 0.023 6.09 5.43 8.89
8/23/2023 10:30:00 PM 16.83 62.294 0.023 6.12 5.18 8.89
8/23/2023 10:45:00 PM 16.8 62.24 0.022 6.09 5.31 8.9
8/23/2023 11:00:00 PM 16.77 62.186 0.022 6.05 5.29 8.91
8/23/2023 11:15:00 PM 16.74 62.132 0.022 6.06 5.38 8.91
8/23/2023 11:30:00 PM 16.72 62.096 0.022 6.04 5.23 8.92
8/23/2023 11:45:00 PM 16.71 62.078 0.022 6.07 5.16 8.93
8/24/2023 12:00:00 AM 16.69 62.042 0.022 6.14 5.09 8.93
8/24/2023 12:15:00 AM 16.68 62.024 0.022 6.13 5.05 8.92
8/24/2023 12:30:00 AM 16.66 61.988 0.022 6.04 5.32 8.92
8/24/2023 12:45:00 AM 16.65 61.97 0.022 6.13 5.31 8.93
8/24/2023 1:00:00 AM 16.64 61.952 0.022 6.1 5.39 8.93
8/24/2023 1:15:00 AM 16.63 61.934 0.023 6.13 5.36 8.92
8/24/2023 1:30:00 AM 16.62 61.916 0.022 6.08 5.01 8.93
8/24/2023 1:45:00 AM 16.62 61.916 0.022 6.08 5.42 8.93
8/24/2023 2:00:00 AM 16.61 61.898 0.022 6.13 5.55 8.95
8/24/2023 2:15:00 AM 16.6 61.88 0.022 6.1 5.32 8.92
8/24/2023 2:30:00 AM 16.58 61.844 0.022 6.14 5.27 8.93
8/24/2023 2:45:00 AM 16.57 61.826 0.023 6.14 5.29 8.93
8/24/2023 3:00:00 AM 16.56 61.808 0.022 6.08 5.14 8.94
8/24/2023 3:15:00 AM 16.55 61.79 0.023 6.11 5.29 8.93
8/24/2023 3:30:00 AM 16.54 61.772 0.022 6.14 5.24 8.94
8/24/2023 3:45:00 AM 16.54 61.772 0.022 6.11 5.14 8.95
8/24/2023 4:00:00 AM 16.52 61.736 0.022 6.07 5.24 8.94
8/24/2023 4:15:00 AM 16.51 61.718 0.022 6.09 5.72 8.94
8/24/2023 4:30:00 AM 16.49 61.682 0.022 6.11 4.88 8.94
8/24/2023 4:45:00 AM 16.49 61.682 0.022 6.16 5.1 8.96
8/24/2023 5:00:00 AM 16.47 61.646 0.022 6.15 5.14 8.94
8/24/2023 5:15:00 AM 16.46 61.628 0.022 6.15 5.15 8.95
8/24/2023 5:30:00 AM 16.45 61.61 0.022 6.11 5.24 8.94
8/24/2023 5:45:00 AM 16.44 61.592 0.023 6.15 5.37 8.95
8/24/2023 6:00:00 AM 16.43 61.574 0.022 6.05 5.51 8.95
8/24/2023 6:15:00 AM 16.42 61.556 0.022 6.11 5.2 8.95
8/24/2023 6:30:00 AM 16.41 61.538 0.022 6.17 5.56 8.94
8/24/2023 6:45:00 AM 16.4 61.52 0.023 6.06 5.26 8.95
8/24/2023 7:00:00 AM 16.39 61.502 0.023 6.11 4.92 8.95
8/24/2023 7:15:00 AM 16.39 61.502 0.022 6.14 5.08 8.95
8/24/2023 7:30:00 AM 16.4 61.52 0.022 6.16 5.28 8.98
8/24/2023 7:45:00 AM 16.39 61.502 0.022 6.09 5.48 8.98
8/24/2023 8:00:00 AM 16.39 61.502 0.022 6.14 5.04 8.99
8/24/2023 8:15:00 AM 16.39 61.502 0.022 6.12 4.99 9
8/24/2023 8:30:00 AM 16.39 61.502 0.022 6.18 5.14 9.01
8/24/2023 8:45:00 AM 16.39 61.502 0.022 6.12 5.22 9.02
8/24/2023 9:00:00 AM 16.4 61.52 0.022 6.18 5.45 9.03
8/24/2023 9:15:00 AM 16.4 61.52 0.022 6.19 5.2 9.05
8/24/2023 9:30:00 AM 16.4 61.52 0.023 6.17 5.3 9.04
8/24/2023 9:45:00 AM 16.4 61.52 0.022 6.11 5.58 9.06
8/24/2023 10:00:00 AM 16.4 61.52 0.022 6.12 5.01 9.06
8/24/2023 10:15:00 AM 16.41 61.538 0.022 6.1 5.42 9.08
8/24/2023 10:30:00 AM 16.41 61.538 0.022 6.09 5.38 9.08
8/24/2023 10:45:00 AM 16.42 61.556 0.023 6.09 5.24 9.09
8/24/2023 11:00:00 AM 16.43 61.574 0.022 6.17 6.17 9.1
8/24/2023 11:15:00 AM 16.44 61.592 0.022 6.18 5.17 9.12
8/24/2023 11:30:00 AM 16.44 61.592 0.022 6.16 5.27 9.11
8/24/2023 11:45:00 AM 16.46 61.628 0.022 6.13 5.08 9.13
8/24/2023 12:00:00 PM 16.47 61.646 0.022 6.23 5.25 9.14
8/24/2023 12:15:00 PM 16.48 61.664 0.022 6.2 5.03 9.14
8/24/2023 12:30:00 PM 16.5 61.7 0.022 6.21 5.47 9.14
8/24/2023 12:45:00 PM 16.5 61.7 0.022 6.2 5.1 9.13
8/24/2023 1:00:00 PM 16.5 61.7 0.022 6.21 5.13 9.13
8/24/2023 1:15:00 PM 16.52 61.736 0.022 6.2 5.06 9.13
8/24/2023 1:30:00 PM 16.52 61.736 0.022 6.21 5.08 9.13
8/24/2023 1:45:00 PM 16.53 61.754 0.023 6.1 5.09 9.14
8/24/2023 2:00:00 PM 16.54 61.772 0.022 6.08 5.33 9.13
8/24/2023 2:15:00 PM 16.55 61.79 0.022 6.19 5.12 9.13
8/24/2023 2:30:00 PM 16.56 61.808 0.022 6.15 5.27 9.13
8/24/2023 2:45:00 PM 16.58 61.844 0.022 6.17 5.05 9.13
8/24/2023 3:00:00 PM 16.59 61.862 0.022 6.17 5.05 9.14
8/24/2023 3:15:00 PM 16.59 61.862 0.022 6.23 5 9.13
8/24/2023 3:30:00 PM 16.58 61.844 0.022 6.15 5.01 9.12
8/24/2023 3:45:00 PM 16.58 61.844 0.022 6.16 5.02 9.11
8/24/2023 4:00:00 PM 16.57 61.826 0.022 6.19 5.29 9.1
8/24/2023 4:15:00 PM 16.55 61.79 0.022 6.22 5.17 9.08
8/24/2023 4:30:00 PM 16.54 61.772 0.023 6.18 5.51 9.08
8/24/2023 4:45:00 PM 16.53 61.754 0.022 6.12 5.12 9.06
8/24/2023 5:00:00 PM 16.52 61.736 0.022 6.18 5.29 9.06
8/24/2023 5:15:00 PM 16.51 61.718 0.022 6.19 5.26 9.06
8/24/2023 5:30:00 PM 16.49 61.682 0.023 6.2 5.1 9.05
8/24/2023 5:45:00 PM 16.49 61.682 0.022 6.13 5.27 9.05
8/24/2023 6:00:00 PM 16.47 61.646 0.023 6.16 5.13 9.04
8/24/2023 6:15:00 PM 16.47 61.646 0.022 6.17 5.29 9.04
8/24/2023 6:30:00 PM 16.46 61.628 0.022 6.13 6.66 9.04
8/24/2023 6:45:00 PM 16.44 61.592 0.023 6.12 5.67 9.03
8/24/2023 7:00:00 PM 16.44 61.592 0.022 6.13 5.26 9.02
8/24/2023 7:15:00 PM 16.42 61.556 0.023 6.12 5.08 9.02
8/24/2023 7:30:00 PM 16.41 61.538 0.022 6.2 5.33 9.01
8/24/2023 7:45:00 PM 16.39 61.502 0.023 6.13 5.18 9
8/24/2023 8:00:00 PM 16.38 61.484 0.023 6.14 5.08 9
8/24/2023 8:15:00 PM 16.36 61.448 0.022 6.13 5.12 9
8/24/2023 8:30:00 PM 16.35 61.43 0.023 6.18 5.18 8.99
8/24/2023 8:45:00 PM 16.34 61.412 0.023 6.09 6.01 8.98
8/24/2023 9:00:00 PM 16.33 61.394 0.022 6.1 5.93 8.99
8/24/2023 9:15:00 PM 16.32 61.376 0.023 6.15 5.3 8.99
8/24/2023 9:30:00 PM 16.31 61.358 0.023 6.14 5.07 9
8/24/2023 9:45:00 PM 16.3 61.34 0.023 6.14 5.22 9
8/24/2023 10:00:00 PM 16.29 61.322 0.023 6.14 5.44 9
8/24/2023 10:15:00 PM 16.29 61.322 0.023 6.16 4.89 9
8/24/2023 10:30:00 PM 16.28 61.304 0.023 6.15 5.2 9
8/24/2023 10:45:00 PM 16.27 61.286 0.023 6.11 5.34 9
8/24/2023 11:00:00 PM 16.27 61.286 0.023 6.13 5.07 9
8/24/2023 11:15:00 PM 16.27 61.286 0.023 6.18 5.01 8.99
8/24/2023 11:30:00 PM 16.26 61.268 0.023 6.18 5.15 8.99
8/24/2023 11:45:00 PM 16.26 61.268 0.023 6.15 5.33 8.99
8/25/2023 12:00:00 AM 16.25 61.25 0.023 6.15 5.18 8.99
8/25/2023 12:15:00 AM 16.25 61.25 0.023 6.19 4.93 9
8/25/2023 12:30:00 AM 16.25 61.25 0.023 6.19 5.31 9
8/25/2023 12:45:00 AM 16.24 61.232 0.023 6.12 5.54 9
8/25/2023 1:00:00 AM 16.24 61.232 0.023 6.15 5.55 8.99
8/25/2023 1:15:00 AM 16.24 61.232 0.023 6.14 5.68 9
8/25/2023 1:30:00 AM 16.24 61.232 0.023 6.16 5.22 9
8/25/2023 1:45:00 AM 16.24 61.232 0.023 6.11 5.19 9
8/25/2023 2:00:00 AM 16.24 61.232 0.024 6.13 5.33 8.98
8/25/2023 2:15:00 AM 16.25 61.25 0.023 6.19 5.16 8.99
8/25/2023 2:30:00 AM 16.25 61.25 0.023 6.15 5.19 8.99
8/25/2023 2:45:00 AM 16.25 61.25 0.023 6.18 5.2 8.97
8/25/2023 3:00:00 AM 16.26 61.268 0.023 6.16 4.85 8.98
8/25/2023 3:15:00 AM 16.28 61.304 0.023 6.14 5.43 8.99
8/25/2023 3:30:00 AM 16.32 61.376 0.023 6.21 10.23 8.99
8/25/2023 3:45:00 AM 16.31 61.358 0.024 6.23 11.18 8.96
8/25/2023 4:00:00 AM 16.32 61.376 0.024 6.19 8.09 8.96
8/25/2023 4:15:00 AM 16.32 61.376 0.023 6.16 6.95 8.96
8/25/2023 4:30:00 AM 16.32 61.376 0.023 6.17 6.34 8.95
8/25/2023 4:45:00 AM 16.32 61.376 0.023 6.19 6.19 8.95
8/25/2023 5:00:00 AM 16.32 61.376 0.023 6.17 6.59 8.94
8/25/2023 5:15:00 AM 16.31 61.358 0.022 6.07 6.11 8.95
8/25/2023 5:30:00 AM 16.31 61.358 0.022 6.2 7.17 8.96
8/25/2023 5:45:00 AM 16.3 61.34 0.022 6.13 9.21 8.97
8/25/2023 6:00:00 AM 16.27 61.286 0.022 6.19 9.16 8.99
8/25/2023 6:15:00 AM 16.26 61.268 0.022 6.19 8.62 9
8/25/2023 6:30:00 AM 16.25 61.25 0.021 6.13 8.03 9
8/25/2023 6:45:00 AM 16.25 61.25 0.021 6.18 8.49 9.01
8/25/2023 7:00:00 AM 16.25 61.25 0.021 6.13 9.1 9.02
8/25/2023 7:15:00 AM 16.25 61.25 0.02 6.13 12.1 9.04
8/25/2023 7:30:00 AM 16.25 61.25 0.02 6.14 14.52 9.06
8/25/2023 7:45:00 AM 16.29 61.322 0.02 6.14 15.95 9.07
8/25/2023 8:00:00 AM 16.37 61.466 0.019 6.03 14.49 9.08
8/25/2023 8:15:00 AM 16.46 61.628 0.019 6.09 13.14 9.08
8/25/2023 8:30:00 AM 16.51 61.718 0.018 6.09 12.11 9.09
8/25/2023 8:45:00 AM 16.54 61.772 0.018 6.09 11.74 9.1
8/25/2023 9:00:00 AM 16.54 61.772 0.018 6.08 10.85 9.11
8/25/2023 9:15:00 AM 16.54 61.772 0.018 6.07 10.7 9.12
8/25/2023 9:30:00 AM 16.55 61.79 0.018 6.06 10.48 9.14
8/25/2023 9:45:00 AM 16.57 61.826 0.018 6.05 10.48 9.15
8/25/2023 10:00:00 AM 16.58 61.844 0.018 6.07 12.16 9.15
8/25/2023 10:15:00 AM 16.61 61.898 0.018 6.11 15.25 9.15
8/25/2023 10:30:00 AM 16.66 61.988 0.019 6.14 18.01 9.15
8/25/2023 10:45:00 AM 16.71 62.078 0.018 6.15 17.13 9.14
8/25/2023 11:00:00 AM 16.74 62.132 0.018 6.1 17.51 9.13
8/25/2023 11:15:00 AM 16.76 62.168 0.018 6.07 16.59 9.12
8/25/2023 11:30:00 AM 16.78 62.204 0.018 6.09 16.7 9.11
8/25/2023 11:45:00 AM 16.81 62.258 0.018 6.1 16.1 9.1
8/25/2023 12:00:00 PM 16.84 62.312 0.018 6.09 16.85 9.1
8/25/2023 12:15:00 PM 16.87 62.366 0.018 6.03 17.35 9.08
8/25/2023 12:30:00 PM 16.92 62.456 0.017 6.08 17.69 9.09
8/25/2023 12:45:00 PM 16.98 62.564 0.017 6.1 16.78 9.09
8/25/2023 1:00:00 PM 17.04 62.672 0.017 6.01 15.63 9.09
8/25/2023 1:15:00 PM 17.15 62.87 0.017 6.09 14.62 9.09
8/25/2023 1:30:00 PM 17.27 63.086 0.017 6.08 13.7 9.09
8/25/2023 1:45:00 PM 17.39 63.302 0.017 6.09 12.48 9.08
8/25/2023 2:00:00 PM 17.53 63.554 0.016 6.01 12.2 9.06
8/25/2023 2:15:00 PM 17.61 63.698 0.016 6.02 11.39 9.04
8/25/2023 2:30:00 PM 17.68 63.824 0.016 6.02 10.71 9.02
8/25/2023 2:45:00 PM 17.74 63.932 0.016 6 10.51 9
8/25/2023 3:00:00 PM 17.76 63.968 0.016 5.98 10.34 8.97
8/25/2023 3:15:00 PM 17.76 63.968 0.015 6.02 10.42 8.95
8/25/2023 3:30:00 PM 17.78 64.004 0.015 5.99 9.52 8.94
8/25/2023 3:45:00 PM 17.82 64.076 0.015 5.99 9.28 8.94
8/25/2023 4:00:00 PM 17.89 64.202 0.015 6 9.57 8.95
8/25/2023 4:15:00 PM 17.96 64.328 0.015 5.97 8.52 8.95
8/25/2023 4:30:00 PM 18.02 64.436 0.015 5.93 8.41 8.93
8/25/2023 4:45:00 PM 18.1 64.58 0.015 5.94 8.37 8.92
8/25/2023 5:00:00 PM 18.1 64.58 0.015 5.9 8.2 8.9
8/25/2023 5:15:00 PM 18.06 64.508 0.015 5.94 8.01 8.86
8/25/2023 5:30:00 PM 18.07 64.526 0.015 5.97 7.95 8.85
8/25/2023 5:45:00 PM 18.11 64.598 0.015 5.94 7.62 8.84
8/25/2023 6:00:00 PM 18.16 64.688 0.015 5.88 7.7 8.85
8/25/2023 6:15:00 PM 18.18 64.724 0.015 5.96 7.37 8.83
8/25/2023 6:30:00 PM 18.18 64.724 0.015 5.92 7.38 8.81
8/25/2023 6:45:00 PM 18.19 64.742 0.015 5.95 7.3 8.8
8/25/2023 7:00:00 PM 18.18 64.724 0.015 5.85 7.17 8.79
8/25/2023 7:15:00 PM 18.15 64.67 0.015 5.91 6.89 8.78
8/25/2023 7:30:00 PM 18.13 64.634 0.015 5.85 6.96 8.76
8/25/2023 7:45:00 PM 18.11 64.598 0.015 5.91 6.46 8.76
8/25/2023 8:00:00 PM 18.09 64.562 0.015 5.83 6.68 8.74
8/25/2023 8:15:00 PM 18.06 64.508 0.015 5.81 6.6 8.74
8/25/2023 8:30:00 PM 18.04 64.472 0.015 5.79 6.52 8.73
8/25/2023 8:45:00 PM 18.02 64.436 0.015 5.77 6.65 8.74
8/25/2023 9:00:00 PM 18.01 64.418 0.015 5.78 6.54 8.74
8/25/2023 9:15:00 PM 18.01 64.418 0.015 5.78 6.62 8.74
8/25/2023 9:30:00 PM 18.01 64.418 0.015 5.83 6.21 8.73
8/25/2023 9:45:00 PM 18.01 64.418 0.015 5.76 6.1 8.73
8/25/2023 10:00:00 PM 18.01 64.418 0.015 5.84 6.02 8.73
8/25/2023 10:15:00 PM 18.01 64.418 0.015 5.75 6.13 8.73
8/25/2023 10:30:00 PM 18 64.4 0.015 5.75 5.96 8.73
8/25/2023 10:45:00 PM 18 64.4 0.015 5.74 6.19 8.73
8/25/2023 11:00:00 PM 17.99 64.382 0.015 5.78 6.17 8.73
8/25/2023 11:15:00 PM 17.97 64.346 0.015 5.86 6.33 8.73
8/25/2023 11:30:00 PM 17.96 64.328 0.015 5.85 6.19 8.73
8/25/2023 11:45:00 PM 17.95 64.31 0.015 5.83 6.13 8.74
8/26/2023 12:00:00 AM 17.94 64.292 0.015 5.73 6.12 8.74
8/26/2023 12:15:00 AM 17.92 64.256 0.015 5.83 6.18 8.74
8/26/2023 12:30:00 AM 17.9 64.22 0.015 5.84 5.97 8.75
8/26/2023 12:45:00 AM 17.88 64.184 0.015 5.76 6.2 8.75
8/26/2023 1:00:00 AM 17.85 64.13 0.015 5.75 6.19 8.75
8/26/2023 1:15:00 AM 17.83 64.094 0.015 5.77 5.88 8.75
8/26/2023 1:30:00 AM 17.81 64.058 0.015 5.8 5.99 8.75
8/26/2023 1:45:00 AM 17.8 64.04 0.015 5.81 6.3 8.76
8/26/2023 2:00:00 AM 17.78 64.004 0.015 5.79 5.97 8.76
8/26/2023 2:15:00 AM 17.77 63.986 0.015 5.77 5.8 8.76
8/26/2023 2:30:00 AM 17.75 63.95 0.015 5.8 5.75 8.76
8/26/2023 2:45:00 AM 17.74 63.932 0.015 5.82 5.65 8.76
8/26/2023 3:00:00 AM 17.72 63.896 0.015 5.75 5.84 8.76
8/26/2023 3:15:00 AM 17.71 63.878 0.015 5.72 5.84 8.77
8/26/2023 3:30:00 AM 17.7 63.86 0.015 5.75 5.92 8.77
8/26/2023 3:45:00 AM 17.68 63.824 0.016 5.81 5.68 8.77
8/26/2023 4:00:00 AM 17.67 63.806 0.016 5.76 5.65 8.77
8/26/2023 4:15:00 AM 17.65 63.77 0.015 5.71 5.98 8.77
8/26/2023 4:30:00 AM 17.63 63.734 0.016 5.75 5.64 8.77
8/26/2023 4:45:00 AM 17.62 63.716 0.015 5.71 5.64 8.78
8/26/2023 5:00:00 AM 17.61 63.698 0.016 5.81 5.48 8.78
8/26/2023 5:15:00 AM 17.6 63.68 0.016 5.8 5.66 8.78
8/26/2023 5:30:00 AM 17.59 63.662 0.015 5.81 5.53 8.78
8/26/2023 5:45:00 AM 17.58 63.644 0.016 5.81 5.55 8.78
8/26/2023 6:00:00 AM 17.57 63.626 0.016 5.73 5.53 8.79
8/26/2023 6:15:00 AM 17.56 63.608 0.016 5.85 5.52 8.79
8/26/2023 6:30:00 AM 17.55 63.59 0.016 5.88 5.7 8.79
8/26/2023 6:45:00 AM 17.54 63.572 0.016 5.9 5.59 8.8
8/26/2023 7:00:00 AM 17.53 63.554 0.016 5.9 5.44 8.81
8/26/2023 7:15:00 AM 17.53 63.554 0.016 5.9 5.39 8.82
8/26/2023 7:30:00 AM 17.53 63.554 0.016 5.94 5.7 8.83
8/26/2023 7:45:00 AM 17.53 63.554 0.016 5.82 5.81 8.85
8/26/2023 8:00:00 AM 17.53 63.554 0.016 5.93 5.62 8.87
8/26/2023 8:15:00 AM 17.55 63.59 0.016 5.92 5.63 8.89
8/26/2023 8:30:00 AM 17.57 63.626 0.016 5.86 5.44 8.91
8/26/2023 8:45:00 AM 17.59 63.662 0.016 5.94 5.21 8.92
8/26/2023 9:00:00 AM 17.61 63.698 0.016 5.93 5.44 8.94
8/26/2023 9:15:00 AM 17.64 63.752 0.016 5.9 5.44 8.95
8/26/2023 9:30:00 AM 17.67 63.806 0.016 5.91 5.7 8.95
8/26/2023 9:45:00 AM 17.75 63.95 0.016 5.96 5.33 8.96
8/26/2023 10:00:00 AM 17.83 64.094 0.016 5.98 5.37 8.96
8/26/2023 10:15:00 AM 17.91 64.238 0.016 5.97 5.45 8.97
8/26/2023 10:30:00 AM 18 64.4 0.016 6 5.59 8.96
8/26/2023 10:45:00 AM 18.02 64.436 0.016 5.93 5.28 8.95
8/26/2023 11:00:00 AM 18.02 64.436 0.016 5.98 5.85 8.95
8/26/2023 11:15:00 AM 18.05 64.49 0.016 5.99 5.42 8.96
8/26/2023 11:30:00 AM 18.13 64.634 0.016 5.89 5.74 8.95
8/26/2023 11:45:00 AM 18.19 64.742 0.016 6.02 5.52 8.95
8/26/2023 12:00:00 PM 18.25 64.85 0.016 6.02 5.41 8.93
8/26/2023 12:15:00 PM 18.36 65.048 0.016 6.02 5.52 8.94
8/26/2023 12:30:00 PM 18.47 65.246 0.016 6.02 5.44 8.93
8/26/2023 12:45:00 PM 18.55 65.39 0.016 6.03 5.54 8.92
8/26/2023 1:00:00 PM 18.61 65.498 0.016 5.99 5.38 8.91
8/26/2023 1:15:00 PM 18.68 65.624 0.016 5.95 5.52 8.9
8/26/2023 1:30:00 PM 18.86 65.948 0.016 5.94 5.48 8.88
8/26/2023 1:45:00 PM 19 66.2 0.016 6.06 5.74 8.86
8/26/2023 2:00:00 PM 19.05 66.29 0.016 6.05 5.62 8.84
8/26/2023 2:15:00 PM 19.18 66.524 0.016 6.07 5.54 8.84
8/26/2023 2:30:00 PM 19.38 66.884 0.016 6.06 5.35 8.81
8/26/2023 2:45:00 PM 19.48 67.064 0.016 6.04 5.35 8.78
8/26/2023 3:00:00 PM 19.46 67.028 0.016 6.04 5.46 8.75
8/26/2023 3:15:00 PM 19.48 67.064 0.016 5.93 5.3 8.75
8/26/2023 3:30:00 PM 19.56 67.208 0.016 6.05 5.67 8.74
8/26/2023 3:45:00 PM 19.66 67.388 0.016 6.07 5.08 8.73
8/26/2023 4:00:00 PM 19.74 67.532 0.016 6.06 5.3 8.72
8/26/2023 4:15:00 PM 19.75 67.55 0.016 6.05 5.1 8.7
8/26/2023 4:30:00 PM 19.75 67.55 0.016 5.96 5.37 8.67
8/26/2023 4:45:00 PM 19.73 67.514 0.016 6.06 5.53 8.65
8/26/2023 5:00:00 PM 19.7 67.46 0.016 6.06 5.21 8.63
8/26/2023 5:15:00 PM 19.66 67.388 0.016 5.99 5.11 8.63
8/26/2023 5:30:00 PM 19.59 67.262 0.016 6.04 5.44 8.62
8/26/2023 5:45:00 PM 19.51 67.118 0.016 5.97 5.6 8.61
8/26/2023 6:00:00 PM 19.45 67.01 0.016 6.03 5.26 8.61
8/26/2023 6:15:00 PM 19.38 66.884 0.016 6.08 5.13 8.6
8/26/2023 6:30:00 PM 19.3 66.74 0.016 6.02 5.09 8.6
8/26/2023 6:45:00 PM 19.24 66.632 0.016 6.03 5.43 8.6
8/26/2023 7:00:00 PM 19.16 66.488 0.016 5.99 5.71 8.59
8/26/2023 7:15:00 PM 19.09 66.362 0.016 6.03 5.14 8.58
8/26/2023 7:30:00 PM 19.02 66.236 0.016 6.03 5.25 8.57
8/26/2023 7:45:00 PM 18.96 66.128 0.016 5.99 5.2 8.55
8/26/2023 8:00:00 PM 18.9 66.02 0.017 5.98 5.13 8.54
8/26/2023 8:15:00 PM 18.85 65.93 0.017 6.01 5.24 8.54
8/26/2023 8:30:00 PM 18.81 65.858 0.016 5.92 5.2 8.54
8/26/2023 8:45:00 PM 18.76 65.768 0.017 6 5.38 8.53
8/26/2023 9:00:00 PM 18.71 65.67799 0.017 6.01 5.2 8.53
8/26/2023 9:15:00 PM 18.66 65.588 0.017 6 5.25 8.54
8/26/2023 9:30:00 PM 18.62 65.516 0.017 5.91 5.17 8.55
8/26/2023 9:45:00 PM 18.58 65.444 0.017 5.89 5.24 8.55
8/26/2023 10:00:00 PM 18.54 65.372 0.017 5.89 5.48 8.57
8/26/2023 10:15:00 PM 18.51 65.318 0.017 5.88 5.19 8.57
8/26/2023 10:30:00 PM 18.48 65.264 0.017 6.02 5.15 8.57
8/26/2023 10:45:00 PM 18.44 65.192 0.017 5.98 7.83 8.58
8/26/2023 11:00:00 PM 18.4 65.12 0.017 5.99 5.14 8.58
8/26/2023 11:15:00 PM 18.36 65.048 0.017 5.95 5.11 8.58
8/26/2023 11:30:00 PM 18.31 64.958 0.017 5.98 4.94 8.6
8/26/2023 11:45:00 PM 18.28 64.904 0.017 5.87 4.86 8.6
8/27/2023 12:00:00 AM 18.24 64.832 0.017 5.89 5.41 8.62
8/27/2023 12:15:00 AM 18.21 64.778 0.017 5.88 5.38 8.61
8/27/2023 12:30:00 AM 18.19 64.742 0.017 5.91 5.16 8.62
8/27/2023 12:45:00 AM 18.16 64.688 0.017 6 5.29 8.64
8/27/2023 1:00:00 AM 18.12 64.616 0.017 5.86 5.04 8.64
8/27/2023 1:15:00 AM 18.09 64.562 0.017 5.96 5.36 8.66
8/27/2023 1:30:00 AM 18.05 64.49 0.017 5.78 5.39 8.66
8/27/2023 1:45:00 AM 18.01 64.418 0.017 5.98 5.19 8.67
8/27/2023 2:00:00 AM 17.95 64.31 0.017 5.86 5.22 8.68
8/27/2023 2:15:00 AM 17.9 64.22 0.017 5.98 5.22 8.69
8/27/2023 2:30:00 AM 17.84 64.112 0.017 5.82 5.58 8.69
8/27/2023 2:45:00 AM 17.79 64.022 0.018 5.92 5.21 8.7
8/27/2023 3:00:00 AM 17.75 63.95 0.017 5.9 5.15 8.71
8/27/2023 3:15:00 AM 17.7 63.86 0.018 5.86 4.84 8.72
8/27/2023 3:30:00 AM 17.64 63.752 0.017 5.83 5.21 8.73
8/27/2023 3:45:00 AM 17.6 63.68 0.018 5.92 4.97 8.73
8/27/2023 4:00:00 AM 17.56 63.608 0.017 5.88 5.15 8.74
8/27/2023 4:15:00 AM 17.53 63.554 0.018 5.92 5.09 8.75
8/27/2023 4:30:00 AM 17.51 63.518 0.017 5.89 5.46 8.76
8/27/2023 4:45:00 AM 17.48 63.464 0.018 5.82 5.08 8.76
8/27/2023 5:00:00 AM 17.46 63.428 0.017 5.86 4.91 8.77
8/27/2023 5:15:00 AM 17.43 63.374 0.017 5.97 5.23 8.77
8/27/2023 5:30:00 AM 17.41 63.338 0.018 5.96 5.21 8.78
8/27/2023 5:45:00 AM 17.4 63.32 0.018 5.85 5.16 8.79
8/27/2023 6:00:00 AM 17.38 63.284 0.017 5.88 5.28 8.79
8/27/2023 6:15:00 AM 17.36 63.248 0.017 5.95 5.2 8.79
8/27/2023 6:30:00 AM 17.35 63.23 0.018 5.95 5.31 8.82
8/27/2023 6:45:00 AM 17.33 63.194 0.017 5.97 5.15 8.82
8/27/2023 7:00:00 AM 17.31 63.158 0.018 5.96 5.12 8.81
8/27/2023 7:15:00 AM 17.31 63.158 0.018 5.91 5.2 8.83
8/27/2023 7:30:00 AM 17.3 63.14 0.018 5.98 5.14 8.84
8/27/2023 7:45:00 AM 17.31 63.158 0.018 5.97 5.2 8.87
8/27/2023 8:00:00 AM 17.33 63.194 0.018 6.03 4.68 8.88
8/27/2023 8:15:00 AM 17.35 63.23 0.018 6.02 4.9 8.92
8/27/2023 8:30:00 AM 17.38 63.284 0.018 6.03 5.15 8.95
8/27/2023 8:45:00 AM 17.4 63.32 0.017 5.94 5.25 8.96
8/27/2023 9:00:00 AM 17.43 63.374 0.017 6.04 4.94 8.96
8/27/2023 9:15:00 AM 17.44 63.392 0.018 6.05 5.28 8.96
8/27/2023 9:30:00 AM 17.45 63.41 0.017 6.03 5.02 8.97
8/27/2023 9:45:00 AM 17.48 63.464 0.017 6.06 5.11 8.99
8/27/2023 10:00:00 AM 17.54 63.572 0.018 6.03 4.99 9.01
8/27/2023 10:15:00 AM 17.6 63.68 0.017 6.01 5.21 9.03
8/27/2023 10:30:00 AM 17.65 63.77 0.018 6.08 4.98 9.03
8/27/2023 10:45:00 AM 17.68 63.824 0.018 6.06 5.12 9.04
8/27/2023 11:00:00 AM 17.71 63.878 0.017 6.02 5.23 9.04
8/27/2023 11:15:00 AM 17.73 63.914 0.018 6.06 5.07 9.03
8/27/2023 11:30:00 AM 17.76 63.968 0.017 6.03 5.11 9.03
8/27/2023 11:45:00 AM 17.8 64.04 0.017 6.04 5.23 9.03
8/27/2023 12:00:00 PM 17.83 64.094 0.018 6.08 4.7 9.03
8/27/2023 12:15:00 PM 17.86 64.148 0.017 6.03 4.92 9.03
8/27/2023 12:30:00 PM 17.9 64.22 0.017 6.1 5.06 9.03
8/27/2023 12:45:00 PM 17.95 64.31 0.017 6.09 5.38 9.03
8/27/2023 1:00:00 PM 18.01 64.418 0.018 6.11 4.85 9.03
8/27/2023 1:15:00 PM 18.07 64.526 0.018 6.05 4.92 9.03
8/27/2023 1:30:00 PM 18.15 64.67 0.017 6.15 4.85 9.03
8/27/2023 1:45:00 PM 18.27 64.886 0.018 6.14 5.24 9.01
8/27/2023 2:00:00 PM 18.53 65.354 0.018 6.13 5 9.01
8/27/2023 2:15:00 PM 18.66 65.588 0.018 6.11 5.18 8.96
8/27/2023 2:30:00 PM 18.81 65.858 0.017 6.09 5.18 8.95
8/27/2023 2:45:00 PM 18.86 65.948 0.018 6.1 4.99 8.93
8/27/2023 3:00:00 PM 18.87 65.966 0.018 6.1 4.87 8.9
8/27/2023 3:15:00 PM 18.93 66.074 0.018 6.14 4.96 8.88
8/27/2023 3:30:00 PM 19.04 66.272 0.018 6.13 4.87 8.87
8/27/2023 3:45:00 PM 19.15 66.47 0.018 5.99 5.16 8.84
8/27/2023 4:00:00 PM 19.22 66.596 0.018 6.13 5.02 8.82
8/27/2023 4:15:00 PM 19.32 66.776 0.018 6.08 5.05 8.81
8/27/2023 4:30:00 PM 19.39 66.902 0.018 6.12 5.08 8.79
8/27/2023 4:45:00 PM 19.37 66.866 0.018 6.19 5.17 8.77
8/27/2023 5:00:00 PM 19.37 66.866 0.018 6.11 5.12 8.78
8/27/2023 5:15:00 PM 19.29 66.722 0.018 6.11 5.24 8.76
8/27/2023 5:30:00 PM 19.21 66.578 0.018 6.03 6.06 8.75
8/27/2023 5:45:00 PM 19.17 66.506 0.018 6.08 4.8 8.74
8/27/2023 6:00:00 PM 19.12 66.416 0.018 6.06 5.09 8.75
8/27/2023 6:15:00 PM 19.04 66.272 0.018 6.06 5.24 8.74
8/27/2023 6:30:00 PM 18.93 66.074 0.018 6.08 4.8 8.73
8/27/2023 6:45:00 PM 18.81 65.858 0.018 6.14 5.02 8.72
8/27/2023 7:00:00 PM 18.67 65.606 0.018 6.1 4.99 8.72
8/27/2023 7:15:00 PM 18.53 65.354 0.018 6.17 5.78 8.71
8/27/2023 7:30:00 PM 18.41 65.138 0.018 6.11 5.45 8.69
8/27/2023 7:45:00 PM 18.3 64.94 0.018 6.05 5.32 8.67
8/27/2023 8:00:00 PM 18.21 64.778 0.018 6.06 5.66 8.68
8/27/2023 8:15:00 PM 18.11 64.598 0.018 6.02 6.08 8.66
8/27/2023 8:30:00 PM 18.03 64.454 0.018 5.98 5.47 8.68
8/27/2023 8:45:00 PM 17.94 64.292 0.019 6.07 5.07 8.68
8/27/2023 9:00:00 PM 17.86 64.148 0.018 5.95 5.6 8.69
8/27/2023 9:15:00 PM 17.79 64.022 0.018 6.09 5.15 8.7
8/27/2023 9:30:00 PM 17.72 63.896 0.018 5.98 5.02 8.71
8/27/2023 9:45:00 PM 17.65 63.77 0.018 6.05 5.31 8.72
8/27/2023 10:00:00 PM 17.58 63.644 0.018 6.07 4.98 8.74
8/27/2023 10:15:00 PM 17.52 63.536 0.019 6.01 4.84 8.74
8/27/2023 10:30:00 PM 17.45 63.41 0.019 6.01 5.02 8.75
8/27/2023 10:45:00 PM 17.39 63.302 0.018 5.96 5.26 8.76
8/27/2023 11:00:00 PM 17.33 63.194 0.019 6.07 5.46 8.78
8/27/2023 11:15:00 PM 17.27 63.086 0.019 6.07 5.34 8.8
8/27/2023 11:30:00 PM 17.2 62.96 0.018 5.97 5.49 8.81
8/27/2023 11:45:00 PM 17.14 62.852 0.019 5.93 5.29 8.81
8/28/2023 12:00:00 AM 17.08 62.744 0.019 6.02 5.27 8.83
8/28/2023 12:15:00 AM 17.03 62.654 0.019 6.07 5.22 8.84
8/28/2023 12:30:00 AM 16.97 62.546 0.019 5.96 5.32 8.85
8/28/2023 12:45:00 AM 16.93 62.474 0.018 6.03 5.24 8.86
8/28/2023 1:00:00 AM 16.87 62.366 0.019 6.06 5.27 8.86
8/28/2023 1:15:00 AM 16.81 62.258 0.019 6.03 4.94 8.88
8/28/2023 1:30:00 AM 16.77 62.186 0.019 6.05 5.13 8.89
8/28/2023 1:45:00 AM 16.71 62.078 0.019 6.02 5.47 8.9
8/28/2023 2:00:00 AM 16.66 61.988 0.019 5.98 5.61 8.91
8/28/2023 2:15:00 AM 16.61 61.898 0.019 6.02 5.35 8.92
8/28/2023 2:30:00 AM 16.57 61.826 0.019 6.01 5.2 8.93
8/28/2023 2:45:00 AM 16.53 61.754 0.019 6.05 5.12 8.94
8/28/2023 3:00:00 AM 16.49 61.682 0.018 6.05 5.03 8.95
8/28/2023 3:15:00 AM 16.46 61.628 0.018 6.05 5.29 8.96
8/28/2023 3:30:00 AM 16.43 61.574 0.019 6.04 5.23 8.97
8/28/2023 3:45:00 AM 16.39 61.502 0.019 6.05 5.26 8.98
8/28/2023 4:00:00 AM 16.36 61.448 0.019 5.99 4.96 8.98
8/28/2023 4:15:00 AM 16.33 61.394 0.019 6.05 5.42 8.99
8/28/2023 4:30:00 AM 16.29 61.322 0.019 6.03 5.35 8.99
8/28/2023 4:45:00 AM 16.26 61.268 0.019 6.09 5.21 9.01
8/28/2023 5:00:00 AM 16.22 61.196 0.018 6 5.07 9.02
8/28/2023 5:15:00 AM 16.19 61.142 0.019 6.05 5.38 9.02
8/28/2023 5:30:00 AM 16.15 61.07 0.019 6.02 5.06 9.02
8/28/2023 5:45:00 AM 16.12 61.016 0.019 6.08 5.53 9.03
8/28/2023 6:00:00 AM 16.09 60.962 0.019 6.06 4.87 9.04
8/28/2023 6:15:00 AM 16.06 60.908 0.019 6.06 4.91 9.05
8/28/2023 6:30:00 AM 16.02 60.836 0.019 6.05 5.15 9.07
8/28/2023 6:45:00 AM 15.99 60.782 0.019 6.05 4.96 9.08
8/28/2023 7:00:00 AM 15.98 60.764 0.019 5.95 5.35 9.08
8/28/2023 7:15:00 AM 15.97 60.746 0.019 5.96 5.67 9.09
8/28/2023 7:30:00 AM 15.97 60.746 0.019 5.91 5.29 9.1
8/28/2023 7:45:00 AM 15.97 60.746 0.019 6.06 5.03 9.12
8/28/2023 8:00:00 AM 15.97 60.746 0.019 5.96 5.05 9.14
8/28/2023 8:15:00 AM 16 60.8 0.019 6.07 4.94 9.17
8/28/2023 8:30:00 AM 16.02 60.836 0.02 6.06 5.04 9.18
8/28/2023 8:45:00 AM 16.06 60.908 0.019 6.07 5.32 9.21
8/28/2023 9:00:00 AM 16.11 60.998 0.019 6.1 5.18 9.23
8/28/2023 9:15:00 AM 16.16 61.088 0.019 6.07 5.05 9.24
8/28/2023 9:30:00 AM 16.22 61.196 0.019 6.04 5.26 9.26
8/28/2023 9:45:00 AM 16.31 61.358 0.019 6.13 5.34 9.27
8/28/2023 10:00:00 AM 16.42 61.556 0.019 6.15 5.11 9.27
8/28/2023 10:15:00 AM 16.54 61.772 0.019 6.07 5.17 9.28
8/28/2023 10:30:00 AM 16.68 62.024 0.019 6.12 4.87 9.28
8/28/2023 10:45:00 AM 16.87 62.366 0.02 6.15 5.07 9.26
8/28/2023 11:00:00 AM 17.11 62.798 0.019 6.13 5.07 9.27
8/28/2023 11:15:00 AM 17.32 63.176 0.019 6.14 5.03 9.26
8/28/2023 11:30:00 AM 17.46 63.428 0.019 6.16 4.97 9.22
8/28/2023 11:45:00 AM 17.53 63.554 0.019 6.18 5.29 9.17
8/28/2023 12:00:00 PM 17.52 63.536 0.019 6.14 5.26 9.13
8/28/2023 12:15:00 PM 17.48 63.464 0.019 6.15 4.98 9.11
8/28/2023 12:30:00 PM 17.46 63.428 0.019 6.16 5.16 9.11
8/28/2023 12:45:00 PM 17.48 63.464 0.019 6.17 4.97 9.12
8/28/2023 1:00:00 PM 17.51 63.518 0.019 6.18 5.16 9.13
8/28/2023 1:15:00 PM 17.54 63.572 0.019 6.18 4.93 9.1
8/28/2023 1:30:00 PM 17.56 63.608 0.019 6.2 4.92 9.08
8/28/2023 1:45:00 PM 17.56 63.608 0.019 6.15 5 9.05
8/28/2023 2:00:00 PM 17.55 63.59 0.019 6.19 4.86 9.04
8/28/2023 2:15:00 PM 17.54 63.572 0.019 6.21 4.99 9.04
8/28/2023 2:30:00 PM 17.55 63.59 0.019 6.17 4.96 9.04
8/28/2023 2:45:00 PM 17.57 63.626 0.019 6.11 4.96 9.04
8/28/2023 3:00:00 PM 17.6 63.68 0.019 6.07 5.03 9.06
8/28/2023 3:15:00 PM 17.63 63.734 0.019 6.16 4.99 9.06
8/28/2023 3:30:00 PM 17.67 63.806 0.019 6.08 4.94 9.07
8/28/2023 3:45:00 PM 17.72 63.896 0.019 6.21 4.91 9.09
8/28/2023 4:00:00 PM 17.76 63.968 0.019 6.23 5.03 9.09
8/28/2023 4:15:00 PM 17.8 64.04 0.019 6.22 5.5 9.08
8/28/2023 4:30:00 PM 17.83 64.094 0.019 6.15 5.17 9.08
8/28/2023 4:45:00 PM 17.84 64.112 0.02 6.16 5.21 9.06
8/28/2023 5:00:00 PM 17.84 64.112 0.019 6.21 4.86 9.06
8/28/2023 5:15:00 PM 17.84 64.112 0.019 6.14 5.14 9.03
8/28/2023 5:30:00 PM 17.83 64.094 0.019 6.19 5.16 9.03
8/28/2023 5:45:00 PM 17.83 64.094 0.019 6.19 4.86 9.02
8/28/2023 6:00:00 PM 17.82 64.076 0.019 6.23 5.2 9.01
8/28/2023 6:15:00 PM 17.82 64.076 0.019 6.12 5.09 8.99
8/28/2023 6:30:00 PM 17.8 64.04 0.019 6.21 4.93 8.98
8/28/2023 6:45:00 PM 17.77 63.986 0.02 6.21 4.87 8.95
8/28/2023 7:00:00 PM 17.75 63.95 0.019 6.19 4.91 8.93
8/28/2023 7:15:00 PM 17.72 63.896 0.019 6.21 4.9 8.91
8/28/2023 7:30:00 PM 17.69 63.842 0.02 6.21 4.9 8.88
8/28/2023 7:45:00 PM 17.66 63.788 0.02 6.09 4.87 8.84
8/28/2023 8:00:00 PM 17.64 63.752 0.019 6.12 5.26 8.82
8/28/2023 8:15:00 PM 17.61 63.698 0.02 6.11 4.72 8.8
8/28/2023 8:30:00 PM 17.59 63.662 0.02 6.18 4.96 8.79
8/28/2023 8:45:00 PM 17.56 63.608 0.02 6.17 4.86 8.78
8/28/2023 9:00:00 PM 17.53 63.554 0.02 6.05 5.18 8.77
8/28/2023 9:15:00 PM 17.51 63.518 0.02 6.08 5.07 8.78
8/28/2023 9:30:00 PM 17.49 63.482 0.02 6.16 5.11 8.77
8/28/2023 9:45:00 PM 17.48 63.464 0.02 6.12 4.75 8.77
8/28/2023 10:00:00 PM 17.45 63.41 0.02 6.07 4.79 8.79
8/28/2023 10:15:00 PM 17.42 63.356 0.02 6.1 4.94 8.78
8/28/2023 10:30:00 PM 17.4 63.32 0.02 6.14 4.81 8.79
8/28/2023 10:45:00 PM 17.37 63.266 0.02 5.97 4.77 8.79
8/28/2023 11:00:00 PM 17.35 63.23 0.02 6.07 5.23 8.8
8/28/2023 11:15:00 PM 17.32 63.176 0.02 6.12 4.99 8.81
8/28/2023 11:30:00 PM 17.3 63.14 0.02 6.08 4.84 8.8
8/28/2023 11:45:00 PM 17.28 63.104 0.02 6.16 5.06 8.81
8/29/2023 12:00:00 AM 17.27 63.086 0.02 6.14 5.51 8.8
8/29/2023 12:15:00 AM 17.26 63.068 0.02 6.09 5.01 8.82
8/29/2023 12:30:00 AM 17.24 63.032 0.02 6.14 4.99 8.82
8/29/2023 12:45:00 AM 17.23 63.014 0.02 6.09 5.17 8.82
8/29/2023 1:00:00 AM 17.22 62.996 0.02 6.09 5.05 8.82
8/29/2023 1:15:00 AM 17.19 62.942 0.02 6.1 4.82 8.83
8/29/2023 1:30:00 AM 17.17 62.906 0.02 6.04 5.15 8.83
8/29/2023 1:45:00 AM 17.16 62.888 0.02 6.11 4.74 8.83
8/29/2023 2:00:00 AM 17.14 62.852 0.02 6.14 5.24 8.83
8/29/2023 2:15:00 AM 17.12 62.816 0.02 6.01 5.73 8.83
8/29/2023 2:30:00 AM 17.11 62.798 0.02 6.11 4.95 8.83
8/29/2023 2:45:00 AM 17.09 62.762 0.02 6.15 4.82 8.84
8/29/2023 3:00:00 AM 17.07 62.726 0.02 6.12 5.21 8.83
8/29/2023 3:15:00 AM 17.04 62.672 0.02 6.12 5 8.83
8/29/2023 3:30:00 AM 17.02 62.636 0.02 6.07 5.34 8.84
8/29/2023 3:45:00 AM 17.01 62.618 0.02 6.14 5.08 8.84
8/29/2023 4:00:00 AM 16.99 62.582 0.02 6.09 5.37 8.85
8/29/2023 4:15:00 AM 16.98 62.564 0.02 6.13 5.06 8.85
8/29/2023 4:30:00 AM 16.96 62.528 0.02 6.08 4.8 8.85
8/29/2023 4:45:00 AM 16.94 62.492 0.02 6.05 5.14 8.85
8/29/2023 5:00:00 AM 16.92 62.456 0.02 6.13 4.74 8.85
8/29/2023 5:15:00 AM 16.9 62.42 0.02 6.14 5.04 8.87
8/29/2023 5:30:00 AM 16.87 62.366 0.02 6.08 4.79 8.87
8/29/2023 5:45:00 AM 16.86 62.348 0.02 6.12 4.95 8.87
8/29/2023 6:00:00 AM 16.84 62.312 0.02 6.02 5.15 8.88
8/29/2023 6:15:00 AM 16.83 62.294 0.02 6.11 5.22 8.88
8/29/2023 6:30:00 AM 16.81 62.258 0.02 6.02 5.05 8.87
8/29/2023 6:45:00 AM 16.81 62.258 0.02 6.09 5.37 8.88
8/29/2023 7:00:00 AM 16.81 62.258 0.02 6.05 4.96 8.89
8/29/2023 7:15:00 AM 16.81 62.258 0.02 6.11 4.91 8.89
8/29/2023 7:30:00 AM 16.82 62.276 0.02 6.11 5.22 8.9
8/29/2023 7:45:00 AM 16.83 62.294 0.02 6.1 5.18 8.91
8/29/2023 8:00:00 AM 16.84 62.312 0.02 6.15 5.28 8.92
8/29/2023 8:15:00 AM 16.86 62.348 0.02 6.13 5.32 8.94
8/29/2023 8:30:00 AM 16.88 62.384 0.02 6.12 5.16 8.95
8/29/2023 8:45:00 AM 16.91 62.438 0.02 6.12 5.17 8.98
8/29/2023 9:00:00 AM 16.94 62.492 0.02 6.15 5.05 8.99
8/29/2023 9:15:00 AM 16.98 62.564 0.02 6.13 5.18 9.03
8/29/2023 9:30:00 AM 17.01 62.618 0.02 6.19 4.92 9.06
8/29/2023 9:45:00 AM 17.04 62.672 0.02 6.18 4.96 9.06
8/29/2023 10:00:00 AM 17.07 62.726 0.02 6.15 4.94 9.06
8/29/2023 10:15:00 AM 17.09 62.762 0.02 6.2 5.01 9.07
8/29/2023 10:30:00 AM 17.14 62.852 0.02 6.18 5.1 9.09
8/29/2023 10:45:00 AM 17.2 62.96 0.019 6.15 5.17 9.11
8/29/2023 11:00:00 AM 17.29 63.122 0.02 6.17 5.03 9.13
8/29/2023 11:15:00 AM 17.39 63.302 0.019 6.23 4.89 9.15
8/29/2023 11:30:00 AM 17.52 63.536 0.02 6.23 5.52 9.16
8/29/2023 11:45:00 AM 17.64 63.752 0.02 6.15 5.02 9.15
8/29/2023 12:00:00 PM 17.8 64.04 0.02 6.21 4.79 9.16
8/29/2023 12:15:00 PM 17.94 64.292 0.02 6.23 4.83 9.14
8/29/2023 12:30:00 PM 18.09 64.562 0.02 6.18 5.01 9.14
8/29/2023 12:45:00 PM 18.2 64.76 0.02 6.29 5.05 9.11
8/29/2023 1:00:00 PM 18.33 64.994 0.02 6.21 4.61 9.1
8/29/2023 1:15:00 PM 18.44 65.192 0.02 6.2 4.91 9.07
8/29/2023 1:30:00 PM 18.52 65.336 0.02 6.25 5.76 9.06
8/29/2023 1:45:00 PM 18.61 65.498 0.02 6.31 5.11 9.04
8/29/2023 2:00:00 PM 18.68 65.624 0.02 6.25 4.67 9.02
8/29/2023 2:15:00 PM 18.76 65.768 0.02 6.32 5.04 9.02
8/29/2023 2:30:00 PM 18.82 65.876 0.019 6.25 4.92 8.99
8/29/2023 2:45:00 PM 18.85 65.93 0.019 6.22 4.83 8.97
8/29/2023 3:00:00 PM 18.87 65.966 0.02 6.29 4.93 8.94
8/29/2023 3:15:00 PM 18.9 66.02 0.02 6.3 4.83 8.91
8/29/2023 3:30:00 PM 18.95 66.11 0.02 6.25 5.01 8.9
8/29/2023 3:45:00 PM 19.03 66.254 0.02 6.3 4.6 8.91
8/29/2023 4:00:00 PM 19.09 66.362 0.02 6.29 4.88 8.86
8/29/2023 4:15:00 PM 19.2 66.56 0.02 6.25 4.87 8.88
8/29/2023 4:30:00 PM 19.26 66.668 0.021 6.42 2.55 8.84
8/29/2023 4:45:00 PM 19.28 66.704 0.02 6.29 5.21 8.83
8/29/2023 5:00:00 PM 19.25 66.65 0.02 6.26 5.08 8.83
8/29/2023 5:15:00 PM 19.21 66.578 0.02 6.28 7.73 8.8
8/29/2023 5:30:00 PM 19.14 66.452 0.02 6.26 5.68 8.77
8/29/2023 5:45:00 PM 19.07 66.326 0.02 6.32 5.13 8.74
8/29/2023 6:00:00 PM 19.02 66.236 0.02 6.19 4.85 8.72
8/29/2023 6:15:00 PM 18.97 66.146 0.02 6.19 4.99 8.71
8/29/2023 6:30:00 PM 18.93 66.074 0.02 6.26 5.14 8.71
8/29/2023 6:45:00 PM 18.88 65.984 0.02 6.21 4.91 8.7
8/29/2023 7:00:00 PM 18.82 65.876 0.02 6.22 4.86 8.7
8/29/2023 7:15:00 PM 18.76 65.768 0.02 6.25 5.29 8.67
8/29/2023 7:30:00 PM 18.7 65.66 0.02 6.16 5.06 8.65
8/29/2023 7:45:00 PM 18.63 65.534 0.02 6.24 4.98 8.63
8/29/2023 8:00:00 PM 18.56 65.408 0.02 6.23 4.89 8.62
8/29/2023 8:15:00 PM 18.43 65.174 0.02 6.22 5.28 8.61
8/29/2023 8:30:00 PM 18.34 65.012 0.02 6.07 5.14 8.6
8/29/2023 8:45:00 PM 18.27 64.886 0.02 6.1 5.21 8.6
8/29/2023 9:00:00 PM 18.2 64.76 0.02 6.11 5.59 8.6
8/29/2023 9:15:00 PM 18.15 64.67 0.021 6.23 5.06 8.6
8/29/2023 9:30:00 PM 18.1 64.58 0.02 6.18 5.06 8.61
8/29/2023 9:45:00 PM 18.06 64.508 0.02 6.12 4.99 8.61
8/29/2023 10:00:00 PM 18.02 64.436 0.021 6.09 4.88 8.61
8/29/2023 10:15:00 PM 18 64.4 0.021 6.15 5.03 8.6
8/29/2023 10:30:00 PM 17.98 64.364 0.02 6.09 5.02 8.61
8/29/2023 10:45:00 PM 17.97 64.346 0.021 6.15 5.26 8.63
8/29/2023 11:00:00 PM 17.96 64.328 0.021 6.13 5.16 8.61
8/29/2023 11:15:00 PM 17.95 64.31 0.021 6.13 5.11 8.61
8/29/2023 11:30:00 PM 17.94 64.292 0.021 6.08 5.1 8.62
8/29/2023 11:45:00 PM 17.93 64.274 0.021 6.15 5.43 8.62
8/30/2023 12:00:00 AM 17.91 64.238 0.021 6.08 5.02 8.61
8/30/2023 12:15:00 AM 17.91 64.238 0.021 6.17 5.15 8.62
8/30/2023 12:30:00 AM 17.9 64.22 0.021 6.17 5.03 8.63
8/30/2023 12:45:00 AM 17.9 64.22 0.021 6.2 5.17 8.62
8/30/2023 1:00:00 AM 17.89 64.202 0.021 6.18 5.38 8.62
8/30/2023 1:15:00 AM 17.89 64.202 0.021 6.15 4.73 8.61
8/30/2023 1:30:00 AM 17.89 64.202 0.021 6.16 4.93 8.62
8/30/2023 1:45:00 AM 17.9 64.22 0.021 6.13 5.29 8.62
8/30/2023 2:00:00 AM 17.89 64.202 0.021 6.18 4.81 8.61
8/30/2023 2:15:00 AM 17.91 64.238 0.02 6.19 4.88 8.62
8/30/2023 2:30:00 AM 17.91 64.238 0.021 6.12 4.92 8.61
8/30/2023 2:45:00 AM 17.93 64.274 0.021 6.17 5.51 8.61
8/30/2023 3:00:00 AM 18.02 64.436 0.028 6.43 84.08 8.62
8/30/2023 3:15:00 AM 18.01 64.418 0.028 6.44 36.09 8.58
8/30/2023 3:30:00 AM 17.94 64.292 0.025 6.28 25.55 8.58
8/30/2023 3:45:00 AM 17.89 64.202 0.023 6.24 18.8 8.54
8/30/2023 4:00:00 AM 17.88 64.184 0.022 6.14 15.97 8.56
8/30/2023 4:15:00 AM 17.87 64.166 0.024 6.21 33.19 8.59
8/30/2023 4:30:00 AM 17.7 63.86 0.021 6.08 36.52 8.66
8/30/2023 4:45:00 AM 17.6 63.68 0.019 6.06 31.83 8.71
8/30/2023 5:00:00 AM 17.56 63.608 0.019 6 37.54 8.73
8/30/2023 5:15:00 AM 17.5 63.5 0.018 5.99 51.81 8.76
8/30/2023 5:30:00 AM 17.48 63.464 0.017 5.88 34.94 8.77
8/30/2023 5:45:00 AM 17.49 63.482 0.017 5.84 29.26 8.78
8/30/2023 6:00:00 AM 17.5 63.5 0.017 5.85 32.11 8.78
8/30/2023 6:15:00 AM 17.51 63.518 0.017 5.84 29.34 8.78
8/30/2023 6:30:00 AM 17.5 63.5 0.017 5.87 27.47 8.78
8/30/2023 6:45:00 AM 17.46 63.428 0.017 5.85 29.65 8.79
8/30/2023 7:00:00 AM 17.41 63.338 0.017 5.84 23.62 8.81
8/30/2023 7:15:00 AM 17.36 63.248 0.017 5.74 22.14 8.82
8/30/2023 7:30:00 AM 17.3 63.14 0.017 5.82 23.63 8.85
8/30/2023 7:45:00 AM 17.26 63.068 0.017 5.89 23.92 8.86
8/30/2023 8:00:00 AM 17.24 63.032 0.018 5.88 27.94 8.86
8/30/2023 8:15:00 AM 17.24 63.032 0.017 5.93 28.53 8.87
8/30/2023 8:30:00 AM 17.26 63.068 0.017 5.88 24.29 8.87
8/30/2023 8:45:00 AM 17.28 63.104 0.017 5.82 23.61 8.87
8/30/2023 9:00:00 AM 17.32 63.176 0.017 5.87 23.32 8.87
8/30/2023 9:15:00 AM 17.35 63.23 0.016 5.87 21.16 8.88
8/30/2023 9:30:00 AM 17.4 63.32 0.016 5.87 21.43 8.86
8/30/2023 9:45:00 AM 17.46 63.428 0.016 5.84 20.03 8.85
8/30/2023 10:00:00 AM 17.54 63.572 0.016 5.72 18.83 8.85
8/30/2023 10:15:00 AM 17.62 63.716 0.016 5.84 17.2 8.85
8/30/2023 10:30:00 AM 17.7 63.86 0.015 5.82 16.53 8.84
8/30/2023 10:45:00 AM 17.81 64.058 0.015 5.82 16.37 8.83
8/30/2023 11:00:00 AM 17.92 64.256 0.015 5.77 15.99 8.83
8/30/2023 11:15:00 AM 17.98 64.364 0.015 5.82 14.6 8.8
8/30/2023 11:30:00 AM 18.05 64.49 0.015 5.86 13.81 8.79
8/30/2023 11:45:00 AM 18.13 64.634 0.016 5.71 12.24 8.76
8/30/2023 12:00:00 PM 18.16 64.688 0.021 5.79 12.88 8.74
8/30/2023 12:15:00 PM 18.29 64.922 0.016 5.76 11.17 8.73
8/30/2023 12:30:00 PM 18.46 65.228 0.016 5.79 10.8 8.73
8/30/2023 12:45:00 PM 18.5 65.3 0.016 5.84 10.36 8.71
8/30/2023 1:00:00 PM 18.57 65.426 0.016 5.71 9.91 8.7
8/30/2023 1:15:00 PM 18.65 65.57 0.016 5.87 9.5 8.69
8/30/2023 1:30:00 PM 18.68 65.624 0.016 5.85 8.95 8.68
8/30/2023 1:45:00 PM 18.75 65.75 0.016 5.8 8.71 8.67
8/30/2023 2:00:00 PM 18.84 65.912 0.016 5.87 8.59 8.66
8/30/2023 2:15:00 PM 18.79 65.82201 0.016 5.75 8.16 8.64
8/30/2023 2:30:00 PM 18.88 65.984 0.016 5.82 7.77 8.65
8/30/2023 2:45:00 PM 18.91 66.038 0.016 5.88 7.39 8.64
8/30/2023 3:00:00 PM 18.94 66.092 0.016 5.73 7.42 8.64
8/30/2023 3:15:00 PM 18.94 66.092 0.016 5.76 7.31 8.62
8/30/2023 3:30:00 PM 18.98 66.164 0.016 5.9 7.36 8.62
8/30/2023 3:45:00 PM -99999.99 -179968 -99999.99 -99999.99 -99999.99 -99999.99
8/30/2023 4:00:00 PM 19.05 66.29 0.016 5.89 6.75 8.6
8/30/2023 4:15:00 PM 19.06 66.308 0.016 5.7 6.43 8.59
8/30/2023 4:30:00 PM 19.06 66.308 0.021 5.77 6.18 8.57
8/30/2023 4:45:00 PM 19.1 66.38 0.016 5.91 6.22 8.57
8/30/2023 5:00:00 PM 19.07 66.326 0.016 5.88 6.02 8.56
8/30/2023 5:15:00 PM 19.11 66.398 0.016 5.9 6.15 8.57
8/30/2023 5:30:00 PM 19.1 66.38 0.016 5.89 6.03 8.56
8/30/2023 5:45:00 PM 19.09 66.362 0.016 5.85 6.01 8.56
8/30/2023 6:00:00 PM 19.04 66.272 0.016 5.86 5.79 8.56
8/30/2023 6:15:00 PM 18.99 66.182 0.016 5.76 5.93 8.55
8/30/2023 6:30:00 PM 18.96 66.128 0.016 5.91 5.88 8.56
8/30/2023 6:45:00 PM 18.91 66.038 0.015 5.76 6.13 8.56
8/30/2023 7:00:00 PM 18.88 65.984 0.015 5.75 5.95 8.56
8/30/2023 7:15:00 PM 18.85 65.93 0.015 5.81 5.73 8.56
8/30/2023 7:30:00 PM 18.81 65.858 0.015 5.83 5.65 8.56
8/30/2023 7:45:00 PM 18.77 65.786 0.015 5.9 5.63 8.56
8/30/2023 8:00:00 PM 18.72 65.696 0.016 5.87 5.84 8.56
8/30/2023 8:15:00 PM 18.68 65.624 0.016 5.68 5.58 8.57
8/30/2023 8:30:00 PM 18.63 65.534 0.016 5.78 5.65 8.58
8/30/2023 8:45:00 PM 18.6 65.48 0.015 5.77 5.58 8.58
8/30/2023 9:00:00 PM 18.55 65.39 0.016 5.88 5.51 8.59
8/30/2023 9:15:00 PM 18.5 65.3 0.015 5.69 5.61 8.6
8/30/2023 9:30:00 PM 18.44 65.192 0.016 5.88 5.48 8.61
8/30/2023 9:45:00 PM 18.39 65.102 0.016 5.87 5.38 8.61
8/30/2023 10:00:00 PM 18.34 65.012 0.016 5.83 5.29 8.62
8/30/2023 10:15:00 PM 18.28 64.904 0.016 5.88 5.24 8.63
8/30/2023 10:30:00 PM 18.23 64.814 0.016 5.86 5.45 8.64
8/30/2023 10:45:00 PM 18.17 64.706 0.016 5.72 5.12 8.65
8/30/2023 11:00:00 PM 18.13 64.634 0.016 5.73 5 8.66
8/30/2023 11:15:00 PM 18.09 64.562 0.016 5.79 4.92 8.67
8/30/2023 11:30:00 PM 18.04 64.472 0.016 5.79 5.11 8.69
8/30/2023 11:45:00 PM 17.99 64.382 0.016 5.74 4.97 8.7
8/31/2023 12:00:00 AM 17.96 64.328 0.016 5.87 4.89 8.71
8/31/2023 12:15:00 AM 17.92 64.256 0.015 5.66 4.74 8.72
8/31/2023 12:30:00 AM 17.88 64.184 0.015 5.75 4.74 8.72
8/31/2023 12:45:00 AM 17.83 64.094 0.015 5.8 4.71 8.74
8/31/2023 1:00:00 AM 17.78 64.004 0.016 5.78 4.7 8.75
8/31/2023 1:15:00 AM 17.73 63.914 0.015 5.8 4.58 8.75
8/31/2023 1:30:00 AM 17.68 63.824 0.016 5.72 4.69 8.77
8/31/2023 1:45:00 AM 17.64 63.752 0.016 5.87 4.62 8.77
8/31/2023 2:00:00 AM 17.61 63.698 0.016 5.66 4.53 8.78
8/31/2023 2:15:00 AM 17.57 63.626 0.016 5.76 4.74 8.79
8/31/2023 2:30:00 AM 17.52 63.536 0.016 5.86 4.44 8.79
8/31/2023 2:45:00 AM 17.48 63.464 0.016 5.74 4.44 8.8
8/31/2023 3:00:00 AM 17.43 63.374 0.016 5.78 4.57 8.81
8/31/2023 3:15:00 AM 17.39 63.302 0.016 5.74 4.94 8.83
8/31/2023 3:30:00 AM 17.34 63.212 0.016 5.84 4.42 8.84
8/31/2023 3:45:00 AM 17.29 63.122 0.016 5.86 4.45 8.85
8/31/2023 4:00:00 AM 17.23 63.014 0.016 5.86 4.32 8.85
8/31/2023 4:15:00 AM 17.18 62.924 0.016 5.77 4.34 8.86
8/31/2023 4:30:00 AM 17.1 62.78 0.016 5.86 4.36 8.87
8/31/2023 4:45:00 AM 17.03 62.654 0.016 5.77 4.24 8.88
8/31/2023 5:00:00 AM 16.96 62.528 0.016 5.77 4.19 8.89
8/31/2023 5:15:00 AM 16.9 62.42 0.016 5.85 4.45 8.9
8/31/2023 5:30:00 AM 16.83 62.294 0.016 5.79 4.2 8.92
8/31/2023 5:45:00 AM 16.77 62.186 0.016 5.79 4.29 8.93
8/31/2023 6:00:00 AM 16.7 62.06 0.016 5.89 3.94 8.95
8/31/2023 6:15:00 AM 16.64 61.952 0.016 5.85 4.06 8.96
8/31/2023 6:30:00 AM 16.57 61.826 0.016 5.76 4.05 8.97
8/31/2023 6:45:00 AM 16.51 61.718 0.016 5.84 4.07 8.98
8/31/2023 7:00:00 AM 16.45 61.61 0.016 5.77 3.92 9
8/31/2023 7:15:00 AM 16.39 61.502 0.016 5.8 4.01 9.03
8/31/2023 7:30:00 AM 16.34 61.412 0.016 5.81 3.94 9.04
8/31/2023 7:45:00 AM 16.29 61.322 0.016 5.86 3.97 9.07
8/31/2023 8:00:00 AM 16.25 61.25 0.016 5.83 3.79 9.09
8/31/2023 8:15:00 AM 16.21 61.178 0.016 5.91 3.98 9.11
8/31/2023 8:30:00 AM 16.17 61.106 0.016 5.97 3.82 9.13
8/31/2023 8:45:00 AM 16.15 61.07 0.016 5.76 3.99 9.15
8/31/2023 9:00:00 AM 16.15 61.07 0.016 5.94 4.21 9.17
8/31/2023 9:15:00 AM 16.15 61.07 0.016 5.91 4.16 9.19
8/31/2023 9:30:00 AM 16.16 61.088 0.016 5.76 4.28 9.2
8/31/2023 9:45:00 AM 16.18 61.124 0.016 5.84 4.16 9.21
8/31/2023 10:00:00 AM 16.22 61.196 0.016 5.85 4.13 9.23
8/31/2023 10:15:00 AM 16.24 61.232 0.016 5.85 4.04 9.23
8/31/2023 10:30:00 AM 0 32 0 0 0 0
8/31/2023 10:45:00 AM 16.35 61.43 0.016 5.87 4.11 9.23
8/31/2023 11:00:00 AM 16.42 61.556 0.016 5.97 4.11 9.24
8/31/2023 11:15:00 AM 16.5 61.7 0.016 5.95 4.15 9.24
8/31/2023 11:30:00 AM 0 32 0 0 0 0
8/31/2023 11:45:00 AM 16.68 62.024 0.016 5.99 3.87 9.16
8/31/2023 12:00:00 PM 16.79 62.222 0.016 5.99 3.95 9.22
8/31/2023 12:15:00 PM 16.88 62.384 0.016 6.02 3.96 9.2
8/31/2023 12:30:00 PM 16.99 62.582 0.016 5.84 3.88 9.19
8/31/2023 12:45:00 PM 17.09 62.762 0.016 6.02 3.77 9.18
8/31/2023 1:00:00 PM 0 32 0 0 0 0
8/31/2023 1:15:00 PM 17.3 63.14 0.017 5.88 3.68 9.16
8/31/2023 1:30:00 PM 17.4 63.32 0.017 6.02 3.47 9.14
8/31/2023 1:45:00 PM 17.48 63.464 0.017 6.03 3.51 9.12
8/31/2023 2:00:00 PM 17.56 63.608 0.017 5.95 3.51 9.1
8/31/2023 2:15:00 PM 17.64 63.752 0.017 6.04 3.75 9.09
8/31/2023 2:30:00 PM 17.71 63.878 0.017 5.88 3.6 9.08
8/31/2023 2:45:00 PM 17.76 63.968 0.017 5.97 3.71 9.07
8/31/2023 3:00:00 PM 17.81 64.058 0.017 5.94 3.49 9.05
8/31/2023 3:15:00 PM 17.85 64.13 0.017 6.01 3.67 9.05
8/31/2023 3:30:00 PM 17.88 64.184 0.017 6 3.55 9.04
8/31/2023 3:45:00 PM 17.89 64.202 0.017 6.04 3.73 9.03
8/31/2023 4:00:00 PM 17.9 64.22 0.017 6 3.81 9.02
8/31/2023 4:15:00 PM 17.88 64.184 0.017 5.93 3.5 9.01
8/31/2023 4:30:00 PM 17.86 64.148 0.017 5.97 3.75 9
8/31/2023 4:45:00 PM 17.84 64.112 0.017 5.94 3.69 8.99
8/31/2023 5:00:00 PM 17.79 64.022 0.017 6.08 3.87 8.98
8/31/2023 5:15:00 PM 17.74 63.932 0.017 6.02 3.83 8.98
8/31/2023 5:30:00 PM 17.7 63.86 0.017 5.96 3.72 8.97
8/31/2023 5:45:00 PM 17.65 63.77 0.017 5.95 3.76 8.96
8/31/2023 6:00:00 PM 17.59 63.662 0.017 6.07 3.75 8.95
8/31/2023 6:15:00 PM 17.52 63.536 0.017 6.03 3.68 8.95
8/31/2023 6:30:00 PM 17.47 63.446 0.017 5.89 3.84 8.95
8/31/2023 6:45:00 PM 17.41 63.338 0.017 6.02 3.7 8.94
8/31/2023 7:00:00 PM 17.35 63.23 0.017 6 3.68 8.94
8/31/2023 7:15:00 PM 17.29 63.122 0.017 6.03 3.8 8.92
8/31/2023 7:30:00 PM 17.25 63.05 0.017 5.85 3.8 8.91
8/31/2023 7:45:00 PM 17.2 62.96 0.017 5.92 3.64 8.91
8/31/2023 8:00:00 PM 17.15 62.87 0.017 6.02 3.64 8.91
8/31/2023 8:15:00 PM 17.1 62.78 0.017 5.84 3.83 8.91
8/31/2023 8:30:00 PM 17.04 62.672 0.017 6 3.78 8.92
8/31/2023 8:45:00 PM 16.98 62.564 0.017 6 3.71 8.92
8/31/2023 9:00:00 PM 16.92 62.456 0.017 5.89 3.72 8.93
8/31/2023 9:15:00 PM 16.86 62.348 0.017 5.89 3.82 8.94
8/31/2023 9:30:00 PM 16.79 62.222 0.017 6.01 3.76 8.96
8/31/2023 9:45:00 PM 16.72 62.096 0.017 5.87 3.75 8.97
8/31/2023 10:00:00 PM 16.65 61.97 0.017 6.02 3.74 8.99
8/31/2023 10:15:00 PM 16.58 61.844 0.017 5.99 3.81 9
8/31/2023 10:30:00 PM 16.51 61.718 0.017 5.97 3.68 9.01
8/31/2023 10:45:00 PM 16.43 61.574 0.017 6.01 3.89 9.03
8/31/2023 11:00:00 PM 16.35 61.43 0.017 5.78 3.64 9.04
8/31/2023 11:15:00 PM 16.28 61.304 0.018 5.9 3.73 9.06
8/31/2023 11:30:00 PM 16.2 61.16 0.018 5.99 3.91 9.07
8/31/2023 11:45:00 PM 16.12 61.016 0.018 5.84 3.67 9.1
9/1/2023 12:00:00 AM 16.04 60.872 0.017 5.87 3.62 9.11
9/1/2023 12:15:00 AM 15.96 60.728 0.018 6.02 3.83 9.13
9/1/2023 12:30:00 AM 15.88 60.584 0.018 5.98 3.89 9.15
9/1/2023 12:45:00 AM 15.8 60.44 0.018 5.89 3.63 9.16
9/1/2023 1:00:00 AM 15.72 60.296 0.018 5.98 3.8 9.18
9/1/2023 1:15:00 AM 15.64 60.152 0.018 5.82 3.74 9.19
9/1/2023 1:30:00 AM 15.56 60.008 0.018 5.99 3.72 9.21
9/1/2023 1:45:00 AM 15.49 59.882 0.018 5.9 3.66 9.24
9/1/2023 2:00:00 AM -99999.99 -179968 -99999.99 -99999.99 -99999.99 -99999.99
9/1/2023 2:15:00 AM 15.33 59.594 0.018 6 3.52 9.27
9/1/2023 2:30:00 AM 15.25 59.45 0.018 5.98 3.66 9.29
9/1/2023 2:45:00 AM 15.18 59.324 0.018 5.97 3.78 9.3
9/1/2023 3:00:00 AM 15.1 59.18 0.018 5.99 3.77 9.32
9/1/2023 3:15:00 AM 15.03 59.054 0.018 5.76 3.66 9.33
9/1/2023 3:30:00 AM 14.96 58.928 0.018 5.83 4.16 9.34
9/1/2023 3:45:00 AM 14.89 58.802 0.018 5.96 3.57 9.37
9/1/2023 4:00:00 AM 14.82 58.676 0.018 5.98 3.81 9.38
9/1/2023 4:15:00 AM 14.75 58.55 0.018 5.98 3.6 9.4
9/1/2023 4:30:00 AM 14.68 58.424 0.018 5.97 3.73 9.41
9/1/2023 4:45:00 AM 14.61 58.298 0.018 5.96 3.52 9.44
9/1/2023 5:00:00 AM 14.54 58.172 0.018 5.95 3.52 9.44
9/1/2023 5:15:00 AM 14.47 58.046 0.018 5.81 3.46 9.46
9/1/2023 5:30:00 AM 14.41 57.938 0.018 5.98 3.6 9.47
9/1/2023 5:45:00 AM 14.34 57.812 0.018 5.96 3.63 9.48
9/1/2023 6:00:00 AM 14.28 57.704 0.018 5.98 3.61 9.5
9/1/2023 6:15:00 AM 14.22 57.596 0.018 5.92 3.58 9.51
9/1/2023 6:30:00 AM 14.15 57.47 0.018 5.79 3.41 9.54
9/1/2023 6:45:00 AM 14.09 57.362 0.018 6 3.58 9.56
9/1/2023 7:00:00 AM 14.03 57.254 0.018 5.96 3.59 9.57
9/1/2023 7:15:00 AM 13.97 57.146 0.018 5.94 3.38 9.6
9/1/2023 7:30:00 AM 13.93 57.074 0.018 5.78 3.37 9.62
9/1/2023 7:45:00 AM 13.89 57.002 0.018 5.98 3.47 9.65
9/1/2023 8:00:00 AM 13.86 56.948 0.018 6.01 3.37 9.67
9/1/2023 8:15:00 AM -99999.99 -179968 -99999.99 -99999.99 -99999.99 -99999.99
9/1/2023 8:30:00 AM 13.85 56.93 0.018 6 2.98 9.72
9/1/2023 8:45:00 AM 13.88 56.984 0.018 6.07 3.28 9.69
9/1/2023 9:00:00 AM 13.92 57.056 0.019 6 3.16 9.75
9/1/2023 9:15:00 AM 13.99 57.182 0.019 5.94 3.07 9.76
9/1/2023 9:30:00 AM 14.07 57.326 0.019 6.01 3.2 9.78
9/1/2023 9:45:00 AM 14.17 57.506 0.018 5.9 3.21 9.77
9/1/2023 10:00:00 AM 14.29 57.722 0.018 5.9 3.3 9.76
9/1/2023 10:15:00 AM 14.43 57.974 0.018 6.06 3.41 9.76
9/1/2023 10:30:00 AM 14.57 58.226 0.019 6.05 3.34 9.75
9/1/2023 10:45:00 AM 14.72 58.496 0.018 6.05 3.16 9.75
9/1/2023 11:00:00 AM 14.88 58.784 0.018 5.9 3.08 9.72
9/1/2023 11:15:00 AM 15.03 59.054 0.019 5.95 3.27 9.7
9/1/2023 11:30:00 AM 15.2 59.36 0.019 6.04 3.09 9.68
9/1/2023 11:45:00 AM 15.37 59.666 0.019 6.09 3.21 9.67
9/1/2023 12:00:00 PM 15.56 60.008 0.019 6.11 3.14 9.63
9/1/2023 12:15:00 PM 15.75 60.35 0.018 5.89 3.11 9.61
9/1/2023 12:30:00 PM 15.93 60.674 0.019 6.13 3.16 9.58
9/1/2023 12:45:00 PM 16.12 61.016 0.019 6.04 3.32 9.56
9/1/2023 1:00:00 PM 16.31 61.358 0.019 6.04 3.14 9.51
9/1/2023 1:15:00 PM 16.48 61.664 0.019 6.14 3.17 9.48
9/1/2023 1:30:00 PM 16.66 61.988 0.018 6.09 3.22 9.46
9/1/2023 1:45:00 PM 16.81 62.258 0.018 6.12 3.01 9.43
9/1/2023 2:00:00 PM 16.95 62.51 0.019 6.13 3 9.4
9/1/2023 2:15:00 PM 17.08 62.744 0.019 6.18 3.35 9.37
9/1/2023 2:30:00 PM 17.19 62.942 0.019 6.18 3.19 9.35
9/1/2023 2:45:00 PM 17.29 63.122 0.019 6.14 3.18 9.33
9/1/2023 3:00:00 PM 17.38 63.284 0.018 6.18 2.91 9.31
9/1/2023 3:15:00 PM 17.46 63.428 0.019 6.1 3.16 9.28
9/1/2023 3:30:00 PM 17.52 63.536 0.018 6.1 2.86 9.26
9/1/2023 3:45:00 PM 17.56 63.608 0.019 6.2 3.04 9.24
9/1/2023 4:00:00 PM 17.59 63.662 0.019 6.17 2.92 9.22
9/1/2023 4:15:00 PM 17.6 63.68 0.019 6.21 3.01 9.2
9/1/2023 4:30:00 PM 17.6 63.68 0.019 5.98 3.05 9.19
9/1/2023 4:45:00 PM 17.59 63.662 0.019 6.19 2.88 9.18
9/1/2023 5:00:00 PM 17.56 63.608 0.019 6.03 3.14 9.16
9/1/2023 5:15:00 PM 17.53 63.554 0.019 6.22 3.17 9.17
9/1/2023 5:30:00 PM 17.48 63.464 0.019 6.13 3.03 9.16
9/1/2023 5:45:00 PM 17.42 63.356 0.019 6.06 2.98 9.15
9/1/2023 6:00:00 PM 17.35 63.23 0.019 6.2 2.93 9.14
9/1/2023 6:15:00 PM 17.29 63.122 0.019 6.16 2.91 9.13
9/1/2023 6:30:00 PM 17.22 62.996 0.019 6.18 3.04 9.12
9/1/2023 6:45:00 PM 17.16 62.888 0.019 6.07 3.08 9.1
9/1/2023 7:00:00 PM 17.09 62.762 0.019 6.03 2.94 9.09
9/1/2023 7:15:00 PM 17.02 62.636 0.019 6.06 2.96 9.06
9/1/2023 7:30:00 PM 16.96 62.528 0.02 6.05 2.95 9.04
9/1/2023 7:45:00 PM 16.9 62.42 0.02 6.16 2.9 9.01
9/1/2023 8:00:00 PM 16.86 62.348 0.02 5.96 2.95 9.01
9/1/2023 8:15:00 PM 16.8 62.24 0.02 6.16 2.9 9
9/1/2023 8:30:00 PM 16.76 62.168 0.02 6.02 2.88 9
9/1/2023 8:45:00 PM 16.71 62.078 0.02 5.99 3.03 9.01
9/1/2023 9:00:00 PM 16.67 62.006 0.02 6.14 2.87 9.01
9/1/2023 9:15:00 PM 16.62 61.916 0.02 6 2.94 9
9/1/2023 9:30:00 PM 16.57 61.826 0.02 6.09 2.89 9.01
9/1/2023 9:45:00 PM 16.52 61.736 0.02 6.06 2.87 9.03
9/1/2023 10:00:00 PM 16.46 61.628 0.02 6.03 2.84 9.03
9/1/2023 10:15:00 PM 16.41 61.538 0.02 5.97 2.99 9.04
9/1/2023 10:30:00 PM 16.35 61.43 0.02 6.13 2.94 9.05
9/1/2023 10:45:00 PM 16.3 61.34 0.02 5.9 2.78 9.05
9/1/2023 11:00:00 PM 16.24 61.232 0.02 6.11 2.99 9.06
9/1/2023 11:15:00 PM 16.18 61.124 0.02 6.09 3.07 9.07
9/1/2023 11:30:00 PM 16.12 61.016 0.02 5.93 2.87 9.09
9/1/2023 11:45:00 PM 16.06 60.908 0.02 6.06 2.91 9.1
9/2/2023 12:00:00 AM 16 60.8 0.02 6.11 3.15 9.11
9/2/2023 12:15:00 AM 15.93 60.674 0.02 6.1 2.9 9.13
9/2/2023 12:30:00 AM 15.86 60.548 0.02 6.09 2.83 9.14
9/2/2023 12:45:00 AM 15.78 60.404 0.02 6.11 2.88 9.15
9/2/2023 1:00:00 AM 15.71 60.278 0.02 5.99 3.12 9.16
9/2/2023 1:15:00 AM 15.63 60.134 0.02 6.11 3.09 9.17
9/2/2023 1:30:00 AM 15.55 59.99 0.02 5.9 2.9 9.19
9/2/2023 1:45:00 AM 15.47 59.846 0.02 6.08 3.09 9.21
9/2/2023 2:00:00 AM 15.4 59.72 0.02 6.07 2.93 9.24
9/2/2023 2:15:00 AM 15.31 59.558 0.02 6.07 3.01 9.25
9/2/2023 2:30:00 AM 15.24 59.432 0.02 6.08 2.88 9.27
9/2/2023 2:45:00 AM 15.17 59.306 0.02 6.03 3.26 9.27
9/2/2023 3:00:00 AM 15.08 59.144 0.02 6.1 3 9.29
9/2/2023 3:15:00 AM 15 59 0.02 6.06 2.97 9.31
9/2/2023 3:30:00 AM 14.93 58.874 0.02 6.07 2.91 9.31
9/2/2023 3:45:00 AM 14.85 58.73 0.02 5.93 3.01 9.33
9/2/2023 4:00:00 AM 14.78 58.604 0.021 6.09 2.85 9.36
9/2/2023 4:15:00 AM 14.7 58.46 0.02 5.95 3.08 9.38
9/2/2023 4:30:00 AM 14.63 58.334 0.02 5.98 2.91 9.39
9/2/2023 4:45:00 AM 14.56 58.208 0.021 6.07 3.34 9.4
9/2/2023 5:00:00 AM 14.49 58.082 0.021 6.06 3.22 9.41
9/2/2023 5:15:00 AM 14.41 57.938 0.02 6.07 3.17 9.43
9/2/2023 5:30:00 AM 14.34 57.812 0.02 6 2.98 9.45
9/2/2023 5:45:00 AM 14.27 57.686 0.021 6.09 2.97 9.46
9/2/2023 6:00:00 AM 14.21 57.578 0.02 5.91 3.07 9.48
9/2/2023 6:15:00 AM 14.14 57.452 0.02 6.03 2.89 9.5
9/2/2023 6:30:00 AM 14.08 57.344 0.02 6.06 3.19 9.51
9/2/2023 6:45:00 AM 14.01 57.218 0.02 6.08 2.88 9.53
9/2/2023 7:00:00 AM 13.94 57.092 0.021 6.07 3.04 9.56
9/2/2023 7:15:00 AM 13.89 57.002 0.02 5.9 3.1 9.58
9/2/2023 7:30:00 AM 13.84 56.912 0.02 6.11 2.93 9.61
9/2/2023 7:45:00 AM 13.81 56.858 0.021 6.07 3.11 9.63
9/2/2023 8:00:00 AM 13.79 56.822 0.02 6.07 2.9 9.67
9/2/2023 8:15:00 AM 13.78 56.804 0.021 6.04 3.08 9.67
9/2/2023 8:30:00 AM 13.79 56.822 0.021 6.08 3.3 9.71
9/2/2023 8:45:00 AM 13.83 56.894 0.021 5.99 3.17 9.74
9/2/2023 9:00:00 AM 13.89 57.002 0.021 6.09 3.12 9.76
9/2/2023 9:15:00 AM 13.98 57.164 0.021 5.95 2.84 9.76
9/2/2023 9:30:00 AM 14.08 57.344 0.021 6 3.24 9.78
9/2/2023 9:45:00 AM 14.21 57.578 0.021 6.14 3.13 9.79
9/2/2023 10:00:00 AM 14.35 57.83 0.02 6 2.99 9.79
9/2/2023 10:15:00 AM 14.47 58.046 0.021 6.16 2.94 9.78
9/2/2023 10:30:00 AM 14.61 58.298 0.021 6.1 3.09 9.78
9/2/2023 10:45:00 AM 14.78 58.604 0.021 6 3.02 9.75
9/2/2023 11:00:00 AM 14.99 58.982 0.02 6.16 2.82 9.73
9/2/2023 11:15:00 AM 15.19 59.342 0.02 6.17 3 9.71
9/2/2023 11:30:00 AM 15.37 59.666 0.021 6.18 2.97 9.68
9/2/2023 11:45:00 AM 15.56 60.008 0.021 6.19 2.77 9.65
9/2/2023 12:00:00 PM 15.72 60.296 0.021 6.19 2.71 9.62
9/2/2023 12:15:00 PM 15.94 60.692 0.02 6.15 3 9.6
9/2/2023 12:30:00 PM 16.16 61.088 0.02 6.22 2.89 9.57
9/2/2023 12:45:00 PM 16.38 61.484 0.021 6.05 2.97 9.52
9/2/2023 1:00:00 PM 16.59 61.862 0.021 6.2 2.8 9.49
9/2/2023 1:15:00 PM 16.79 62.222 0.021 6.24 2.87 9.45
9/2/2023 1:30:00 PM 16.98 62.564 0.02 6.21 2.7 9.42
9/2/2023 1:45:00 PM 17.13 62.834 0.021 6.17 3.13 9.39
9/2/2023 2:00:00 PM 17.27 63.086 0.021 6.14 2.81 9.36
9/2/2023 2:15:00 PM 17.4 63.32 0.021 6.26 2.88 9.32
9/2/2023 2:30:00 PM 17.56 63.608 0.021 6.13 3.02 9.28
9/2/2023 2:45:00 PM 17.69 63.842 0.021 6.27 2.79 9.25
9/2/2023 3:00:00 PM 17.81 64.058 0.021 6.22 2.96 9.22
9/2/2023 3:15:00 PM 17.92 64.256 0.021 6.29 2.99 9.19
9/2/2023 3:30:00 PM 18.02 64.436 0.021 6.28 2.73 9.17
9/2/2023 3:45:00 PM 18.09 64.562 0.021 6.29 2.85 9.14
9/2/2023 4:00:00 PM 18.13 64.634 0.021 6.21 2.81 9.11
9/2/2023 4:15:00 PM 18.14 64.652 0.021 6.3 3 9.09
9/2/2023 4:30:00 PM 18.13 64.634 0.021 6.29 3.12 9.1
9/2/2023 4:45:00 PM 18.1 64.58 0.021 6.1 2.78 9.08
9/2/2023 5:00:00 PM 18.06 64.508 0.02 6.31 2.89 9.09
9/2/2023 5:15:00 PM 18 64.4 0.021 6.11 2.82 9.07
9/2/2023 5:30:00 PM 17.95 64.31 0.021 6.3 2.88 9.08
9/2/2023 5:45:00 PM 17.86 64.148 0.021 6.29 2.9 9.07
9/2/2023 6:00:00 PM 17.79 64.022 0.021 6.07 2.98 9.07
9/2/2023 6:15:00 PM 17.73 63.914 0.021 6.3 2.84 9.07
9/2/2023 6:30:00 PM 17.65 63.77 0.021 6.27 2.86 9.04
9/2/2023 6:45:00 PM 17.56 63.608 0.021 6.26 3.06 9.02
9/2/2023 7:00:00 PM 17.47 63.446 0.021 6.26 3.03 8.98
9/2/2023 7:15:00 PM 17.39 63.302 0.021 6.11 3.03 8.96
9/2/2023 7:30:00 PM 17.32 63.176 0.022 6.21 3.06 8.92
9/2/2023 7:45:00 PM 17.28 63.104 0.021 6.13 2.89 8.91
9/2/2023 8:00:00 PM 17.23 63.014 0.021 6.24 2.99 8.89
9/2/2023 8:15:00 PM 17.18 62.924 0.022 6.15 3.06 8.86
9/2/2023 8:30:00 PM 17.15 62.87 0.021 6.21 3.06 8.86
9/2/2023 8:45:00 PM 17.12 62.816 0.021 6.12 3.04 8.86
9/2/2023 9:00:00 PM 17.1 62.78 0.021 6.02 3.07 8.87
9/2/2023 9:15:00 PM 17.08 62.744 0.022 6.15 3.3 8.87
9/2/2023 9:30:00 PM 17.06 62.708 0.021 6.1 3.09 8.86
9/2/2023 9:45:00 PM 17.04 62.672 0.021 6.17 3.13 8.86
9/2/2023 10:00:00 PM 17.02 62.636 0.021 5.99 3.02 8.86
9/2/2023 10:15:00 PM 16.99 62.582 0.022 6.14 3.1 8.86
9/2/2023 10:30:00 PM 16.97 62.546 0.022 6.1 2.96 8.86
9/2/2023 10:45:00 PM 16.95 62.51 0.022 6.03 2.99 8.87
9/2/2023 11:00:00 PM 16.92 62.456 0.022 6.06 3.1 8.86
9/2/2023 11:15:00 PM 16.9 62.42 0.022 6.04 3.07 8.86
9/2/2023 11:30:00 PM 16.88 62.384 0.022 6.14 2.98 8.87
9/2/2023 11:45:00 PM 16.85 62.33 0.022 6.03 2.96 8.87
9/3/2023 12:00:00 AM 16.82 62.276 0.022 6.15 3.05 8.87
9/3/2023 12:15:00 AM 16.8 62.24 0.022 6.15 3.09 8.88
9/3/2023 12:30:00 AM 16.77 62.186 0.022 6.08 3.13 8.89
9/3/2023 12:45:00 AM 16.74 62.132 0.022 6.16 3.08 8.89
9/3/2023 1:00:00 AM 16.71 62.078 0.022 5.93 3.06 8.89
9/3/2023 1:15:00 AM 16.68 62.024 0.022 6.18 2.97 8.9
9/3/2023 1:30:00 AM 16.65 61.97 0.022 5.95 3.09 8.92
9/3/2023 1:45:00 AM 16.61 61.898 0.022 6.17 3.1 8.92
9/3/2023 2:00:00 AM 16.58 61.844 0.022 6 3.04 8.92
9/3/2023 2:15:00 AM 16.54 61.772 0.022 6.16 2.97 8.92
9/3/2023 2:30:00 AM 16.52 61.736 0.022 6.14 3.04 8.93
9/3/2023 2:45:00 AM 16.48 61.664 0.022 6.12 3.09 8.94
9/3/2023 3:00:00 AM 16.45 61.61 0.022 6.12 3.1 8.94
9/3/2023 3:15:00 AM 16.42 61.556 0.022 6.05 2.98 8.95
9/3/2023 3:30:00 AM 16.39 61.502 0.022 6.17 3.02 8.96
9/3/2023 3:45:00 AM 16.35 61.43 0.022 6.03 3.01 8.96
9/3/2023 4:00:00 AM 16.31 61.358 0.022 6.08 3.07 8.96
9/3/2023 4:15:00 AM 16.28 61.304 0.022 6.15 3.13 8.97
9/3/2023 4:30:00 AM 16.25 61.25 0.022 6.14 3.16 8.97
9/3/2023 4:45:00 AM 16.21 61.178 0.022 5.96 3.12 8.98
9/3/2023 5:00:00 AM 16.18 61.124 0.022 6.17 3.01 8.99
9/3/2023 5:15:00 AM 16.13 61.034 0.022 5.97 3.11 9.01
9/3/2023 5:30:00 AM 16.08 60.944 0.022 6.15 3.05 9.01
9/3/2023 5:45:00 AM 16.04 60.872 0.022 6.07 3.14 9.03
9/3/2023 6:00:00 AM 15.99 60.782 0.022 6.14 3.11 9.04
9/3/2023 6:15:00 AM 15.93 60.674 0.022 6.1 3.22 9.04
9/3/2023 6:30:00 AM 15.88 60.584 0.022 6.02 3.17 9.07
9/3/2023 6:45:00 AM 15.82 60.476 0.022 6.02 3.15 9.06
9/3/2023 7:00:00 AM 15.78 60.404 0.022 6.14 3.16 9.08
9/3/2023 7:15:00 AM 15.73 60.314 0.022 6.11 3.14 9.1
9/3/2023 7:30:00 AM 15.7 60.26 0.022 6 3.28 9.14
9/3/2023 7:45:00 AM 15.67 60.206 0.022 6.07 3.14 9.17
9/3/2023 8:00:00 AM 15.65 60.17 0.022 6.05 3.17 9.2
9/3/2023 8:15:00 AM 15.64 60.152 0.022 6.16 3.13 9.23
9/3/2023 8:30:00 AM 15.66 60.188 0.022 5.98 3.05 9.26
9/3/2023 8:45:00 AM 15.7 60.26 0.022 6.19 3.19 9.3
9/3/2023 9:00:00 AM 15.75 60.35 0.022 6 3.09 9.32
9/3/2023 9:15:00 AM 15.83 60.494 0.022 6.21 3.14 9.35
9/3/2023 9:30:00 AM 15.93 60.674 0.022 6.08 3.28 9.35
9/3/2023 9:45:00 AM 16.04 60.872 0.022 6.12 3.26 9.37
9/3/2023 10:00:00 AM 16.16 61.088 0.023 6.12 2.97 9.35
9/3/2023 10:15:00 AM 16.32 61.376 0.022 6.11 3.11 9.36
9/3/2023 10:30:00 AM 16.5 61.7 0.022 6.21 3.16 9.35
9/3/2023 10:45:00 AM 16.69 62.042 0.022 6.27 3.25 9.36
9/3/2023 11:00:00 AM 16.88 62.384 0.022 6.13 3.22 9.33
9/3/2023 11:15:00 AM 17.06 62.708 0.022 6.19 3.29 9.31
9/3/2023 11:30:00 AM 17.26 63.068 0.022 6.14 3.16 9.28
9/3/2023 11:45:00 AM 17.47 63.446 0.022 6.18 3.23 9.26
9/3/2023 12:00:00 PM 17.69 63.842 0.022 6.28 3.24 9.24
9/3/2023 12:15:00 PM 17.89 64.202 0.023 6.14 3.13 9.2
9/3/2023 12:30:00 PM 18.12 64.616 0.022 6.3 3.07 9.18
9/3/2023 12:45:00 PM 18.32 64.976 0.022 6.17 3.11 9.12
9/3/2023 1:00:00 PM 18.54 65.372 0.022 6.21 3.11 9.11
9/3/2023 1:15:00 PM 18.75 65.75 0.023 6.29 3.06 9.06
9/3/2023 1:30:00 PM 18.99 66.182 0.022 6.34 3.1 9.03
9/3/2023 1:45:00 PM 19.19 66.542 0.022 6.15 3.03 9
9/3/2023 2:00:00 PM 19.4 66.92 0.022 6.33 2.9 8.96
9/3/2023 2:15:00 PM 19.58 67.244 0.023 6.35 2.89 8.92
9/3/2023 2:30:00 PM 19.72 67.496 0.022 6.36 2.93 8.88
9/3/2023 2:45:00 PM 19.86 67.748 0.022 6.18 2.85 8.85
9/3/2023 3:00:00 PM 19.91 67.838 0.022 6.38 2.89 8.83
9/3/2023 3:15:00 PM 19.92 67.856 0.022 6.14 2.77 8.78
9/3/2023 3:30:00 PM 19.99 67.982 0.022 6.36 2.69 8.76
9/3/2023 3:45:00 PM 20.06 68.108 0.023 6.13 2.8 8.74
9/3/2023 4:00:00 PM 20.14 68.252 0.022 6.36 2.74 8.71
9/3/2023 4:15:00 PM 20.24 68.432 0.022 6.14 2.61 8.72
9/3/2023 4:30:00 PM 20.27 68.486 0.022 6.36 2.78 8.69
9/3/2023 4:45:00 PM 20.27 68.486 0.022 6.23 2.62 8.68
9/3/2023 5:00:00 PM 20.26 68.468 0.022 6.23 2.62 8.68
9/3/2023 5:15:00 PM 20.2 68.36 0.022 6.36 2.83 8.66
9/3/2023 5:30:00 PM 20.13 68.234 0.022 6.16 2.8 8.65
9/3/2023 5:45:00 PM 20.01 68.018 0.023 6.28 2.75 8.63
9/3/2023 6:00:00 PM 19.9 67.82 0.023 6.21 2.88 8.63
9/3/2023 6:15:00 PM 19.81 67.658 0.023 6.34 2.88 8.63
9/3/2023 6:30:00 PM 19.74 67.532 0.023 6.17 2.85 8.63
9/3/2023 6:45:00 PM 19.66 67.388 0.022 6.21 2.67 8.63
9/3/2023 7:00:00 PM 19.54 67.172 0.023 6.33 3.1 8.59
9/3/2023 7:15:00 PM 19.41 66.938 0.023 6.09 2.67 8.55
9/3/2023 7:30:00 PM 19.27 66.686 0.023 6.27 2.91 8.53
9/3/2023 7:45:00 PM 19.15 66.47 0.023 6.24 2.97 8.5
9/3/2023 8:00:00 PM 19.03 66.254 0.023 6.25 3 8.5
9/3/2023 8:15:00 PM 18.93 66.074 0.023 6.1 2.81 8.48
9/3/2023 8:30:00 PM 18.84 65.912 0.023 6.26 2.69 8.47
9/3/2023 8:45:00 PM 18.74 65.732 0.023 6.2 2.84 8.47
9/3/2023 9:00:00 PM 18.66 65.588 0.023 6.15 2.98 8.48
9/3/2023 9:15:00 PM 18.58 65.444 0.023 6.18 3.04 8.49
9/3/2023 9:30:00 PM 18.51 65.318 0.023 6.18 2.92 8.51
9/3/2023 9:45:00 PM 18.44 65.192 0.023 6.23 3.04 8.52
9/3/2023 10:00:00 PM 18.37 65.066 0.023 6.1 3.06 8.52
9/3/2023 10:15:00 PM 18.31 64.958 0.023 6.21 2.91 8.53
9/3/2023 10:30:00 PM 18.25 64.85 0.023 6.03 3.1 8.54
9/3/2023 10:45:00 PM 18.2 64.76 0.023 6.08 3.06 8.55
9/3/2023 11:00:00 PM 18.14 64.652 0.023 6.19 3.05 8.54
9/3/2023 11:15:00 PM 18.1 64.58 0.023 6.14 3.04 8.56
9/3/2023 11:30:00 PM 18.06 64.508 0.023 6.19 3.05 8.58
9/3/2023 11:45:00 PM 18.04 64.472 0.023 6.13 3.02 8.59
9/4/2023 12:00:00 AM 17.99 64.382 0.024 6.06 3 8.59
9/4/2023 12:15:00 AM 17.97 64.346 0.023 6.09 3.08 8.6
9/4/2023 12:30:00 AM 17.94 64.292 0.023 6.19 2.97 8.6
9/4/2023 12:45:00 AM 17.91 64.238 0.024 6.13 3.14 8.61
9/4/2023 1:00:00 AM 17.89 64.202 0.024 6.07 3 8.61
9/4/2023 1:15:00 AM 17.87 64.166 0.024 6.07 3.06 8.62
9/4/2023 1:30:00 AM 17.84 64.112 0.023 6.11 3.07 8.63
9/4/2023 1:45:00 AM 17.81 64.058 0.023 6.18 3.03 8.63
9/4/2023 2:00:00 AM 17.78 64.004 0.023 6.04 2.94 8.64
9/4/2023 2:15:00 AM 17.76 63.968 0.023 6.2 2.84 8.64
9/4/2023 2:30:00 AM 17.75 63.95 0.023 6.08 2.99 8.65
9/4/2023 2:45:00 AM 17.74 63.932 0.023 6.18 2.95 8.63
9/4/2023 3:00:00 AM 17.72 63.896 0.024 6.18 3.08 8.64
9/4/2023 3:15:00 AM 17.7 63.86 0.023 6.17 3.04 8.64
9/4/2023 3:30:00 AM 17.68 63.824 0.023 6.14 3.17 8.65
9/4/2023 3:45:00 AM 17.66 63.788 0.023 6.17 2.79 8.65
9/4/2023 4:00:00 AM 17.63 63.734 0.023 6.16 3.14 8.66
9/4/2023 4:15:00 AM 17.6 63.68 0.023 6.04 2.95 8.66
9/4/2023 4:30:00 AM 17.58 63.644 0.023 6.04 2.88 8.66
9/4/2023 4:45:00 AM 17.56 63.608 0.024 6.17 2.98 8.66
9/4/2023 5:00:00 AM 17.55 63.59 0.023 6.1 2.91 8.68
9/4/2023 5:15:00 AM 17.52 63.536 0.023 6.17 3.14 8.67
9/4/2023 5:30:00 AM 17.5 63.5 0.023 6.04 2.96 8.67
9/4/2023 5:45:00 AM 17.48 63.464 0.024 6.16 2.89 8.68
9/4/2023 6:00:00 AM 17.47 63.446 0.023 6.19 3.07 8.7
9/4/2023 6:15:00 AM 17.45 63.41 0.023 6.16 3.09 8.7
9/4/2023 6:30:00 AM 17.42 63.356 0.023 5.98 3.19 8.71
9/4/2023 6:45:00 AM 17.4 63.32 0.023 6.06 3.19 8.71
9/4/2023 7:00:00 AM 17.38 63.284 0.023 6.15 3.04 8.73
9/4/2023 7:15:00 AM 17.36 63.248 0.023 6.18 3.03 8.75
9/4/2023 7:30:00 AM 17.36 63.248 0.024 5.97 3.08 8.79
9/4/2023 7:45:00 AM 17.35 63.23 0.024 6.19 3.11 8.82
9/4/2023 8:00:00 AM 17.36 63.248 0.023 6.21 3.12 8.88
9/4/2023 8:15:00 AM 17.36 63.248 0.024 6.2 2.96 8.9
9/4/2023 8:30:00 AM 17.39 63.302 0.024 6.17 3.22 8.93
9/4/2023 8:45:00 AM 17.43 63.374 0.023 6.23 3.03 8.97
9/4/2023 9:00:00 AM 17.46 63.428 0.024 6.19 3.12 8.98
9/4/2023 9:15:00 AM 17.52 63.536 0.024 6.21 3.06 9.01
9/4/2023 9:30:00 AM 17.58 63.644 0.024 6.24 3 9.01
9/4/2023 9:45:00 AM 17.66 63.788 0.024 6.25 2.8 9.03
9/4/2023 10:00:00 AM 17.8 64.04 0.023 6.06 3.05 9.05
9/4/2023 10:15:00 AM 17.95 64.31 0.024 6.28 2.98 9.05
9/4/2023 10:30:00 AM 18.14 64.652 0.023 6.19 3.02 9.04
9/4/2023 10:45:00 AM 18.35 65.03 0.024 6.33 3 9.04
9/4/2023 11:00:00 AM 18.55 65.39 0.024 6.22 3 9.04
9/4/2023 11:15:00 AM 18.76 65.768 0.023 6.18 3.03 9.01
9/4/2023 11:30:00 AM 18.97 66.146 0.023 6.34 2.97 8.99
9/4/2023 11:45:00 AM 19.17 66.506 0.024 6.35 2.82 8.98
9/4/2023 12:00:00 PM 19.41 66.938 0.023 6.37 3.16 8.96
9/4/2023 12:15:00 PM 19.64 67.352 0.023 6.22 3.11 8.93
9/4/2023 12:30:00 PM 19.84 67.712 0.024 6.38 2.85 8.91
9/4/2023 12:45:00 PM 20.03 68.054 0.024 6.15 2.98 8.87
9/4/2023 1:00:00 PM 20.26 68.468 0.024 6.35 2.96 8.82
9/4/2023 1:15:00 PM 20.45 68.81 0.024 6.24 2.98 8.8
9/4/2023 1:30:00 PM 20.66 69.188 0.023 6.39 2.91 8.78
9/4/2023 1:45:00 PM 20.83 69.494 0.024 6.21 2.92 8.73
9/4/2023 2:00:00 PM 21.03 69.854 0.024 6.38 3 8.71
9/4/2023 2:15:00 PM 21.19 70.142 0.024 6.38 3.03 8.67
9/4/2023 2:30:00 PM 21.36 70.448 0.024 6.29 2.86 8.65
9/4/2023 2:45:00 PM 21.55 70.79 0.023 6.41 2.89 8.6
9/4/2023 3:00:00 PM 21.69 71.042 0.024 6.25 2.86 8.58
9/4/2023 3:15:00 PM 21.84 71.312 0.023 6.46 2.9 8.54
9/4/2023 3:30:00 PM 21.95 71.51 0.024 6.23 2.98 8.52
9/4/2023 3:45:00 PM 22.05 71.69 0.024 6.46 2.78 8.49
9/4/2023 4:00:00 PM 22.12 71.816 0.024 6.23 3.02 8.47
9/4/2023 4:15:00 PM 22.17 71.906 0.024 6.33 2.81 8.43
9/4/2023 4:30:00 PM 22.24 72.032 0.023 6.47 2.76 8.44
9/4/2023 4:45:00 PM 22.19 71.942 0.024 6.44 3.03 8.4
9/4/2023 5:00:00 PM 22.2 71.96 0.024 6.44 2.76 8.4
9/4/2023 5:15:00 PM 22.14 71.852 0.024 6.29 2.78 8.38
9/4/2023 5:30:00 PM 22.08 71.744 0.024 6.37 2.82 8.38
9/4/2023 5:45:00 PM 22.01 71.618 0.024 6.45 2.93 8.37
9/4/2023 6:00:00 PM 21.89 71.402 0.023 6.45 2.87 8.36
9/4/2023 6:15:00 PM 21.78 71.204 0.023 6.45 2.99 8.37
9/4/2023 6:30:00 PM 21.63 70.934 0.024 6.35 2.93 8.31
9/4/2023 6:45:00 PM 21.51 70.718 0.024 6.4 2.8 8.3
9/4/2023 7:00:00 PM 21.37 70.466 0.024 6.19 2.9 8.28
9/4/2023 7:15:00 PM 21.22 70.196 0.024 6.39 2.83 8.25
9/4/2023 7:30:00 PM 21.09 69.962 0.024 6.36 2.86 8.22
9/4/2023 7:45:00 PM 20.95 69.71 0.024 6.27 2.94 8.18
9/4/2023 8:00:00 PM 20.82 69.476 0.024 6.2 3.17 8.15
9/4/2023 8:15:00 PM 20.71 69.278 0.024 6.17 2.94 8.13
9/4/2023 8:30:00 PM 20.6 69.08 0.025 6.19 2.9 8.14
9/4/2023 8:45:00 PM 20.51 68.918 0.024 6.18 2.93 8.14
9/4/2023 9:00:00 PM 20.41 68.738 0.025 6.21 3 8.13
9/4/2023 9:15:00 PM 20.32 68.576 0.025 6.21 3.41 8.15
9/4/2023 9:30:00 PM 20.23 68.414 0.024 6.27 2.99 8.16
9/4/2023 9:45:00 PM 20.15 68.27 0.025 6.28 2.96 8.17
9/4/2023 10:00:00 PM 20.07 68.126 0.025 6.05 3.1 8.18
9/4/2023 10:15:00 PM 19.98 67.964 0.026 6.16 2.94 8.2
9/4/2023 10:30:00 PM 19.91 67.838 0.025 6.18 2.96 8.21
9/4/2023 10:45:00 PM 19.84 67.712 0.025 6.19 2.92 8.22
9/4/2023 11:00:00 PM 19.76 67.568 0.025 6.12 3.02 8.23
9/4/2023 11:15:00 PM 19.69 67.442 0.025 6.11 3.07 8.25
9/4/2023 11:30:00 PM 19.61 67.298 0.026 6.24 3.1 8.26
9/4/2023 11:45:00 PM 19.54 67.172 0.025 6.17 2.88 8.26
9/5/2023 12:00:00 AM 19.47 67.046 0.025 6.2 2.94 8.27
9/5/2023 12:15:00 AM 19.39 66.902 0.025 6.21 2.89 8.29
9/5/2023 12:30:00 AM 19.33 66.794 0.025 6.13 3.78 8.3
9/5/2023 12:45:00 AM 19.27 66.686 0.025 6.24 3.01 8.33
9/5/2023 1:00:00 AM 19.2 66.56 0.025 6.17 2.9 8.32
9/5/2023 1:15:00 AM 19.15 66.47 0.025 6.17 3.03 8.33
9/5/2023 1:30:00 AM 19.1 66.38 0.025 6.22 3.38 8.36
9/5/2023 1:45:00 AM 19.05 66.29 0.025 6.01 3.18 8.36
9/5/2023 2:00:00 AM 18.99 66.182 0.026 6.09 3.05 8.37
9/5/2023 2:15:00 AM 18.94 66.092 0.025 6.09 3.08 8.38
9/5/2023 2:30:00 AM 18.89 66.002 0.025 6.19 3.17 8.37
9/5/2023 2:45:00 AM 18.84 65.912 0.026 6 3.12 8.39
9/5/2023 3:00:00 AM 18.8 65.84 0.025 6.1 3.21 8.4
9/5/2023 3:15:00 AM 18.75 65.75 0.024 6.21 2.99 8.41
9/5/2023 3:30:00 AM 18.69 65.642 0.025 6.21 3.24 8.42
9/5/2023 3:45:00 AM 18.64 65.552 0.026 5.98 3.15 8.41
9/5/2023 4:00:00 AM 18.6 65.48 0.025 6.13 3.12 8.43
9/5/2023 4:15:00 AM 18.54 65.372 0.026 6.05 3.18 8.45
9/5/2023 4:30:00 AM 18.5 65.3 0.025 6.19 3.13 8.45
9/5/2023 4:45:00 AM 18.45 65.21 0.025 6.05 2.91 8.47
9/5/2023 5:00:00 AM 18.39 65.102 0.025 6.18 3.11 8.47
9/5/2023 5:15:00 AM 18.32 64.976 0.025 6.15 3.18 8.48
9/5/2023 5:30:00 AM 18.27 64.886 0.025 6.05 2.97 8.5
9/5/2023 5:45:00 AM 18.22 64.796 0.025 6.18 3.24 8.5
9/5/2023 6:00:00 AM 18.17 64.706 0.025 6.16 3.11 8.51
9/5/2023 6:15:00 AM 18.13 64.634 0.025 6.17 3.1 8.53
9/5/2023 6:30:00 AM 18.08 64.544 0.025 6.19 3.2 8.54
9/5/2023 6:45:00 AM 18.03 64.454 0.025 5.99 2.97 8.56
9/5/2023 7:00:00 AM 17.98 64.364 0.025 6.06 3.06 8.56
9/5/2023 7:15:00 AM 17.94 64.292 0.025 6.12 3.08 8.6
9/5/2023 7:30:00 AM 17.89 64.202 0.025 6.04 3.14 8.61
9/5/2023 7:45:00 AM 17.87 64.166 0.025 6.2 3.21 8.67
9/5/2023 8:00:00 AM 17.84 64.112 0.026 6.2 3.24 8.72
9/5/2023 8:15:00 AM 17.82 64.076 0.025 6.14 3.28 8.75
9/5/2023 8:30:00 AM 17.82 64.076 0.025 6.21 3.08 8.79
9/5/2023 8:45:00 AM 17.84 64.112 0.025 6.15 3.06 8.83
9/5/2023 9:00:00 AM 17.89 64.202 0.025 6.18 3.04 8.88
9/5/2023 9:15:00 AM 17.94 64.292 0.025 6.16 3.27 8.92
9/5/2023 9:30:00 AM 18 64.4 0.025 6.19 3.2 8.92
9/5/2023 9:45:00 AM 18.13 64.634 0.025 6.28 3.12 8.96
9/5/2023 10:00:00 AM 18.22 64.796 0.026 6.17 3.08 8.96
9/5/2023 10:15:00 AM 18.42 65.156 0.024 6.22 2.97 9
9/5/2023 10:30:00 AM 18.59 65.462 0.025 6.29 3.06 9.01
9/5/2023 10:45:00 AM 18.82 65.876 0.025 6.34 3.03 8.99
9/5/2023 11:00:00 AM 19.03 66.254 0.026 6.27 3.17 8.98
9/5/2023 11:15:00 AM 19.26 66.668 0.026 6.34 2.93 8.98
9/5/2023 11:30:00 AM 19.51 67.118 0.025 6.18 3.04 8.97
9/5/2023 11:45:00 AM 19.69 67.442 0.025 6.24 2.93 8.96
9/5/2023 12:00:00 PM 19.89 67.802 0.025 6.28 2.77 8.94
9/5/2023 12:15:00 PM 20.07 68.126 0.025 6.38 3.03 8.9
9/5/2023 12:30:00 PM 20.28 68.504 0.025 6.4 2.6 8.87
9/5/2023 12:45:00 PM 20.5 68.9 0.025 6.21 2.88 8.84
9/5/2023 1:00:00 PM 20.76 69.368 0.026 6.38 2.76 8.81
9/5/2023 1:15:00 PM 21.03 69.854 0.025 6.36 2.85 8.81
9/5/2023 1:30:00 PM 21.2 70.16 0.025 6.33 3 8.76
9/5/2023 1:45:00 PM 21.32 70.376 0.026 6.31 2.94 8.71
9/5/2023 2:00:00 PM 21.48 70.664 0.025 6.41 2.9 8.71
9/5/2023 2:15:00 PM 21.59 70.862 0.025 6.33 2.61 8.69
9/5/2023 2:30:00 PM 21.7 71.06 0.026 6.37 2.86 8.67
9/5/2023 2:45:00 PM 21.86 71.348 0.024 6.47 2.8 8.66
9/5/2023 3:00:00 PM 21.98 71.564 0.026 6.27 2.73 8.61
9/5/2023 3:15:00 PM 22.05 71.69 0.025 6.44 2.85 8.56
9/5/2023 3:30:00 PM 22.09 71.762 0.026 6.32 2.81 8.51
9/5/2023 3:45:00 PM 22.16 71.888 0.025 6.4 2.81 8.51
9/5/2023 4:00:00 PM 22.15 71.87 0.026 6.38 2.83 8.46
9/5/2023 4:15:00 PM 22.23 72.014 0.025 6.42 2.76 8.46
9/5/2023 4:30:00 PM 22.24 72.032 0.027 6.2 2.97 8.43
9/5/2023 4:45:00 PM 22.3 72.14 0.026 6.31 2.77 8.43
9/5/2023 5:00:00 PM 22.35 72.23 0.025 6.35 2.83 8.45
9/5/2023 5:15:00 PM 22.3 72.14 0.026 6.44 2.93 8.42
9/5/2023 5:30:00 PM 22.27 72.086 0.026 6.33 2.78 8.39
9/5/2023 5:45:00 PM 22.24 72.032 0.026 6.35 2.7 8.4
9/5/2023 6:00:00 PM 22.18 71.924 0.024 6.45 2.86 8.4
9/5/2023 6:15:00 PM 22.1 71.78 0.026 6.37 2.89 8.39
9/5/2023 6:30:00 PM 22.03 71.654 0.025 6.44 2.91 8.39
9/5/2023 6:45:00 PM 21.91 71.438 0.026 6.26 2.93 8.38
9/5/2023 7:00:00 PM 21.8 71.24 0.026 6.44 2.93 8.35
9/5/2023 7:15:00 PM 21.66 70.988 0.026 6.4 2.78 8.31
9/5/2023 7:30:00 PM 21.52 70.736 0.025 6.38 2.92 8.25
9/5/2023 7:45:00 PM 21.38 70.484 0.026 6.33 2.95 8.21
9/5/2023 8:00:00 PM 21.24 70.232 0.025 6.37 2.97 8.17
9/5/2023 8:15:00 PM 21.12 70.016 0.025 6.33 2.88 8.14
9/5/2023 8:30:00 PM 20.98 69.764 0.026 6.24 3.17 8.1
9/5/2023 8:45:00 PM 20.87 69.566 0.027 6.17 3.09 8.08
9/5/2023 9:00:00 PM 20.77 69.386 0.026 6.33 2.77 8.1
9/5/2023 9:15:00 PM 20.66 69.188 0.028 6.14 3.02 8.07
9/5/2023 9:30:00 PM 20.59 69.062 0.025 6.29 3.03 8.11
9/5/2023 9:45:00 PM 20.48 68.864 0.026 6.22 2.96 8.1
9/5/2023 10:00:00 PM 20.4 68.72 0.027 6.13 3.01 8.13
9/5/2023 10:15:00 PM 20.31 68.558 0.027 6.18 2.98 8.1
9/5/2023 10:30:00 PM 20.24 68.432 0.026 6.19 3.04 8.14
9/5/2023 10:45:00 PM 20.14 68.252 0.027 6.23 2.99 8.14
9/5/2023 11:00:00 PM 20.06 68.108 0.026 6.13 3.09 8.15
9/5/2023 11:15:00 PM 19.98 67.964 0.026 6.22 3.08 8.18
9/5/2023 11:30:00 PM 19.9 67.82 0.026 6.2 3 8.17
9/5/2023 11:45:00 PM 19.83 67.694 0.026 6.19 2.94 8.2
9/6/2023 12:00:00 AM 19.74 67.532 0.026 6.25 3.07 8.22
9/6/2023 12:15:00 AM 19.66 67.388 0.027 6.13 2.94 8.23
9/6/2023 12:30:00 AM 19.58 67.244 0.026 6.17 3.27 8.24
9/6/2023 12:45:00 AM 19.51 67.118 0.027 6.24 3.05 8.25
9/6/2023 1:00:00 AM 19.44 66.992 0.027 6.22 3.02 8.25
9/6/2023 1:15:00 AM 19.38 66.884 0.027 6.06 3.1 8.29
9/6/2023 1:30:00 AM 19.32 66.776 0.026 6.2 3.1 8.28
9/6/2023 1:45:00 AM 19.27 66.686 0.026 6.19 3.24 8.31
9/6/2023 2:00:00 AM 19.21 66.578 0.026 6.23 3.19 8.32
9/6/2023 2:15:00 AM 19.17 66.506 0.026 6.06 2.92 8.31
9/6/2023 2:30:00 AM 19.11 66.398 0.027 6.17 3.17 8.32
9/6/2023 2:45:00 AM 19.05 66.29 0.026 6.19 3.1 8.35
9/6/2023 3:00:00 AM 19 66.2 0.026 6.25 3.19 8.32
9/6/2023 3:15:00 AM 18.95 66.11 0.027 6.05 3.12 8.35
9/6/2023 3:30:00 AM 18.9 66.02 0.027 6.23 3.09 8.35
9/6/2023 3:45:00 AM 18.86 65.948 0.027 6.2 3.17 8.34
9/6/2023 4:00:00 AM 18.83 65.894 0.026 6.25 2.86 8.37
9/6/2023 4:15:00 AM 18.78 65.804 0.027 6.07 3.19 8.37
9/6/2023 4:30:00 AM 18.74 65.732 0.027 6.2 3.04 8.37
9/6/2023 4:45:00 AM 18.69 65.642 0.027 6.12 3.17 8.39
9/6/2023 5:00:00 AM 18.67 65.606 0.026 6.16 2.99 8.41
9/6/2023 5:15:00 AM 18.61 65.498 0.027 6.24 3.36 8.39
9/6/2023 5:30:00 AM 18.58 65.444 0.026 6.22 3.01 8.41
9/6/2023 5:45:00 AM 18.54 65.372 0.026 6.05 3.02 8.43
9/6/2023 6:00:00 AM 18.5 65.3 0.027 6.22 3.08 8.41
9/6/2023 6:15:00 AM 18.44 65.192 0.027 6.13 3.12 8.41
9/6/2023 6:30:00 AM 18.42 65.156 0.026 6.24 3.24 8.46
9/6/2023 6:45:00 AM 18.37 65.066 0.027 6.1 3.1 8.44
9/6/2023 7:00:00 AM 18.32 64.976 0.026 6.25 3.12 8.47
9/6/2023 7:15:00 AM 18.27 64.886 0.029 6.18 3.03 8.46
9/6/2023 7:30:00 AM 18.25 64.85 0.026 6.12 3.14 8.54
9/6/2023 7:45:00 AM 18.22 64.796 0.026 6.26 3.12 8.59
9/6/2023 8:00:00 AM 18.2 64.76 0.026 6.16 3.15 8.63
9/6/2023 8:15:00 AM 18.2 64.76 0.026 6.13 3.08 8.68
9/6/2023 8:30:00 AM 18.2 64.76 0.026 6.23 3.32 8.74
9/6/2023 8:45:00 AM 18.22 64.796 0.026 6.12 3.08 8.77
9/6/2023 9:00:00 AM 18.26 64.868 0.026 6.22 3.2 8.82
9/6/2023 9:15:00 AM 18.3 64.94 0.026 6.29 3.07 8.84
9/6/2023 9:30:00 AM 18.39 65.102 0.026 6.13 3.34 8.87
9/6/2023 9:45:00 AM 18.48 65.264 0.026 6.26 3.09 8.87
9/6/2023 10:00:00 AM 18.61 65.498 0.027 6.32 2.97 8.89
9/6/2023 10:15:00 AM 18.77 65.786 0.027 6.25 3.22 8.88
9/6/2023 10:30:00 AM 18.98 66.164 0.026 6.24 3.08 8.92
9/6/2023 10:45:00 AM 19.17 66.506 0.026 6.28 3.16 8.92
9/6/2023 11:00:00 AM 19.39 66.902 0.027 6.34 3.17 8.9
9/6/2023 11:15:00 AM 19.65 67.37 0.025 6.22 2.83 8.92
9/6/2023 11:30:00 AM 19.88 67.784 0.026 6.37 2.95 8.9
9/6/2023 11:45:00 AM 20.16 68.288 0.026 6.38 3.16 8.9
9/6/2023 12:00:00 PM 20.33 68.594 0.026 6.29 2.86 8.87
9/6/2023 12:15:00 PM 20.55 68.99 0.026 6.41 3.09 8.84
9/6/2023 12:30:00 PM 20.77 69.386 0.026 6.34 3.13 8.81
9/6/2023 12:45:00 PM 20.93 69.674 0.025 6.44 3.06 8.81
9/6/2023 1:00:00 PM 21.1 69.98 0.026 6.44 2.85 8.78
9/6/2023 1:15:00 PM 21.26 70.268 0.026 6.44 3.07 8.75
9/6/2023 1:30:00 PM 21.46 70.628 0.026 6.31 3.06 8.72
9/6/2023 1:45:00 PM 21.62 70.916 0.026 6.44 3.05 8.69
9/6/2023 2:00:00 PM 21.79 71.222 0.026 6.46 2.91 8.67
9/6/2023 2:15:00 PM 21.87 71.366 0.026 6.37 3.09 8.64
9/6/2023 2:30:00 PM 22.05 71.69 0.026 6.44 2.9 8.62
9/6/2023 2:45:00 PM 22.13 71.834 0.026 6.41 2.83 8.59
9/6/2023 3:00:00 PM 22.31 72.158 0.025 6.52 2.84 8.59
9/6/2023 3:15:00 PM 22.41 72.338 0.027 6.33 2.91 8.57
9/6/2023 3:30:00 PM 22.47 72.446 0.026 6.4 2.66 8.53
9/6/2023 3:45:00 PM 22.55 72.59 0.026 6.37 2.79 8.48
9/6/2023 4:00:00 PM 22.6 72.68 0.026 6.38 2.63 8.45
9/6/2023 4:15:00 PM 22.67 72.806 0.026 6.38 2.73 8.43
9/6/2023 4:30:00 PM 22.72 72.896 0.027 6.42 2.67 8.41
9/6/2023 4:45:00 PM 22.82 73.076 0.026 6.52 2.78 8.4
9/6/2023 5:00:00 PM 22.87 73.166 0.027 6.34 2.68 8.37
9/6/2023 5:15:00 PM 22.83 73.094 0.027 6.48 2.8 8.32
9/6/2023 5:30:00 PM 22.82 73.076 0.027 6.38 2.8 8.29
9/6/2023 5:45:00 PM 22.75 72.95 0.027 6.39 2.7 8.26
9/6/2023 6:00:00 PM 22.64 72.752 0.027 6.36 2.84 8.21
9/6/2023 6:15:00 PM 22.57 72.626 0.027 6.43 2.68 8.22
9/6/2023 6:30:00 PM 22.44 72.392 0.027 6.35 2.72 8.19
9/6/2023 6:45:00 PM 22.33 72.194 0.027 6.36 2.87 8.18
9/6/2023 7:00:00 PM 22.19 71.942 0.027 6.37 2.71 8.14
9/6/2023 7:15:00 PM 22.04 71.672 0.027 6.35 2.98 8.09
9/6/2023 7:30:00 PM 21.87 71.366 0.028 6.38 2.7 8.04
9/6/2023 7:45:00 PM 21.77 71.186 0.028 6.38 2.85 7.99
9/6/2023 8:00:00 PM 21.61 70.898 0.028 6.37 2.71 7.97
9/6/2023 8:15:00 PM 21.49 70.682 0.028 6.26 2.86 7.95
9/6/2023 8:30:00 PM 21.36 70.448 0.028 6.27 2.85 7.93
9/6/2023 8:45:00 PM 21.26 70.268 0.028 6.26 3.16 7.93
9/6/2023 9:00:00 PM 21.11 69.998 0.029 6.19 2.96 7.92
9/6/2023 9:15:00 PM 21.02 69.836 0.028 6.29 2.96 7.94
9/6/2023 9:30:00 PM 20.88 69.584 0.03 6.18 3.09 7.91
9/6/2023 9:45:00 PM 20.8 69.44 0.028 6.19 3.18 7.95
9/6/2023 10:00:00 PM 20.69 69.242 0.028 6.29 2.96 7.97
9/6/2023 10:15:00 PM 20.6 69.08 0.029 6.18 2.79 7.99
9/6/2023 10:30:00 PM 20.49 68.882 0.028 6.31 2.9 7.99
9/6/2023 10:45:00 PM 20.4 68.72 0.029 6.27 2.92 8.02
9/6/2023 11:00:00 PM 20.3 68.54 0.03 6.13 2.97 8.03
9/6/2023 11:15:00 PM 20.23 68.414 0.029 6.19 3 8.04
9/6/2023 11:30:00 PM 20.13 68.234 0.028 6.3 2.95 8.05
9/6/2023 11:45:00 PM 20.05 68.09 0.028 6.27 3.03 8.08
9/7/2023 12:00:00 AM 19.95 67.91 0.029 6.19 3.15 8.09
9/7/2023 12:15:00 AM 19.87 67.766 0.028 6.21 3.15 8.13
9/7/2023 12:30:00 AM 19.78 67.604 0.027 6.25 3.13 8.13
9/7/2023 12:45:00 AM 19.69 67.442 0.028 6.27 3.23 8.14
9/7/2023 1:00:00 AM 19.59 67.262 0.028 6.27 3.1 8.16
9/7/2023 1:15:00 AM 19.52 67.136 0.031 6.16 2.84 8.15
9/7/2023 1:30:00 AM 19.43 66.974 0.028 6.17 2.81 8.18
9/7/2023 1:45:00 AM 19.33 66.794 0.028 6.25 2.9 8.2
9/7/2023 2:00:00 AM 19.25 66.65 0.027 6.23 2.92 8.23
9/7/2023 2:15:00 AM 19.17 66.506 0.027 6.26 3.05 8.24
9/7/2023 2:30:00 AM 19.09 66.362 0.028 6.21 3.22 8.26
9/7/2023 2:45:00 AM 19 66.2 0.028 6.26 3.24 8.27
9/7/2023 3:00:00 AM 18.92 66.056 0.028 6.08 3.23 8.27
9/7/2023 3:15:00 AM 18.83 65.894 0.027 6.25 2.94 8.3
9/7/2023 3:30:00 AM 18.77 65.786 0.029 6.12 3.02 8.29
9/7/2023 3:45:00 AM 18.7 65.66 0.027 6.28 3.01 8.33
9/7/2023 4:00:00 AM 18.62 65.516 0.028 6.24 3.37 8.34
9/7/2023 4:15:00 AM 18.55 65.39 0.028 6.17 2.93 8.34
9/7/2023 4:30:00 AM 18.48 65.264 0.028 6.16 2.96 8.37
9/7/2023 4:45:00 AM 18.41 65.138 0.028 6.15 3.19 8.36
9/7/2023 5:00:00 AM 18.36 65.048 0.028 6.22 3.87 8.29
9/7/2023 5:15:00 AM 18.28 64.904 0.028 6.25 3.31 8.39
9/7/2023 5:30:00 AM 18.22 64.796 0.028 6.25 4.37 8.4
9/7/2023 5:45:00 AM 18.16 64.688 0.029 6.03 3.18 8.41
9/7/2023 6:00:00 AM 18.1 64.58 0.027 6.27 3.13 8.43
9/7/2023 6:15:00 AM 18.05 64.49 0.029 6.11 3.14 8.43
9/7/2023 6:30:00 AM 18 64.4 0.028 6.15 3.1 8.46
9/7/2023 6:45:00 AM 17.95 64.31 0.028 6.15 2.98 8.48
9/7/2023 7:00:00 AM 17.9 64.22 0.028 6.23 3.07 8.49
9/7/2023 7:15:00 AM 17.87 64.166 0.027 6.14 2.83 8.52
9/7/2023 7:30:00 AM 17.83 64.094 0.027 6.27 3.09 8.56
9/7/2023 7:45:00 AM 17.8 64.04 0.028 6.17 3.01 8.59
9/7/2023 8:00:00 AM 17.8 64.04 0.027 6.14 2.96 8.64
9/7/2023 8:15:00 AM 17.79 64.022 0.028 6.22 3 8.68
9/7/2023 8:30:00 AM 17.8 64.04 0.028 6.21 2.98 8.72
9/7/2023 8:45:00 AM 17.83 64.094 0.028 6.26 3.13 8.77
9/7/2023 9:00:00 AM 17.89 64.202 0.029 6.22 3.12 8.85
9/7/2023 9:15:00 AM 17.94 64.292 0.028 6.29 2.97 8.85
9/7/2023 9:30:00 AM 18.02 64.436 0.028 6.17 2.81 8.9
9/7/2023 9:45:00 AM 18.14 64.652 0.027 6.22 2.91 8.92
9/7/2023 10:00:00 AM 18.28 64.904 0.028 6.34 2.74 8.96
9/7/2023 10:15:00 AM 18.46 65.228 0.027 6.38 2.68 8.99
9/7/2023 10:30:00 AM 18.66 65.588 0.027 6.15 2.85 9
9/7/2023 10:45:00 AM 18.89 66.002 0.027 6.39 2.83 8.99
9/7/2023 11:00:00 AM 19.07 66.326 0.028 6.26 2.96 8.99
9/7/2023 11:15:00 AM 19.27 66.686 0.027 6.39 2.98 8.98
9/7/2023 11:30:00 AM 19.51 67.118 0.027 6.3 2.81 8.99
9/7/2023 11:45:00 AM 19.72 67.496 0.028 6.42 2.93 8.95
9/7/2023 12:00:00 PM 19.96 67.92799 0.027 6.34 2.77 8.97
9/7/2023 12:15:00 PM 20.21 68.378 0.027 6.47 3.07 8.95
9/7/2023 12:30:00 PM 20.4 68.72 0.027 6.37 2.74 8.92
9/7/2023 12:45:00 PM 20.6 69.08 0.026 6.48 2.84 8.89
9/7/2023 1:00:00 PM 20.76 69.368 0.027 6.38 2.78 8.9
9/7/2023 1:15:00 PM 20.93 69.674 0.026 6.52 2.69 8.87
9/7/2023 1:30:00 PM 21.14 70.052 0.028 6.38 2.97 8.85
9/7/2023 1:45:00 PM 21.38 70.484 0.026 6.51 2.96 8.82
9/7/2023 2:00:00 PM 21.59 70.862 0.027 6.51 2.7 8.78
9/7/2023 2:15:00 PM 21.86 71.348 0.027 6.52 2.74 8.76
9/7/2023 2:30:00 PM 22.13 71.834 0.026 6.55 2.83 8.71
9/7/2023 2:45:00 PM 22.34 72.212 0.027 6.54 2.59 8.69
9/7/2023 3:00:00 PM 22.49 72.482 0.028 6.42 2.79 8.64
9/7/2023 3:15:00 PM 22.56 72.608 0.028 6.47 2.78 8.58
9/7/2023 3:30:00 PM 22.58 72.644 0.027 6.5 2.7 8.53
9/7/2023 3:45:00 PM 22.58 72.644 0.027 6.52 2.54 8.5
9/7/2023 4:00:00 PM 22.51 72.518 0.028 6.39 2.62 8.45
9/7/2023 4:15:00 PM 22.37 72.266 0.028 6.46 2.74 8.37
9/7/2023 4:30:00 PM 22.19 71.942 0.029 6.38 2.69 8.27
9/7/2023 4:45:00 PM 22.03 71.654 0.027 6.44 2.73 8.21
9/7/2023 5:00:00 PM 21.86 71.348 0.028 6.48 2.99 8.15
9/7/2023 5:15:00 PM 21.69 71.042 0.031 6.25 2.81 8.06
9/7/2023 5:30:00 PM 21.56 70.808 0.028 6.38 2.74 8
9/7/2023 5:45:00 PM 21.42 70.556 0.03 6.29 2.9 7.97
9/7/2023 6:00:00 PM 21.3 70.34 0.028 6.38 2.8 7.94
9/7/2023 6:15:00 PM 21.19 70.142 0.031 6.3 2.89 7.94
9/7/2023 6:30:00 PM 21.09 69.962 0.03 6.29 2.69 7.93
9/7/2023 6:45:00 PM 21 69.8 0.029 6.28 2.93 7.95
9/7/2023 7:00:00 PM 20.9 69.62 0.029 6.36 2.92 7.96
9/7/2023 7:15:00 PM 20.82 69.476 0.03 6.32 2.85 7.99
9/7/2023 7:30:00 PM 20.72 69.296 0.029 6.38 2.94 7.98
9/7/2023 7:45:00 PM 20.63 69.134 0.03 6.29 2.83 7.99
9/7/2023 8:00:00 PM 20.54 68.972 0.03 6.3 2.7 7.99
9/7/2023 8:15:00 PM 20.46 68.828 0.029 6.32 2.85 8
9/7/2023 8:30:00 PM 20.34 68.612 0.03 6.36 2.66 8.02
9/7/2023 8:45:00 PM 20.26 68.468 0.032 6.19 2.82 8.01
9/7/2023 9:00:00 PM 20.17 68.306 0.03 6.29 2.92 8.02
9/7/2023 9:15:00 PM 20.09 68.162 0.029 6.27 2.82 8.04
9/7/2023 9:30:00 PM 20.02 68.036 0.029 6.35 2.63 8.08
9/7/2023 9:45:00 PM 19.94 67.892 0.031 6.21 2.87 8.07
9/7/2023 10:00:00 PM 19.86 67.748 0.029 6.34 2.74 8.1
9/7/2023 10:15:00 PM 19.8 67.64 0.029 6.33 3.02 8.12
9/7/2023 10:30:00 PM 19.7 67.46 0.031 6.22 3.13 8.09
9/7/2023 10:45:00 PM 19.65 67.37 0.03 6.2 2.67 8.14
9/7/2023 11:00:00 PM 19.57 67.226 0.029 6.33 2.89 8.15
9/7/2023 11:15:00 PM 19.49 67.082 0.029 6.29 2.89 8.17
9/7/2023 11:30:00 PM 19.41 66.938 0.03 6.29 2.99 8.16
9/7/2023 11:45:00 PM 19.33 66.794 0.031 6.21 2.84 8.16
9/8/2023 12:00:00 AM 19.27 66.686 0.029 6.29 2.9 8.2
9/8/2023 12:15:00 AM 19.2 66.56 0.029 6.33 2.69 8.23
9/8/2023 12:30:00 AM 19.11 66.398 0.03 6.27 2.96 8.25
9/8/2023 12:45:00 AM 19.03 66.254 0.029 6.29 3.06 8.24
9/8/2023 1:00:00 AM 18.96 66.128 0.029 6.24 3 8.27
9/8/2023 1:15:00 AM 18.88 65.984 0.03 6.26 3.03 8.25
9/8/2023 1:30:00 AM 18.8 65.84 0.03 6.15 3.04 8.29
9/8/2023 1:45:00 AM 18.73 65.714 0.029 6.3 2.94 8.3
9/8/2023 2:00:00 AM 18.65 65.57 0.03 6.3 2.89 8.34
9/8/2023 2:15:00 AM 18.57 65.426 0.03 6.17 3.54 8.35
9/8/2023 2:30:00 AM 18.5 65.3 0.03 6.19 2.94 8.35
9/8/2023 2:45:00 AM 18.42 65.156 0.03 6.29 2.89 8.37
9/8/2023 3:00:00 AM 18.37 65.066 0.03 6.3 3 8.39
9/8/2023 3:15:00 AM 18.29 64.922 0.029 6.24 2.89 8.38
9/8/2023 3:30:00 AM 18.23 64.814 0.029 6.31 2.82 8.42
9/8/2023 3:45:00 AM 18.16 64.688 0.029 6.24 2.97 8.42
9/8/2023 4:00:00 AM 18.1 64.58 0.029 6.25 2.88 8.44
9/8/2023 4:15:00 AM 18.04 64.472 0.03 6.28 3.1 8.44
9/8/2023 4:30:00 AM 18 64.4 0.029 6.21 2.86 8.47
9/8/2023 4:45:00 AM 17.97 64.346 0.029 6.29 3 8.47
9/8/2023 5:00:00 AM 17.93 64.274 0.029 6.24 3.11 8.49
9/8/2023 5:15:00 AM 17.91 64.238 0.029 6.31 2.99 8.49
9/8/2023 5:30:00 AM 17.88 64.184 0.029 6.26 3.18 8.49
9/8/2023 5:45:00 AM 17.86 64.148 0.029 6.25 2.91 8.5
9/8/2023 6:00:00 AM 17.82 64.076 0.029 6.24 2.91 8.5
9/8/2023 6:15:00 AM 17.79 64.022 0.029 6.29 2.82 8.51
9/8/2023 6:30:00 AM 17.75 63.95 0.029 6.23 2.79 8.53
9/8/2023 6:45:00 AM 17.71 63.878 0.029 6.25 2.84 8.54
9/8/2023 7:00:00 AM 17.67 63.806 0.03 6.26 2.93 8.52
9/8/2023 7:15:00 AM 17.65 63.77 0.029 6.26 2.8 8.57
9/8/2023 7:30:00 AM 17.62 63.716 0.028 6.26 3.16 8.6
9/8/2023 7:45:00 AM 17.6 63.68 0.029 6.25 2.9 8.61
9/8/2023 8:00:00 AM 17.6 63.68 0.029 6.18 2.92 8.68
9/8/2023 8:15:00 AM 17.6 63.68 0.03 6.28 2.98 8.71
9/8/2023 8:30:00 AM 17.63 63.734 0.029 6.31 2.91 8.77
9/8/2023 8:45:00 AM 17.69 63.842 0.029 6.25 2.85 8.86
9/8/2023 9:00:00 AM 17.77 63.986 0.029 6.23 2.99 8.93
9/8/2023 9:15:00 AM 17.86 64.148 0.029 6.27 2.93 8.95
9/8/2023 9:30:00 AM 17.96 64.328 0.029 6.25 2.87 9
9/8/2023 9:45:00 AM 18.07 64.526 0.029 6.28 2.87 9.03
9/8/2023 10:00:00 AM 18.2 64.76 0.029 6.38 3.22 9.07
9/8/2023 10:15:00 AM 18.35 65.03 0.029 6.36 3 9.1
9/8/2023 10:30:00 AM 18.5 65.3 0.029 6.28 2.92 9.13
9/8/2023 10:45:00 AM 18.6 65.48 0.028 6.4 2.72 9.14
9/8/2023 11:00:00 AM 18.74 65.732 0.028 6.42 2.91 9.15
9/8/2023 11:15:00 AM 18.9 66.02 0.028 6.47 2.63 9.14
9/8/2023 11:30:00 AM 19.07 66.326 0.027 6.45 2.86 9.13
9/8/2023 11:45:00 AM 19.22 66.596 0.028 6.4 2.76 9.1
9/8/2023 12:00:00 PM 19.49 67.082 0.028 6.4 2.73 9.08
9/8/2023 12:15:00 PM 19.77 67.586 0.028 6.4 2.8 9.05
9/8/2023 12:30:00 PM 20 68 0.028 6.44 2.84 9.01
9/8/2023 12:45:00 PM 20.34 68.612 0.027 6.42 2.77 8.99
9/8/2023 1:00:00 PM 20.63 69.134 0.027 6.53 2.81 8.97
9/8/2023 1:15:00 PM 20.87 69.566 0.028 6.43 2.61 8.93
9/8/2023 1:30:00 PM 21.09 69.962 0.028 6.5 2.72 8.91
9/8/2023 1:45:00 PM 21.28 70.304 0.028 6.45 2.83 8.89
9/8/2023 2:00:00 PM 21.38 70.484 0.028 6.5 2.75 8.85
9/8/2023 2:15:00 PM 21.41 70.538 0.028 6.54 2.82 8.82
9/8/2023 2:30:00 PM 21.42 70.556 0.027 6.53 2.91 8.8
9/8/2023 2:45:00 PM 21.37 70.466 0.029 6.43 2.68 8.77
9/8/2023 3:00:00 PM 21.36 70.448 0.028 6.53 2.7 8.77
9/8/2023 3:15:00 PM 21.29 70.32201 0.028 6.5 2.75 8.74
9/8/2023 3:30:00 PM 21.24 70.232 0.028 6.46 2.76 8.69
9/8/2023 3:45:00 PM 21.18 70.124 0.028 6.51 2.96 8.64
9/8/2023 4:00:00 PM 21.15 70.07 0.029 6.46 3.1 8.63
9/8/2023 4:15:00 PM 21.14 70.052 0.029 6.48 2.83 8.61
9/8/2023 4:30:00 PM 21.17 70.106 0.029 6.43 2.9 8.6
9/8/2023 4:45:00 PM 21.15 70.07 0.029 6.52 2.68 8.59
9/8/2023 5:00:00 PM 21.21 70.17799 0.029 6.4 2.72 8.63
9/8/2023 5:15:00 PM 21.23 70.214 0.029 6.51 2.84 8.59
9/8/2023 5:30:00 PM 21.28 70.304 0.028 6.55 2.76 8.61
9/8/2023 5:45:00 PM 21.28 70.304 0.029 6.51 2.84 8.57
9/8/2023 6:00:00 PM 21.29 70.32201 0.029 6.38 2.62 8.55
9/8/2023 6:15:00 PM 21.23 70.214 0.029 6.49 2.82 8.5
9/8/2023 6:30:00 PM 21.15 70.07 0.029 6.45 2.79 8.43
9/8/2023 6:45:00 PM 21.09 69.962 0.028 6.48 2.8 8.38
9/8/2023 7:00:00 PM 20.98 69.764 0.031 6.3 2.84 8.32
9/8/2023 7:15:00 PM 20.87 69.566 0.03 6.43 2.96 8.26
9/8/2023 7:30:00 PM 20.79 69.422 0.031 6.32 2.76 8.21
9/8/2023 7:45:00 PM 20.67 69.206 0.03 6.3 2.97 8.18
9/8/2023 8:00:00 PM 20.57 69.026 0.031 6.28 2.91 8.13
9/8/2023 8:15:00 PM 20.49 68.882 0.03 6.31 2.86 8.12
9/8/2023 8:30:00 PM 20.39 68.702 0.03 6.32 2.97 8.09
9/8/2023 8:45:00 PM 20.31 68.558 0.03 6.32 2.99 8.09
9/8/2023 9:00:00 PM 20.24 68.432 0.03 6.25 2.89 8.1
9/8/2023 9:15:00 PM 20.15 68.27 0.029 6.34 2.91 8.08
9/8/2023 9:30:00 PM 20.08 68.144 0.033 6.17 2.88 8.09
9/8/2023 9:45:00 PM 20.03 68.054 0.03 6.31 2.78 8.12
9/8/2023 10:00:00 PM 19.95 67.91 0.031 6.22 2.71 8.08
9/8/2023 10:15:00 PM 19.9 67.82 0.03 6.3 2.82 8.14
9/8/2023 10:30:00 PM 19.83 67.694 0.031 6.3 2.82 8.14
9/8/2023 10:45:00 PM 19.76 67.568 0.031 6.27 2.8 8.13
9/8/2023 11:00:00 PM 19.7 67.46 0.03 6.33 2.95 8.15
9/8/2023 11:15:00 PM 19.66 67.388 0.03 6.27 2.78 8.17
9/8/2023 11:30:00 PM 19.59 67.262 0.03 6.31 3.1 8.18
9/8/2023 11:45:00 PM 19.55 67.19 0.03 6.27 2.72 8.18
9/9/2023 12:00:00 AM 19.51 67.118 0.03 6.33 3.09 8.19
9/9/2023 12:15:00 AM 19.46 67.028 0.03 6.32 3.13 8.22
9/9/2023 12:30:00 AM 19.42 66.956 0.031 6.31 2.95 8.2
9/9/2023 12:45:00 AM 19.38 66.884 0.03 6.28 2.86 8.22
9/9/2023 1:00:00 AM 19.35 66.83 0.03 6.31 3 8.23
9/9/2023 1:15:00 AM 19.32 66.776 0.03 6.31 2.82 8.24
9/9/2023 1:30:00 AM 19.28 66.704 0.03 6.32 3.06 8.26
9/9/2023 1:45:00 AM 19.25 66.65 0.03 6.28 3.03 8.25
9/9/2023 2:00:00 AM 19.22 66.596 0.031 6.15 2.89 8.28
9/9/2023 2:15:00 AM 19.19 66.542 0.03 6.23 3.08 8.28
9/9/2023 2:30:00 AM 19.15 66.47 0.029 6.32 2.78 8.28
9/9/2023 2:45:00 AM 19.12 66.416 0.03 6.3 2.86 8.29
9/9/2023 3:00:00 AM 19.08 66.344 0.031 6.15 2.84 8.28
9/9/2023 3:15:00 AM 19.05 66.29 0.03 6.32 2.76 8.28
9/9/2023 3:30:00 AM 19.02 66.236 0.03 6.25 2.91 8.32
9/9/2023 3:45:00 AM 18.99 66.182 0.029 6.25 2.93 8.33
9/9/2023 4:00:00 AM 18.94 66.092 0.03 6.26 4.4 8.31
9/9/2023 4:15:00 AM 18.91 66.038 0.03 6.31 3.54 8.32
9/9/2023 4:30:00 AM 18.87 65.966 0.03 6.3 3.23 8.32
9/9/2023 4:45:00 AM 18.83 65.894 0.031 6.22 3.36 8.31
9/9/2023 5:00:00 AM 18.83 65.894 0.03 6.32 3.06 8.33
9/9/2023 5:15:00 AM 18.81 65.858 0.029 6.35 3.09 8.35
9/9/2023 5:30:00 AM 18.77 65.786 0.032 6.28 3.19 8.33
9/9/2023 5:45:00 AM 18.77 65.786 0.03 6.27 3.23 8.35
9/9/2023 6:00:00 AM 18.75 65.75 0.029 6.29 3.14 8.36
9/9/2023 6:15:00 AM 18.73 65.714 0.03 6.31 3.24 8.37
9/9/2023 6:30:00 AM 18.72 65.696 0.03 6.2 3.13 8.38
9/9/2023 6:45:00 AM 18.71 65.67799 0.029 6.26 2.96 8.39
9/9/2023 7:00:00 AM 18.68 65.624 0.029 6.37 3.23 8.4
9/9/2023 7:15:00 AM 18.68 65.624 0.029 6.22 3.07 8.43
9/9/2023 7:30:00 AM 18.66 65.588 0.029 6.34 3.23 8.44
9/9/2023 7:45:00 AM 18.66 65.588 0.029 6.26 3.16 8.48
9/9/2023 8:00:00 AM 18.65 65.57 0.029 6.36 3.15 8.5
9/9/2023 8:15:00 AM 18.66 65.588 0.029 6.33 2.86 8.54
9/9/2023 8:30:00 AM 18.66 65.588 0.028 6.4 3.12 8.58
9/9/2023 8:45:00 AM 18.66 65.588 0.028 6.39 2.98 8.59
9/9/2023 9:00:00 AM 18.69 65.642 0.028 6.33 3.09 8.65
9/9/2023 9:15:00 AM 18.71 65.67799 0.028 6.36 3.04 8.68
9/9/2023 9:30:00 AM 18.74 65.732 0.028 6.43 3.06 8.72
9/9/2023 9:45:00 AM 18.77 65.786 0.028 6.38 2.91 8.76
9/9/2023 10:00:00 AM 18.81 65.858 0.029 6.43 3.05 8.82
9/9/2023 10:15:00 AM 18.88 65.984 0.028 6.33 2.91 8.87
9/9/2023 10:30:00 AM 18.93 66.074 0.028 6.39 3.3 8.87
9/9/2023 10:45:00 AM 18.99 66.182 0.028 6.42 3.13 8.92
9/9/2023 11:00:00 AM 19.07 66.326 0.028 6.49 2.89 8.95
9/9/2023 11:15:00 AM 19.14 66.452 0.028 6.39 3.04 8.97
9/9/2023 11:30:00 AM 19.2 66.56 0.028 6.42 3.19 8.98
9/9/2023 11:45:00 AM 19.27 66.686 0.029 6.41 3.12 8.99
9/9/2023 12:00:00 PM 19.37 66.866 0.028 6.54 3.27 9.01
9/9/2023 12:15:00 PM 19.46 67.028 0.027 6.5 3.08 9.01
9/9/2023 12:30:00 PM 19.52 67.136 0.027 6.49 3 8.98
9/9/2023 12:45:00 PM 19.65 67.37 0.027 6.51 3.05 9.02
9/9/2023 1:00:00 PM 19.75 67.55 0.027 6.53 3.08 9.02
9/9/2023 1:15:00 PM 19.86 67.748 0.028 6.49 2.91 9.02
9/9/2023 1:30:00 PM 19.98 67.964 0.028 6.55 3.17 9.01
9/9/2023 1:45:00 PM 20.09 68.162 0.029 6.4 3.05 8.99
9/9/2023 2:00:00 PM 20.27 68.486 0.027 6.54 3.16 8.98
9/9/2023 2:15:00 PM 20.47 68.846 0.028 6.48 3 8.98
9/9/2023 2:30:00 PM 20.63 69.134 0.028 6.57 3.16 8.94
9/9/2023 2:45:00 PM 20.86 69.548 0.027 6.57 2.98 8.92
9/9/2023 3:00:00 PM 21.09 69.962 0.029 6.47 3.03 8.89
9/9/2023 3:15:00 PM 21.25 70.25 0.028 6.51 2.94 8.85
9/9/2023 3:30:00 PM 21.36 70.448 0.028 6.54 2.91 8.79
9/9/2023 3:45:00 PM 21.38 70.484 0.028 6.55 2.96 8.73
9/9/2023 4:00:00 PM 21.38 70.484 0.028 6.56 2.93 8.71
9/9/2023 4:15:00 PM 21.3 70.34 0.029 6.5 3.05 8.67
9/9/2023 4:30:00 PM 21.24 70.232 0.029 6.46 2.92 8.66
9/9/2023 4:45:00 PM 21.19 70.142 0.028 6.54 2.73 8.64
9/9/2023 5:00:00 PM 21.12 70.016 0.029 6.47 3.24 8.6
9/9/2023 5:15:00 PM 21.07 69.926 0.028 6.48 2.91 8.57
9/9/2023 5:30:00 PM 21.01 69.818 0.028 6.46 3.4 8.51
9/9/2023 5:45:00 PM 20.88 69.584 0.028 6.49 4.63 8.44
9/9/2023 6:00:00 PM 20.73 69.314 0.032 6.56 8.95 8.37
9/9/2023 6:15:00 PM 20.59 69.062 0.033 6.5 12.91 8.33
9/9/2023 6:30:00 PM 20.44 68.792 0.033 6.53 10.57 8.29
9/9/2023 6:45:00 PM 20.3 68.54 0.032 6.49 8.72 8.27
9/9/2023 7:00:00 PM 20.16 68.288 0.03 6.51 7.17 8.25
9/9/2023 7:15:00 PM 20.03 68.054 0.029 6.36 5.61 8.25
9/9/2023 7:30:00 PM 19.93 67.874 0.028 6.38 5.32 8.25
9/9/2023 7:45:00 PM 19.83 67.694 0.027 6.43 5.45 8.25
9/9/2023 8:00:00 PM 19.73 67.514 0.028 6.47 6.02 8.27
9/9/2023 8:15:00 PM 19.6 67.28 0.028 6.46 7.9 8.3
9/9/2023 8:30:00 PM 19.45 67.01 0.029 6.35 9.29 8.34
9/9/2023 8:45:00 PM 19.29 66.722 0.028 6.47 9.04 8.39
9/9/2023 9:00:00 PM 19.17 66.506 0.028 6.39 7.83 8.42
9/9/2023 9:15:00 PM 19.07 66.326 0.027 6.4 7.91 8.44
9/9/2023 9:30:00 PM 19.01 66.218 0.027 6.44 7.78 8.45
9/9/2023 9:45:00 PM 18.97 66.146 0.027 6.23 8.67 8.46
9/9/2023 10:00:00 PM 18.93 66.074 0.027 6.32 10.16 8.47
9/9/2023 10:15:00 PM 18.92 66.056 0.027 6.34 11.19 8.49
9/9/2023 10:30:00 PM 18.9 66.02 0.027 6.43 11.96 8.51
9/9/2023 10:45:00 PM 18.85 65.93 0.026 6.37 12.68 8.53
9/9/2023 11:00:00 PM 18.79 65.82201 0.025 6.38 14.41 8.56
9/9/2023 11:15:00 PM 18.75 65.75 0.024 6.34 13.66 8.58
9/9/2023 11:30:00 PM 18.73 65.714 0.024 6.16 13.75 8.59
9/9/2023 11:45:00 PM 18.73 65.714 0.023 6.32 13.81 8.6
9/10/2023 12:00:00 AM 18.74 65.732 0.023 6.23 14.35 8.6
9/10/2023 12:15:00 AM 18.73 65.714 0.023 6.19 14.32 8.61
9/10/2023 12:30:00 AM 18.7 65.66 0.023 6.16 14.78 8.62
9/10/2023 12:45:00 AM 18.67 65.606 0.023 6.17 15.61 8.63
9/10/2023 1:00:00 AM 18.63 65.534 0.023 6.28 18.27 8.63
9/10/2023 1:15:00 AM 18.58 65.444 0.023 6.26 22.37 8.65
9/10/2023 1:30:00 AM 18.51 65.318 0.023 6.23 24.35 8.66
9/10/2023 1:45:00 AM 18.44 65.192 0.023 6.29 27.62 8.68
9/10/2023 2:00:00 AM 18.39 65.102 0.023 6.23 28.61 8.69
9/10/2023 2:15:00 AM 18.35 65.03 0.023 6.12 27.32 8.7
9/10/2023 2:30:00 AM 18.33 64.994 0.023 6.21 24.01 8.7
9/10/2023 2:45:00 AM 18.32 64.976 0.022 6.13 20.77 8.7
9/10/2023 3:00:00 AM 18.34 65.012 0.022 6.23 18.75 8.7
9/10/2023 3:15:00 AM 18.36 65.048 0.022 6.12 17.26 8.69
9/10/2023 3:30:00 AM 18.39 65.102 0.021 6.13 15.76 8.69
9/10/2023 3:45:00 AM 18.44 65.192 0.021 6.03 14.66 8.68
9/10/2023 4:00:00 AM 18.48 65.264 0.02 6.11 13.55 8.67
9/10/2023 4:15:00 AM 18.52 65.336 0.02 6.01 12.71 8.66
9/10/2023 4:30:00 AM 18.55 65.39 0.02 6.11 12.36 8.65
9/10/2023 4:45:00 AM 18.58 65.444 0.02 5.99 11.38 8.65
9/10/2023 5:00:00 AM 18.61 65.498 0.019 6.1 11.01 8.64
9/10/2023 5:15:00 AM 18.64 65.552 0.019 5.97 10.47 8.64
9/10/2023 5:30:00 AM 18.65 65.57 0.019 6.08 10.01 8.63
9/10/2023 5:45:00 AM 18.67 65.606 0.019 6.03 9.36 8.64
9/10/2023 6:00:00 AM 18.68 65.624 0.019 5.95 8.9 8.63
9/10/2023 6:15:00 AM 18.68 65.624 0.019 6.06 8.75 8.63
9/10/2023 6:30:00 AM 18.67 65.606 0.019 6.03 8.32 8.63
9/10/2023 6:45:00 AM 18.66 65.588 0.019 5.9 7.91 8.63
9/10/2023 7:00:00 AM 18.65 65.57 0.018 5.96 7.45 8.63
9/10/2023 7:15:00 AM 18.64 65.552 0.018 5.96 6.82 8.64
9/10/2023 7:30:00 AM 18.62 65.516 0.018 5.99 6.67 8.64
9/10/2023 7:45:00 AM 18.61 65.498 0.018 5.93 6.47 8.66
9/10/2023 8:00:00 AM 18.6 65.48 0.018 6.02 5.93 8.67
9/10/2023 8:15:00 AM 18.59 65.462 0.018 6.03 5.75 8.68
9/10/2023 8:30:00 AM 18.59 65.462 0.018 5.9 5.82 8.7
9/10/2023 8:45:00 AM 18.61 65.498 0.018 6.06 5.39 8.72
9/10/2023 9:00:00 AM 18.61 65.498 0.018 6.04 5.49 8.73
9/10/2023 9:15:00 AM 18.62 65.516 0.018 6.05 5.37 8.73
9/10/2023 9:30:00 AM 18.61 65.498 0.018 5.96 5.11 8.72
9/10/2023 9:45:00 AM 18.59 65.462 0.018 6.08 4.91 8.72
9/10/2023 10:00:00 AM 18.61 65.498 0.018 5.9 4.85 8.74
9/10/2023 10:15:00 AM 18.62 65.516 0.018 6.03 4.67 8.75
9/10/2023 10:30:00 AM 18.62 65.516 0.018 5.99 4.71 8.75
9/10/2023 10:45:00 AM 18.63 65.534 0.018 6.03 4.49 8.76
9/10/2023 11:00:00 AM 18.64 65.552 0.018 6.09 4.37 8.77
9/10/2023 11:15:00 AM 18.67 65.606 0.018 6.01 4.51 8.78
9/10/2023 11:30:00 AM 18.68 65.624 0.018 6.12 4.4 8.78
9/10/2023 11:45:00 AM 18.7 65.66 0.018 6.09 4.37 8.79
9/10/2023 12:00:00 PM 18.69 65.642 0.018 5.97 4.21 8.78
9/10/2023 12:15:00 PM 18.67 65.606 0.018 6.1 4.15 8.76
9/10/2023 12:30:00 PM 18.68 65.624 0.018 6.05 4.12 8.76
9/10/2023 12:45:00 PM 18.71 65.67799 0.018 6.11 4.11 8.78
9/10/2023 1:00:00 PM 18.74 65.732 0.018 6.05 4.03 8.79
9/10/2023 1:15:00 PM 18.73 65.714 0.018 6 4.02 8.79
9/10/2023 1:30:00 PM 18.76 65.768 0.018 6.1 3.91 8.79
9/10/2023 1:45:00 PM 18.77 65.786 0.018 5.97 3.94 8.78
9/10/2023 2:00:00 PM 18.79 65.82201 0.018 6.04 3.94 8.79
9/10/2023 2:15:00 PM 18.85 65.93 0.018 6.15 3.94 8.8
9/10/2023 2:30:00 PM 18.92 66.056 0.018 6.13 3.85 8.81
9/10/2023 2:45:00 PM 18.96 66.128 0.018 6.1 3.9 8.81
9/10/2023 3:00:00 PM 18.99 66.182 0.018 6 3.94 8.8
9/10/2023 3:15:00 PM 19.01 66.218 0.018 6.15 3.8 8.78
9/10/2023 3:30:00 PM 19.04 66.272 0.018 6.05 3.75 8.78
9/10/2023 3:45:00 PM 19.07 66.326 0.018 6.06 3.82 8.79
9/10/2023 4:00:00 PM 19.1 66.38 0.018 6.11 3.83 8.78
9/10/2023 4:15:00 PM 19.14 66.452 0.018 6.17 3.78 8.78
9/10/2023 4:30:00 PM 19.15 66.47 0.018 5.99 3.84 8.77
9/10/2023 4:45:00 PM 19.15 66.47 0.018 6.1 3.87 8.75
9/10/2023 5:00:00 PM 19.15 66.47 0.018 6.19 3.79 8.73
9/10/2023 5:15:00 PM 19.14 66.452 0.018 6.13 3.81 8.72
9/10/2023 5:30:00 PM 19.12 66.416 0.018 6.12 3.72 8.7
9/10/2023 5:45:00 PM 19.13 66.434 0.018 6.11 3.83 8.71
9/10/2023 6:00:00 PM 19.16 66.488 0.018 6.02 3.71 8.71
9/10/2023 6:15:00 PM 19.17 66.506 0.018 6.13 3.77 8.7
9/10/2023 6:30:00 PM 19.16 66.488 0.018 6.06 3.76 8.67
9/10/2023 6:45:00 PM 19.14 66.452 0.018 6.08 3.75 8.64
9/10/2023 7:00:00 PM 19.11 66.398 0.018 6.1 3.78 8.61
9/10/2023 7:15:00 PM 19.09 66.362 0.018 6.1 3.72 8.59
9/10/2023 7:30:00 PM 19.07 66.326 0.018 6.11 3.75 8.58
9/10/2023 7:45:00 PM 19.05 66.29 0.018 6.07 3.84 8.56
9/10/2023 8:00:00 PM 19.03 66.254 0.018 5.9 3.68 8.56
9/10/2023 8:15:00 PM 19 66.2 0.018 6.09 3.7 8.56
9/10/2023 8:30:00 PM 18.98 66.164 0.018 5.94 3.76 8.55
9/10/2023 8:45:00 PM 18.95 66.11 0.018 6.07 3.85 8.56
9/10/2023 9:00:00 PM 18.93 66.074 0.018 5.97 3.61 8.56
9/10/2023 9:15:00 PM 18.91 66.038 0.018 6.07 3.78 8.56
9/10/2023 9:30:00 PM 18.89 66.002 0.018 6.07 3.75 8.57
9/10/2023 9:45:00 PM 18.87 65.966 0.018 5.99 3.65 8.57
9/10/2023 10:00:00 PM 18.86 65.948 0.018 6.07 3.65 8.57
9/10/2023 10:15:00 PM 18.84 65.912 0.018 5.85 3.54 8.57
9/10/2023 10:30:00 PM 18.83 65.894 0.018 6.07 3.68 8.57
9/10/2023 10:45:00 PM 18.81 65.858 0.018 5.95 3.48 8.57
9/10/2023 11:00:00 PM 18.78 65.804 0.018 6.07 3.63 8.57
9/10/2023 11:15:00 PM 18.75 65.75 0.018 5.97 3.65 8.59
9/10/2023 11:30:00 PM 18.7 65.66 0.018 6.05 3.52 8.59
9/10/2023 11:45:00 PM 18.66 65.588 0.018 5.98 3.49 8.59
9/11/2023 12:00:00 AM 18.63 65.534 0.018 5.87 3.54 8.6
9/11/2023 12:15:00 AM 18.6 65.48 0.018 6.06 3.54 8.61
9/11/2023 12:30:00 AM 18.58 65.444 0.018 6.05 3.44 8.61
9/11/2023 12:45:00 AM 18.56 65.408 0.018 6 3.51 8.62
9/11/2023 1:00:00 AM 18.53 65.354 0.018 5.99 3.39 8.62
9/11/2023 1:15:00 AM 18.51 65.318 0.018 6.02 3.35 8.62
9/11/2023 1:30:00 AM 18.49 65.282 0.018 5.87 3.46 8.62
9/11/2023 1:45:00 AM 18.47 65.246 0.018 6.01 3.37 8.63
9/11/2023 2:00:00 AM 18.46 65.228 0.018 5.89 3.44 8.63
9/11/2023 2:15:00 AM 18.44 65.192 0.018 6.04 3.26 8.63
9/11/2023 2:30:00 AM 18.43 65.174 0.018 5.92 3.44 8.64
9/11/2023 2:45:00 AM 18.41 65.138 0.018 5.89 3.24 8.63
9/11/2023 3:00:00 AM 18.4 65.12 0.018 6.02 3.23 8.64
9/11/2023 3:15:00 AM 18.38 65.084 0.018 5.91 3.3 8.64
9/11/2023 3:30:00 AM 18.37 65.066 0.018 6.05 3.15 8.64
9/11/2023 3:45:00 AM 18.35 65.03 0.018 5.84 3.2 8.65
9/11/2023 4:00:00 AM 18.33 64.994 0.018 5.99 3.15 8.65
9/11/2023 4:15:00 AM 18.32 64.976 0.018 6.02 3.14 8.65
9/11/2023 4:30:00 AM 18.3 64.94 0.018 6 3.15 8.65
9/11/2023 4:45:00 AM 18.28 64.904 0.018 5.91 3.02 8.65
9/11/2023 5:00:00 AM 18.26 64.868 0.018 6 3.11 8.66
9/11/2023 5:15:00 AM 18.24 64.832 0.018 6.01 3.06 8.66
9/11/2023 5:30:00 AM 18.23 64.814 0.018 6 3.08 8.66
9/11/2023 5:45:00 AM 18.2 64.76 0.018 6 3.35 8.67
9/11/2023 6:00:00 AM 18.16 64.688 0.019 6.04 4.01 8.68
9/11/2023 6:15:00 AM 18.14 64.652 0.019 6.02 3.63 8.68
9/11/2023 6:30:00 AM 18.12 64.616 0.019 6.04 3.51 8.67
9/11/2023 6:45:00 AM 18.1 64.58 0.019 6.04 3.56 8.67
9/11/2023 7:00:00 AM 18.08 64.544 0.019 5.9 3.65 8.68
9/11/2023 7:15:00 AM 18.06 64.508 0.019 6.05 3.74 8.69
9/11/2023 7:30:00 AM 18.04 64.472 0.019 6.05 3.76 8.69
9/11/2023 7:45:00 AM 18.02 64.436 0.02 6.07 3.81 8.71
9/11/2023 8:00:00 AM 18.02 64.436 0.02 5.92 3.67 8.74
9/11/2023 8:15:00 AM 18.02 64.436 0.02 6.14 3.8 8.77
9/11/2023 8:30:00 AM 18.02 64.436 0.02 6.11 4.05 8.79
9/11/2023 8:45:00 AM 18.02 64.436 0.02 5.96 4.31 8.82
9/11/2023 9:00:00 AM 18.02 64.436 0.02 6.14 4.23 8.83
9/11/2023 9:15:00 AM 18.06 64.508 0.019 6.06 4.53 8.85
9/11/2023 9:30:00 AM 18.1 64.58 0.019 6.18 4.61 8.88
9/11/2023 9:45:00 AM 18.12 64.616 0.02 6.09 4.5 8.88
9/11/2023 10:00:00 AM 18.14 64.652 0.02 6.12 4.23 8.89
9/11/2023 10:15:00 AM 18.16 64.688 0.02 6.18 4.25 8.89
9/11/2023 10:30:00 AM 18.22 64.796 0.02 6.14 3.93 8.91
9/11/2023 10:45:00 AM 18.3 64.94 0.02 6.19 3.98 8.93
9/11/2023 11:00:00 AM 18.33 64.994 0.02 6.08 3.78 8.92
9/11/2023 11:15:00 AM 18.36 65.048 0.02 6.19 3.9 8.93
9/11/2023 11:30:00 AM 18.38 65.084 0.02 6.22 3.7 8.92
9/11/2023 11:45:00 AM 18.41 65.138 0.02 6.19 3.66 8.92
9/11/2023 12:00:00 PM 18.46 65.228 0.02 6.2 3.67 8.92
9/11/2023 12:15:00 PM 18.47 65.246 0.02 6.09 3.64 8.91
9/11/2023 12:30:00 PM 18.47 65.246 0.02 6.18 3.67 8.91
9/11/2023 12:45:00 PM 18.46 65.228 0.02 6.1 3.58 8.9
9/11/2023 1:00:00 PM 18.47 65.246 0.019 6.16 3.46 8.91
9/11/2023 1:15:00 PM 18.53 65.354 0.019 6.11 3.5 8.92
9/11/2023 1:30:00 PM 18.62 65.516 0.019 6.2 3.6 8.92
9/11/2023 1:45:00 PM 18.66 65.588 0.019 6.16 3.42 8.91
9/11/2023 2:00:00 PM 18.71 65.67799 0.019 6.24 3.53 8.9
9/11/2023 2:15:00 PM 18.78 65.804 0.019 6.24 3.55 8.88
9/11/2023 2:30:00 PM 18.94 66.092 0.019 6.23 3.55 8.88
9/11/2023 2:45:00 PM 19.08 66.344 0.019 6.22 3.72 8.87
9/11/2023 3:00:00 PM 19.1 66.38 0.019 6.22 3.79 8.85
9/11/2023 3:15:00 PM 19.18 66.524 0.019 6.24 3.81 8.83
9/11/2023 3:30:00 PM 19.18 66.524 0.019 6.18 3.84 8.81
9/11/2023 3:45:00 PM 19.22 66.596 0.019 6.18 3.78 8.79
9/11/2023 4:00:00 PM 19.27 66.686 0.019 6.21 3.65 8.78
9/11/2023 4:15:00 PM 19.25 66.65 0.019 6.1 3.54 8.78
9/11/2023 4:30:00 PM 19.2 66.56 0.019 6.24 3.39 8.75
9/11/2023 4:45:00 PM 19.15 66.47 0.019 6.05 3.3 8.72
9/11/2023 5:00:00 PM 19.1 66.38 0.019 6.24 3.35 8.71
9/11/2023 5:15:00 PM 19.06 66.308 0.019 6.03 3.17 8.72
9/11/2023 5:30:00 PM 19.07 66.326 0.019 6.24 3.25 8.74
9/11/2023 5:45:00 PM 19.04 66.272 0.019 6.02 3.19 8.74
9/11/2023 6:00:00 PM 18.98 66.164 0.019 6.16 3.07 8.72
9/11/2023 6:15:00 PM 18.93 66.074 0.019 6.06 3.08 8.69
9/11/2023 6:30:00 PM 18.89 66.002 0.019 6.2 3.21 8.68
9/11/2023 6:45:00 PM 18.86 65.948 0.019 6.02 3.1 8.66
9/11/2023 7:00:00 PM 18.84 65.912 0.019 6.2 3.02 8.64

These are provisional data and have not been subject to a quality assurance process, but rather are the raw data reported by the instrument.
H: value is above sensor operating range
L: value is below sensor operating range
Offline: station is not reporting data
NC: parameter is not collected at site

Data Availability & Limitations

Uncertainty and potential for error can be associated with environmental monitoring data. Provisional data have not been subject to a quality assurance process, but rather are the raw data reported by the instrument. Data users are cautioned to consider carefully the provisional nature of the information before using it for decisions that concern personal or public safety or the conduct of business that involves substantial monetary or operational consequences.

Approved data are currently available by request by emailing: [email protected]. Approved data have been subject to a quality assurance process to correct for equipment or fouling drift. Data recorded during equipment malfunctions have been removed.

View Historical Stations that have been discontinued.